<?xml version="1.0" encoding="UTF-8" standalone="no" ?>
<gpx xmlns="http://www.topografix.com/GPX/1/1" xmlns:xsi="http://www.w3.org/2001/XMLSchema-instance" xsi:schemaLocation="http://www.topografix.com/GPX/1/1 http://www.topografix.com/GPX/1/1/gpx.xsd" version="1.1" creator="VisuGPX - https://www.visugpx.com">
  <metadata>
    <name>Bonnet vert par les 4 chemins</name>
  </metadata>
  <trk>
    <name><![CDATA[Bonnet vert par les 4 chemins_1]]></name>
    <extensions>
      <line xmlns="http://www.topografix.com/GPX/gpx_style/0/2">
        <color>0000FF</color>
        <width>4</width>
      </line>
    </extensions>
    <trkseg>
      <trkpt lat="44.41353" lon="6.72258">
        <ele>1257.8</ele>
        <time>2021-08-28T12:34:47Z</time>
      </trkpt>
      <trkpt lat="44.41353" lon="6.72248">
        <ele>1258.4</ele>
        <time>2021-08-28T12:34:51Z</time>
      </trkpt>
      <trkpt lat="44.41353" lon="6.72238">
        <ele>1259</ele>
        <time>2021-08-28T12:34:55Z</time>
      </trkpt>
      <trkpt lat="44.41352" lon="6.72229">
        <ele>1259.5</ele>
        <time>2021-08-28T12:34:59Z</time>
      </trkpt>
      <trkpt lat="44.41353" lon="6.72221">
        <ele>1259.9</ele>
        <time>2021-08-28T12:35:03Z</time>
      </trkpt>
      <trkpt lat="44.41357" lon="6.72213">
        <ele>1260.3</ele>
        <time>2021-08-28T12:35:07Z</time>
      </trkpt>
      <trkpt lat="44.41361" lon="6.72205">
        <ele>1260.7</ele>
        <time>2021-08-28T12:35:11Z</time>
      </trkpt>
      <trkpt lat="44.41365" lon="6.72197">
        <ele>1261.1</ele>
        <time>2021-08-28T12:35:15Z</time>
      </trkpt>
      <trkpt lat="44.41368" lon="6.72188">
        <ele>1261.7</ele>
        <time>2021-08-28T12:35:19Z</time>
      </trkpt>
      <trkpt lat="44.41372" lon="6.72181">
        <ele>1262.1</ele>
        <time>2021-08-28T12:35:23Z</time>
      </trkpt>
      <trkpt lat="44.41375" lon="6.72175">
        <ele>1262.5</ele>
        <time>2021-08-28T12:35:27Z</time>
      </trkpt>
      <trkpt lat="44.41379" lon="6.72166">
        <ele>1263</ele>
        <time>2021-08-28T12:35:31Z</time>
      </trkpt>
      <trkpt lat="44.41382" lon="6.72155">
        <ele>1263.8</ele>
        <time>2021-08-28T12:35:35Z</time>
      </trkpt>
      <trkpt lat="44.41387" lon="6.72145">
        <ele>1264.4</ele>
        <time>2021-08-28T12:35:39Z</time>
      </trkpt>
      <trkpt lat="44.4139" lon="6.72137">
        <ele>1264.9</ele>
        <time>2021-08-28T12:35:43Z</time>
      </trkpt>
      <trkpt lat="44.41393" lon="6.72128">
        <ele>1265.5</ele>
        <time>2021-08-28T12:35:47Z</time>
      </trkpt>
      <trkpt lat="44.41395" lon="6.72119">
        <ele>1266</ele>
        <time>2021-08-28T12:35:51Z</time>
      </trkpt>
      <trkpt lat="44.41397" lon="6.72111">
        <ele>1266.5</ele>
        <time>2021-08-28T12:35:55Z</time>
      </trkpt>
      <trkpt lat="44.41399" lon="6.72101">
        <ele>1267.1</ele>
        <time>2021-08-28T12:35:59Z</time>
      </trkpt>
      <trkpt lat="44.414" lon="6.7209">
        <ele>1267.8</ele>
        <time>2021-08-28T12:36:03Z</time>
      </trkpt>
      <trkpt lat="44.41401" lon="6.72079">
        <ele>1268.5</ele>
        <time>2021-08-28T12:36:07Z</time>
      </trkpt>
      <trkpt lat="44.41402" lon="6.72068">
        <ele>1269.5</ele>
        <time>2021-08-28T12:36:11Z</time>
      </trkpt>
      <trkpt lat="44.41402" lon="6.72056">
        <ele>1270.5</ele>
        <time>2021-08-28T12:36:15Z</time>
      </trkpt>
      <trkpt lat="44.41404" lon="6.72047">
        <ele>1271.2</ele>
        <time>2021-08-28T12:36:19Z</time>
      </trkpt>
      <trkpt lat="44.41405" lon="6.72037">
        <ele>1272.1</ele>
        <time>2021-08-28T12:36:23Z</time>
      </trkpt>
      <trkpt lat="44.41406" lon="6.72028">
        <ele>1272.9</ele>
        <time>2021-08-28T12:36:27Z</time>
      </trkpt>
      <trkpt lat="44.41409" lon="6.72018">
        <ele>1273.9</ele>
        <time>2021-08-28T12:36:31Z</time>
      </trkpt>
      <trkpt lat="44.41411" lon="6.72009">
        <ele>1274.8</ele>
        <time>2021-08-28T12:36:35Z</time>
      </trkpt>
      <trkpt lat="44.41416" lon="6.72004">
        <ele>1275.6</ele>
        <time>2021-08-28T12:36:39Z</time>
      </trkpt>
      <trkpt lat="44.4142" lon="6.71996">
        <ele>1276.4</ele>
        <time>2021-08-28T12:36:43Z</time>
      </trkpt>
      <trkpt lat="44.41423" lon="6.71987">
        <ele>1277</ele>
        <time>2021-08-28T12:36:47Z</time>
      </trkpt>
      <trkpt lat="44.41427" lon="6.7198">
        <ele>1277.7</ele>
        <time>2021-08-28T12:36:51Z</time>
      </trkpt>
      <trkpt lat="44.41431" lon="6.71973">
        <ele>1278.3</ele>
        <time>2021-08-28T12:36:55Z</time>
      </trkpt>
      <trkpt lat="44.41437" lon="6.71964">
        <ele>1279.2</ele>
        <time>2021-08-28T12:36:59Z</time>
      </trkpt>
      <trkpt lat="44.41442" lon="6.71956">
        <ele>1280</ele>
        <time>2021-08-28T12:37:03Z</time>
      </trkpt>
      <trkpt lat="44.41446" lon="6.71947">
        <ele>1280.9</ele>
        <time>2021-08-28T12:37:07Z</time>
      </trkpt>
      <trkpt lat="44.4145" lon="6.71939">
        <ele>1281.7</ele>
        <time>2021-08-28T12:37:11Z</time>
      </trkpt>
      <trkpt lat="44.41454" lon="6.71931">
        <ele>1282.6</ele>
        <time>2021-08-28T12:37:15Z</time>
      </trkpt>
      <trkpt lat="44.4146" lon="6.71922">
        <ele>1283.7</ele>
        <time>2021-08-28T12:37:19Z</time>
      </trkpt>
      <trkpt lat="44.41465" lon="6.71913">
        <ele>1284.6</ele>
        <time>2021-08-28T12:37:23Z</time>
      </trkpt>
      <trkpt lat="44.4147" lon="6.71904">
        <ele>1285.4</ele>
        <time>2021-08-28T12:37:27Z</time>
      </trkpt>
      <trkpt lat="44.41474" lon="6.71894">
        <ele>1286.1</ele>
        <time>2021-08-28T12:37:31Z</time>
      </trkpt>
      <trkpt lat="44.4148" lon="6.71885">
        <ele>1287</ele>
        <time>2021-08-28T12:37:35Z</time>
      </trkpt>
      <trkpt lat="44.41484" lon="6.71877">
        <ele>1287.7</ele>
        <time>2021-08-28T12:37:39Z</time>
      </trkpt>
      <trkpt lat="44.41488" lon="6.71868">
        <ele>1288.4</ele>
        <time>2021-08-28T12:37:43Z</time>
      </trkpt>
      <trkpt lat="44.41491" lon="6.71859">
        <ele>1289</ele>
        <time>2021-08-28T12:37:47Z</time>
      </trkpt>
      <trkpt lat="44.4149" lon="6.71851">
        <ele>1289.3</ele>
        <time>2021-08-28T12:37:51Z</time>
      </trkpt>
      <trkpt lat="44.41487" lon="6.71843">
        <ele>1289.5</ele>
        <time>2021-08-28T12:37:55Z</time>
      </trkpt>
      <trkpt lat="44.41483" lon="6.71836">
        <ele>1289.5</ele>
        <time>2021-08-28T12:37:59Z</time>
      </trkpt>
      <trkpt lat="44.41478" lon="6.71828">
        <ele>1289.6</ele>
        <time>2021-08-28T12:38:03Z</time>
      </trkpt>
      <trkpt lat="44.41473" lon="6.71821">
        <ele>1289.7</ele>
        <time>2021-08-28T12:38:07Z</time>
      </trkpt>
      <trkpt lat="44.41464" lon="6.71809">
        <ele>1289.9</ele>
        <time>2021-08-28T12:38:11Z</time>
      </trkpt>
      <trkpt lat="44.4145" lon="6.718">
        <ele>1289.4</ele>
        <time>2021-08-28T12:38:15Z</time>
      </trkpt>
      <trkpt lat="44.41434" lon="6.7179">
        <ele>1288.7</ele>
        <time>2021-08-28T12:38:19Z</time>
      </trkpt>
      <trkpt lat="44.41418" lon="6.71779">
        <ele>1288</ele>
        <time>2021-08-28T12:38:23Z</time>
      </trkpt>
      <trkpt lat="44.414" lon="6.71769">
        <ele>1287.2</ele>
        <time>2021-08-28T12:38:27Z</time>
      </trkpt>
      <trkpt lat="44.41386" lon="6.7176">
        <ele>1286.7</ele>
        <time>2021-08-28T12:38:31Z</time>
      </trkpt>
      <trkpt lat="44.41379" lon="6.71748">
        <ele>1286.9</ele>
        <time>2021-08-28T12:38:35Z</time>
      </trkpt>
      <trkpt lat="44.41382" lon="6.71737">
        <ele>1287.7</ele>
        <time>2021-08-28T12:38:39Z</time>
      </trkpt>
      <trkpt lat="44.41388" lon="6.71728">
        <ele>1288.6</ele>
        <time>2021-08-28T12:38:43Z</time>
      </trkpt>
      <trkpt lat="44.41395" lon="6.71725">
        <ele>1289.4</ele>
        <time>2021-08-28T12:38:47Z</time>
      </trkpt>
      <trkpt lat="44.41401" lon="6.71719">
        <ele>1290.3</ele>
        <time>2021-08-28T12:38:51Z</time>
      </trkpt>
      <trkpt lat="44.41408" lon="6.71712">
        <ele>1291.4</ele>
        <time>2021-08-28T12:38:55Z</time>
      </trkpt>
      <trkpt lat="44.41413" lon="6.71708">
        <ele>1292.1</ele>
        <time>2021-08-28T12:38:59Z</time>
      </trkpt>
      <trkpt lat="44.41418" lon="6.71703">
        <ele>1293</ele>
        <time>2021-08-28T12:39:03Z</time>
      </trkpt>
      <trkpt lat="44.41421" lon="6.71696">
        <ele>1293.7</ele>
        <time>2021-08-28T12:39:07Z</time>
      </trkpt>
      <trkpt lat="44.41425" lon="6.71688">
        <ele>1294.7</ele>
        <time>2021-08-28T12:39:11Z</time>
      </trkpt>
      <trkpt lat="44.41429" lon="6.71681">
        <ele>1295.6</ele>
        <time>2021-08-28T12:39:15Z</time>
      </trkpt>
      <trkpt lat="44.41433" lon="6.71676">
        <ele>1296.4</ele>
        <time>2021-08-28T12:39:19Z</time>
      </trkpt>
      <trkpt lat="44.41439" lon="6.7167">
        <ele>1297.5</ele>
        <time>2021-08-28T12:39:23Z</time>
      </trkpt>
      <trkpt lat="44.41444" lon="6.71665">
        <ele>1298.3</ele>
        <time>2021-08-28T12:39:27Z</time>
      </trkpt>
      <trkpt lat="44.41451" lon="6.7166">
        <ele>1299.2</ele>
        <time>2021-08-28T12:39:31Z</time>
      </trkpt>
      <trkpt lat="44.41455" lon="6.71654">
        <ele>1299.8</ele>
        <time>2021-08-28T12:39:35Z</time>
      </trkpt>
      <trkpt lat="44.4146" lon="6.71651">
        <ele>1300.5</ele>
        <time>2021-08-28T12:39:39Z</time>
      </trkpt>
      <trkpt lat="44.41464" lon="6.71649">
        <ele>1301</ele>
        <time>2021-08-28T12:39:43Z</time>
      </trkpt>
      <trkpt lat="44.41469" lon="6.71647">
        <ele>1301.6</ele>
        <time>2021-08-28T12:39:47Z</time>
      </trkpt>
      <trkpt lat="44.41475" lon="6.71643">
        <ele>1302.4</ele>
        <time>2021-08-28T12:39:51Z</time>
      </trkpt>
      <trkpt lat="44.41484" lon="6.71639">
        <ele>1303.5</ele>
        <time>2021-08-28T12:39:55Z</time>
      </trkpt>
      <trkpt lat="44.41491" lon="6.71637">
        <ele>1304.3</ele>
        <time>2021-08-28T12:39:59Z</time>
      </trkpt>
      <trkpt lat="44.41496" lon="6.71634">
        <ele>1304.9</ele>
        <time>2021-08-28T12:40:03Z</time>
      </trkpt>
      <trkpt lat="44.415" lon="6.71632">
        <ele>1305.4</ele>
        <time>2021-08-28T12:40:07Z</time>
      </trkpt>
      <trkpt lat="44.41506" lon="6.71627">
        <ele>1306.1</ele>
        <time>2021-08-28T12:40:11Z</time>
      </trkpt>
      <trkpt lat="44.41512" lon="6.71624">
        <ele>1306.7</ele>
        <time>2021-08-28T12:40:15Z</time>
      </trkpt>
      <trkpt lat="44.41518" lon="6.71619">
        <ele>1307.3</ele>
        <time>2021-08-28T12:40:19Z</time>
      </trkpt>
      <trkpt lat="44.41524" lon="6.71619">
        <ele>1307.9</ele>
        <time>2021-08-28T12:40:23Z</time>
      </trkpt>
      <trkpt lat="44.41529" lon="6.71616">
        <ele>1308.4</ele>
        <time>2021-08-28T12:40:27Z</time>
      </trkpt>
      <trkpt lat="44.41534" lon="6.71609">
        <ele>1309</ele>
        <time>2021-08-28T12:40:31Z</time>
      </trkpt>
      <trkpt lat="44.41538" lon="6.71604">
        <ele>1309.4</ele>
        <time>2021-08-28T12:40:35Z</time>
      </trkpt>
      <trkpt lat="44.41545" lon="6.71601">
        <ele>1310.1</ele>
        <time>2021-08-28T12:40:39Z</time>
      </trkpt>
      <trkpt lat="44.41553" lon="6.716">
        <ele>1310.9</ele>
        <time>2021-08-28T12:40:43Z</time>
      </trkpt>
      <trkpt lat="44.41558" lon="6.71599">
        <ele>1311.4</ele>
        <time>2021-08-28T12:40:47Z</time>
      </trkpt>
      <trkpt lat="44.41565" lon="6.71594">
        <ele>1312.1</ele>
        <time>2021-08-28T12:40:51Z</time>
      </trkpt>
      <trkpt lat="44.41573" lon="6.71587">
        <ele>1313</ele>
        <time>2021-08-28T12:40:55Z</time>
      </trkpt>
      <trkpt lat="44.4158" lon="6.71581">
        <ele>1313.6</ele>
        <time>2021-08-28T12:40:59Z</time>
      </trkpt>
      <trkpt lat="44.41591" lon="6.71571">
        <ele>1314.2</ele>
        <time>2021-08-28T12:41:03Z</time>
      </trkpt>
      <trkpt lat="44.41599" lon="6.71567">
        <ele>1314.8</ele>
        <time>2021-08-28T12:41:07Z</time>
      </trkpt>
      <trkpt lat="44.41602" lon="6.71568">
        <ele>1315</ele>
        <time>2021-08-28T12:41:11Z</time>
      </trkpt>
      <trkpt lat="44.41606" lon="6.71565">
        <ele>1315.4</ele>
        <time>2021-08-28T12:41:15Z</time>
      </trkpt>
      <trkpt lat="44.4161" lon="6.7156">
        <ele>1315.8</ele>
        <time>2021-08-28T12:41:19Z</time>
      </trkpt>
      <trkpt lat="44.41613" lon="6.71555">
        <ele>1316.2</ele>
        <time>2021-08-28T12:41:23Z</time>
      </trkpt>
      <trkpt lat="44.41614" lon="6.71549">
        <ele>1316.5</ele>
        <time>2021-08-28T12:41:27Z</time>
      </trkpt>
      <trkpt lat="44.41615" lon="6.71541">
        <ele>1316.8</ele>
        <time>2021-08-28T12:41:31Z</time>
      </trkpt>
      <trkpt lat="44.41616" lon="6.71535">
        <ele>1317.1</ele>
        <time>2021-08-28T12:41:35Z</time>
      </trkpt>
      <trkpt lat="44.41615" lon="6.71527">
        <ele>1317.3</ele>
        <time>2021-08-28T12:41:39Z</time>
      </trkpt>
      <trkpt lat="44.41614" lon="6.71518">
        <ele>1317.4</ele>
        <time>2021-08-28T12:41:43Z</time>
      </trkpt>
      <trkpt lat="44.41612" lon="6.71509">
        <ele>1317.3</ele>
        <time>2021-08-28T12:41:47Z</time>
      </trkpt>
      <trkpt lat="44.4161" lon="6.71501">
        <ele>1317.1</ele>
        <time>2021-08-28T12:41:51Z</time>
      </trkpt>
      <trkpt lat="44.41611" lon="6.71494">
        <ele>1318.3</ele>
        <time>2021-08-28T12:41:55Z</time>
      </trkpt>
      <trkpt lat="44.41611" lon="6.71486">
        <ele>1319.6</ele>
        <time>2021-08-28T12:41:59Z</time>
      </trkpt>
      <trkpt lat="44.41612" lon="6.71477">
        <ele>1321.2</ele>
        <time>2021-08-28T12:42:03Z</time>
      </trkpt>
      <trkpt lat="44.41612" lon="6.71469">
        <ele>1322.5</ele>
        <time>2021-08-28T12:42:07Z</time>
      </trkpt>
      <trkpt lat="44.41614" lon="6.7146">
        <ele>1324.4</ele>
        <time>2021-08-28T12:42:11Z</time>
      </trkpt>
      <trkpt lat="44.41613" lon="6.71454">
        <ele>1325.1</ele>
        <time>2021-08-28T12:42:15Z</time>
      </trkpt>
      <trkpt lat="44.41613" lon="6.71448">
        <ele>1326.1</ele>
        <time>2021-08-28T12:42:19Z</time>
      </trkpt>
      <trkpt lat="44.41611" lon="6.71439">
        <ele>1327.1</ele>
        <time>2021-08-28T12:42:23Z</time>
      </trkpt>
      <trkpt lat="44.41608" lon="6.71431">
        <ele>1327.7</ele>
        <time>2021-08-28T12:42:27Z</time>
      </trkpt>
      <trkpt lat="44.41606" lon="6.71423">
        <ele>1328.4</ele>
        <time>2021-08-28T12:42:31Z</time>
      </trkpt>
      <trkpt lat="44.41605" lon="6.71415">
        <ele>1329.5</ele>
        <time>2021-08-28T12:42:35Z</time>
      </trkpt>
      <trkpt lat="44.41604" lon="6.71409">
        <ele>1330.5</ele>
        <time>2021-08-28T12:42:39Z</time>
      </trkpt>
      <trkpt lat="44.41601" lon="6.71401">
        <ele>1331.4</ele>
        <time>2021-08-28T12:42:43Z</time>
      </trkpt>
      <trkpt lat="44.41598" lon="6.71394">
        <ele>1332.1</ele>
        <time>2021-08-28T12:42:47Z</time>
      </trkpt>
      <trkpt lat="44.41596" lon="6.71387">
        <ele>1333.1</ele>
        <time>2021-08-28T12:42:51Z</time>
      </trkpt>
      <trkpt lat="44.41594" lon="6.71379">
        <ele>1334.2</ele>
        <time>2021-08-28T12:42:55Z</time>
      </trkpt>
      <trkpt lat="44.41597" lon="6.71373">
        <ele>1336.2</ele>
        <time>2021-08-28T12:42:59Z</time>
      </trkpt>
      <trkpt lat="44.41602" lon="6.71375">
        <ele>1337</ele>
        <time>2021-08-28T12:43:03Z</time>
      </trkpt>
      <trkpt lat="44.41606" lon="6.7138">
        <ele>1336.9</ele>
        <time>2021-08-28T12:43:07Z</time>
      </trkpt>
      <trkpt lat="44.4161" lon="6.71384">
        <ele>1337.1</ele>
        <time>2021-08-28T12:43:11Z</time>
      </trkpt>
      <trkpt lat="44.41615" lon="6.71386">
        <ele>1337.9</ele>
        <time>2021-08-28T12:43:19Z</time>
      </trkpt>
      <trkpt lat="44.4162" lon="6.71388">
        <ele>1338.6</ele>
        <time>2021-08-28T12:43:23Z</time>
      </trkpt>
      <trkpt lat="44.41624" lon="6.71391">
        <ele>1339</ele>
        <time>2021-08-28T12:43:27Z</time>
      </trkpt>
      <trkpt lat="44.41629" lon="6.71394">
        <ele>1339.6</ele>
        <time>2021-08-28T12:43:31Z</time>
      </trkpt>
      <trkpt lat="44.41633" lon="6.71395">
        <ele>1340.3</ele>
        <time>2021-08-28T12:43:35Z</time>
      </trkpt>
      <trkpt lat="44.41637" lon="6.71396">
        <ele>1341.1</ele>
        <time>2021-08-28T12:43:39Z</time>
      </trkpt>
      <trkpt lat="44.41642" lon="6.71398">
        <ele>1341.9</ele>
        <time>2021-08-28T12:43:43Z</time>
      </trkpt>
      <trkpt lat="44.41646" lon="6.714">
        <ele>1342.4</ele>
        <time>2021-08-28T12:43:47Z</time>
      </trkpt>
      <trkpt lat="44.4165" lon="6.71401">
        <ele>1343.2</ele>
        <time>2021-08-28T12:43:51Z</time>
      </trkpt>
      <trkpt lat="44.41656" lon="6.71404">
        <ele>1344</ele>
        <time>2021-08-28T12:43:55Z</time>
      </trkpt>
      <trkpt lat="44.41661" lon="6.71406">
        <ele>1344.8</ele>
        <time>2021-08-28T12:43:59Z</time>
      </trkpt>
      <trkpt lat="44.41665" lon="6.71406">
        <ele>1345.8</ele>
        <time>2021-08-28T12:44:03Z</time>
      </trkpt>
      <trkpt lat="44.41671" lon="6.7141">
        <ele>1346</ele>
        <time>2021-08-28T12:44:07Z</time>
      </trkpt>
      <trkpt lat="44.41679" lon="6.71415">
        <ele>1346.3</ele>
        <time>2021-08-28T12:44:11Z</time>
      </trkpt>
      <trkpt lat="44.41684" lon="6.71416">
        <ele>1346.8</ele>
        <time>2021-08-28T12:44:15Z</time>
      </trkpt>
      <trkpt lat="44.41691" lon="6.71416">
        <ele>1347.9</ele>
        <time>2021-08-28T12:44:19Z</time>
      </trkpt>
      <trkpt lat="44.41697" lon="6.71416">
        <ele>1348.9</ele>
        <time>2021-08-28T12:44:23Z</time>
      </trkpt>
      <trkpt lat="44.41703" lon="6.71417">
        <ele>1349.6</ele>
        <time>2021-08-28T12:44:27Z</time>
      </trkpt>
      <trkpt lat="44.41709" lon="6.71415">
        <ele>1350.9</ele>
        <time>2021-08-28T12:44:31Z</time>
      </trkpt>
      <trkpt lat="44.41715" lon="6.71415">
        <ele>1351.8</ele>
        <time>2021-08-28T12:44:35Z</time>
      </trkpt>
      <trkpt lat="44.4172" lon="6.71414">
        <ele>1352.8</ele>
        <time>2021-08-28T12:44:39Z</time>
      </trkpt>
      <trkpt lat="44.41727" lon="6.71412">
        <ele>1354.2</ele>
        <time>2021-08-28T12:44:43Z</time>
      </trkpt>
      <trkpt lat="44.41733" lon="6.71408">
        <ele>1355.8</ele>
        <time>2021-08-28T12:44:47Z</time>
      </trkpt>
      <trkpt lat="44.41738" lon="6.71405">
        <ele>1357</ele>
        <time>2021-08-28T12:44:51Z</time>
      </trkpt>
      <trkpt lat="44.41744" lon="6.71402">
        <ele>1358.4</ele>
        <time>2021-08-28T12:44:55Z</time>
      </trkpt>
      <trkpt lat="44.41751" lon="6.71399">
        <ele>1359.8</ele>
        <time>2021-08-28T12:44:59Z</time>
      </trkpt>
      <trkpt lat="44.41757" lon="6.71395">
        <ele>1360.4</ele>
        <time>2021-08-28T12:45:03Z</time>
      </trkpt>
      <trkpt lat="44.41763" lon="6.71392">
        <ele>1360.8</ele>
        <time>2021-08-28T12:45:07Z</time>
      </trkpt>
      <trkpt lat="44.41767" lon="6.71391">
        <ele>1361</ele>
        <time>2021-08-28T12:45:11Z</time>
      </trkpt>
      <trkpt lat="44.41772" lon="6.71388">
        <ele>1361.5</ele>
        <time>2021-08-28T12:45:15Z</time>
      </trkpt>
      <trkpt lat="44.41776" lon="6.71384">
        <ele>1362.2</ele>
        <time>2021-08-28T12:45:19Z</time>
      </trkpt>
      <trkpt lat="44.41781" lon="6.71382">
        <ele>1362.5</ele>
        <time>2021-08-28T12:45:23Z</time>
      </trkpt>
      <trkpt lat="44.41786" lon="6.7138">
        <ele>1362.9</ele>
        <time>2021-08-28T12:45:27Z</time>
      </trkpt>
      <trkpt lat="44.41791" lon="6.71378">
        <ele>1363.2</ele>
        <time>2021-08-28T12:45:31Z</time>
      </trkpt>
      <trkpt lat="44.41797" lon="6.71377">
        <ele>1363.4</ele>
        <time>2021-08-28T12:45:35Z</time>
      </trkpt>
      <trkpt lat="44.41802" lon="6.71373">
        <ele>1364.2</ele>
        <time>2021-08-28T12:45:39Z</time>
      </trkpt>
      <trkpt lat="44.41804" lon="6.7137">
        <ele>1364.7</ele>
        <time>2021-08-28T12:45:43Z</time>
      </trkpt>
      <trkpt lat="44.41801" lon="6.7137">
        <ele>1364.7</ele>
        <time>2021-08-28T12:45:47Z</time>
      </trkpt>
      <trkpt lat="44.41798" lon="6.7137">
        <ele>1364.7</ele>
        <time>2021-08-28T12:45:51Z</time>
      </trkpt>
      <trkpt lat="44.41793" lon="6.71368">
        <ele>1365</ele>
        <time>2021-08-28T12:45:55Z</time>
      </trkpt>
      <trkpt lat="44.41788" lon="6.71366">
        <ele>1365.3</ele>
        <time>2021-08-28T12:45:59Z</time>
      </trkpt>
      <trkpt lat="44.41781" lon="6.71363">
        <ele>1365.7</ele>
        <time>2021-08-28T12:46:03Z</time>
      </trkpt>
      <trkpt lat="44.41776" lon="6.71362">
        <ele>1365.8</ele>
        <time>2021-08-28T12:46:07Z</time>
      </trkpt>
      <trkpt lat="44.41771" lon="6.71361">
        <ele>1365.9</ele>
        <time>2021-08-28T12:46:11Z</time>
      </trkpt>
      <trkpt lat="44.41765" lon="6.71359">
        <ele>1366.2</ele>
        <time>2021-08-28T12:46:15Z</time>
      </trkpt>
      <trkpt lat="44.41759" lon="6.71358">
        <ele>1366.3</ele>
        <time>2021-08-28T12:46:19Z</time>
      </trkpt>
      <trkpt lat="44.41754" lon="6.71357">
        <ele>1366.4</ele>
        <time>2021-08-28T12:46:23Z</time>
      </trkpt>
      <trkpt lat="44.41745" lon="6.71354">
        <ele>1366.2</ele>
        <time>2021-08-28T12:46:27Z</time>
      </trkpt>
      <trkpt lat="44.41737" lon="6.71349">
        <ele>1366</ele>
        <time>2021-08-28T12:46:31Z</time>
      </trkpt>
      <trkpt lat="44.41729" lon="6.71347">
        <ele>1365.4</ele>
        <time>2021-08-28T12:46:35Z</time>
      </trkpt>
      <trkpt lat="44.41723" lon="6.7135">
        <ele>1364.2</ele>
        <time>2021-08-28T12:46:39Z</time>
      </trkpt>
      <trkpt lat="44.41716" lon="6.7135">
        <ele>1363.4</ele>
        <time>2021-08-28T12:46:43Z</time>
      </trkpt>
      <trkpt lat="44.41707" lon="6.71348">
        <ele>1362.7</ele>
        <time>2021-08-28T12:46:47Z</time>
      </trkpt>
      <trkpt lat="44.41699" lon="6.71344">
        <ele>1362.5</ele>
        <time>2021-08-28T12:46:51Z</time>
      </trkpt>
      <trkpt lat="44.41692" lon="6.7134">
        <ele>1362.5</ele>
        <time>2021-08-28T12:46:55Z</time>
      </trkpt>
      <trkpt lat="44.41687" lon="6.71334">
        <ele>1363.1</ele>
        <time>2021-08-28T12:46:59Z</time>
      </trkpt>
      <trkpt lat="44.41681" lon="6.71328">
        <ele>1363.7</ele>
        <time>2021-08-28T12:47:03Z</time>
      </trkpt>
      <trkpt lat="44.41676" lon="6.71319">
        <ele>1365</ele>
        <time>2021-08-28T12:47:07Z</time>
      </trkpt>
      <trkpt lat="44.41674" lon="6.7131">
        <ele>1366.7</ele>
        <time>2021-08-28T12:47:11Z</time>
      </trkpt>
      <trkpt lat="44.41673" lon="6.71301">
        <ele>1368.6</ele>
        <time>2021-08-28T12:47:15Z</time>
      </trkpt>
      <trkpt lat="44.41674" lon="6.71293">
        <ele>1370.3</ele>
        <time>2021-08-28T12:47:19Z</time>
      </trkpt>
      <trkpt lat="44.41678" lon="6.71287">
        <ele>1371.9</ele>
        <time>2021-08-28T12:47:23Z</time>
      </trkpt>
      <trkpt lat="44.41684" lon="6.71284">
        <ele>1373</ele>
        <time>2021-08-28T12:47:27Z</time>
      </trkpt>
      <trkpt lat="44.41689" lon="6.71282">
        <ele>1373.8</ele>
        <time>2021-08-28T12:47:31Z</time>
      </trkpt>
      <trkpt lat="44.41695" lon="6.71279">
        <ele>1374.9</ele>
        <time>2021-08-28T12:47:35Z</time>
      </trkpt>
      <trkpt lat="44.41701" lon="6.71275">
        <ele>1376.2</ele>
        <time>2021-08-28T12:47:39Z</time>
      </trkpt>
      <trkpt lat="44.41705" lon="6.71271">
        <ele>1377.2</ele>
        <time>2021-08-28T12:47:43Z</time>
      </trkpt>
      <trkpt lat="44.41709" lon="6.71265">
        <ele>1378.7</ele>
        <time>2021-08-28T12:47:47Z</time>
      </trkpt>
      <trkpt lat="44.41712" lon="6.71259">
        <ele>1380</ele>
        <time>2021-08-28T12:47:51Z</time>
      </trkpt>
      <trkpt lat="44.41716" lon="6.71253">
        <ele>1381.4</ele>
        <time>2021-08-28T12:47:55Z</time>
      </trkpt>
      <trkpt lat="44.4172" lon="6.7125">
        <ele>1382.2</ele>
        <time>2021-08-28T12:47:59Z</time>
      </trkpt>
      <trkpt lat="44.41722" lon="6.71244">
        <ele>1383.9</ele>
        <time>2021-08-28T12:48:03Z</time>
      </trkpt>
      <trkpt lat="44.41723" lon="6.71236">
        <ele>1386.1</ele>
        <time>2021-08-28T12:48:07Z</time>
      </trkpt>
      <trkpt lat="44.41718" lon="6.71235">
        <ele>1386</ele>
        <time>2021-08-28T12:48:11Z</time>
      </trkpt>
      <trkpt lat="44.41714" lon="6.71238">
        <ele>1385</ele>
        <time>2021-08-28T12:48:15Z</time>
      </trkpt>
      <trkpt lat="44.41709" lon="6.71243">
        <ele>1383.4</ele>
        <time>2021-08-28T12:48:19Z</time>
      </trkpt>
      <trkpt lat="44.41704" lon="6.71248">
        <ele>1381.8</ele>
        <time>2021-08-28T12:48:23Z</time>
      </trkpt>
      <trkpt lat="44.41698" lon="6.71251">
        <ele>1380.7</ele>
        <time>2021-08-28T12:48:27Z</time>
      </trkpt>
      <trkpt lat="44.41692" lon="6.71252">
        <ele>1380.1</ele>
        <time>2021-08-28T12:48:31Z</time>
      </trkpt>
      <trkpt lat="44.41687" lon="6.71251">
        <ele>1380</ele>
        <time>2021-08-28T12:48:35Z</time>
      </trkpt>
      <trkpt lat="44.41681" lon="6.71248">
        <ele>1380.4</ele>
        <time>2021-08-28T12:48:39Z</time>
      </trkpt>
      <trkpt lat="44.41677" lon="6.71244">
        <ele>1381.2</ele>
        <time>2021-08-28T12:48:43Z</time>
      </trkpt>
      <trkpt lat="44.41674" lon="6.71239">
        <ele>1382.3</ele>
        <time>2021-08-28T12:48:47Z</time>
      </trkpt>
      <trkpt lat="44.4167" lon="6.71233">
        <ele>1383.7</ele>
        <time>2021-08-28T12:48:51Z</time>
      </trkpt>
      <trkpt lat="44.41667" lon="6.71226">
        <ele>1385.4</ele>
        <time>2021-08-28T12:48:55Z</time>
      </trkpt>
      <trkpt lat="44.41665" lon="6.7122">
        <ele>1386.5</ele>
        <time>2021-08-28T12:48:59Z</time>
      </trkpt>
      <trkpt lat="44.41663" lon="6.71215">
        <ele>1387.4</ele>
        <time>2021-08-28T12:49:03Z</time>
      </trkpt>
      <trkpt lat="44.41662" lon="6.71207">
        <ele>1389.3</ele>
        <time>2021-08-28T12:49:07Z</time>
      </trkpt>
      <trkpt lat="44.41659" lon="6.71198">
        <ele>1391</ele>
        <time>2021-08-28T12:49:11Z</time>
      </trkpt>
      <trkpt lat="44.41656" lon="6.71193">
        <ele>1391.6</ele>
        <time>2021-08-28T12:49:15Z</time>
      </trkpt>
      <trkpt lat="44.41653" lon="6.71183">
        <ele>1393.6</ele>
        <time>2021-08-28T12:49:19Z</time>
      </trkpt>
      <trkpt lat="44.41652" lon="6.71175">
        <ele>1395.5</ele>
        <time>2021-08-28T12:49:23Z</time>
      </trkpt>
      <trkpt lat="44.4165" lon="6.71165">
        <ele>1397.5</ele>
        <time>2021-08-28T12:49:27Z</time>
      </trkpt>
      <trkpt lat="44.4165" lon="6.71157">
        <ele>1399.2</ele>
        <time>2021-08-28T12:49:31Z</time>
      </trkpt>
      <trkpt lat="44.41649" lon="6.71149">
        <ele>1400.7</ele>
        <time>2021-08-28T12:49:35Z</time>
      </trkpt>
      <trkpt lat="44.41648" lon="6.71141">
        <ele>1402.1</ele>
        <time>2021-08-28T12:49:39Z</time>
      </trkpt>
      <trkpt lat="44.41645" lon="6.71133">
        <ele>1403.1</ele>
        <time>2021-08-28T12:49:43Z</time>
      </trkpt>
      <trkpt lat="44.41642" lon="6.71126">
        <ele>1404</ele>
        <time>2021-08-28T12:49:47Z</time>
      </trkpt>
      <trkpt lat="44.4164" lon="6.71122">
        <ele>1404.4</ele>
        <time>2021-08-28T12:49:51Z</time>
      </trkpt>
      <trkpt lat="44.41636" lon="6.71115">
        <ele>1405</ele>
        <time>2021-08-28T12:49:55Z</time>
      </trkpt>
      <trkpt lat="44.41632" lon="6.71107">
        <ele>1405.9</ele>
        <time>2021-08-28T12:49:59Z</time>
      </trkpt>
      <trkpt lat="44.41629" lon="6.711">
        <ele>1406.7</ele>
        <time>2021-08-28T12:50:03Z</time>
      </trkpt>
      <trkpt lat="44.41628" lon="6.71092">
        <ele>1408.2</ele>
        <time>2021-08-28T12:50:07Z</time>
      </trkpt>
      <trkpt lat="44.41626" lon="6.71084">
        <ele>1409.6</ele>
        <time>2021-08-28T12:50:11Z</time>
      </trkpt>
      <trkpt lat="44.41625" lon="6.71074">
        <ele>1411.8</ele>
        <time>2021-08-28T12:50:15Z</time>
      </trkpt>
      <trkpt lat="44.41623" lon="6.71067">
        <ele>1413.1</ele>
        <time>2021-08-28T12:50:19Z</time>
      </trkpt>
      <trkpt lat="44.4162" lon="6.7106">
        <ele>1414.1</ele>
        <time>2021-08-28T12:50:23Z</time>
      </trkpt>
      <trkpt lat="44.41617" lon="6.71053">
        <ele>1415.2</ele>
        <time>2021-08-28T12:50:27Z</time>
      </trkpt>
      <trkpt lat="44.41613" lon="6.71046">
        <ele>1415.9</ele>
        <time>2021-08-28T12:50:31Z</time>
      </trkpt>
      <trkpt lat="44.4161" lon="6.71039">
        <ele>1416.9</ele>
        <time>2021-08-28T12:50:35Z</time>
      </trkpt>
      <trkpt lat="44.41606" lon="6.71033">
        <ele>1417.3</ele>
        <time>2021-08-28T12:50:39Z</time>
      </trkpt>
      <trkpt lat="44.41603" lon="6.71027">
        <ele>1418</ele>
        <time>2021-08-28T12:50:43Z</time>
      </trkpt>
      <trkpt lat="44.41601" lon="6.71021">
        <ele>1418.9</ele>
        <time>2021-08-28T12:50:47Z</time>
      </trkpt>
      <trkpt lat="44.41601" lon="6.71013">
        <ele>1420.7</ele>
        <time>2021-08-28T12:50:51Z</time>
      </trkpt>
      <trkpt lat="44.41605" lon="6.71008">
        <ele>1422.9</ele>
        <time>2021-08-28T12:50:55Z</time>
      </trkpt>
      <trkpt lat="44.41608" lon="6.71008">
        <ele>1423.6</ele>
        <time>2021-08-28T12:50:59Z</time>
      </trkpt>
      <trkpt lat="44.41612" lon="6.71011">
        <ele>1424</ele>
        <time>2021-08-28T12:51:03Z</time>
      </trkpt>
      <trkpt lat="44.41617" lon="6.71015">
        <ele>1424.3</ele>
        <time>2021-08-28T12:51:07Z</time>
      </trkpt>
      <trkpt lat="44.41621" lon="6.7102">
        <ele>1424.1</ele>
        <time>2021-08-28T12:51:11Z</time>
      </trkpt>
      <trkpt lat="44.41625" lon="6.71023">
        <ele>1424.3</ele>
        <time>2021-08-28T12:51:15Z</time>
      </trkpt>
      <trkpt lat="44.41629" lon="6.71026">
        <ele>1424.6</ele>
        <time>2021-08-28T12:51:19Z</time>
      </trkpt>
      <trkpt lat="44.41634" lon="6.71029">
        <ele>1425.1</ele>
        <time>2021-08-28T12:51:23Z</time>
      </trkpt>
      <trkpt lat="44.41639" lon="6.71029">
        <ele>1426.3</ele>
        <time>2021-08-28T12:51:27Z</time>
      </trkpt>
      <trkpt lat="44.41644" lon="6.71029">
        <ele>1427.5</ele>
        <time>2021-08-28T12:51:31Z</time>
      </trkpt>
      <trkpt lat="44.4165" lon="6.71029">
        <ele>1428.9</ele>
        <time>2021-08-28T12:51:35Z</time>
      </trkpt>
      <trkpt lat="44.41655" lon="6.71029">
        <ele>1430.2</ele>
        <time>2021-08-28T12:51:39Z</time>
      </trkpt>
      <trkpt lat="44.4166" lon="6.71027">
        <ele>1431.9</ele>
        <time>2021-08-28T12:51:43Z</time>
      </trkpt>
      <trkpt lat="44.41668" lon="6.71028">
        <ele>1433.4</ele>
        <time>2021-08-28T12:51:47Z</time>
      </trkpt>
      <trkpt lat="44.41674" lon="6.71024">
        <ele>1435</ele>
        <time>2021-08-28T12:51:51Z</time>
      </trkpt>
      <trkpt lat="44.41679" lon="6.71023">
        <ele>1435.6</ele>
        <time>2021-08-28T12:51:55Z</time>
      </trkpt>
      <trkpt lat="44.41684" lon="6.71025">
        <ele>1435.5</ele>
        <time>2021-08-28T12:51:59Z</time>
      </trkpt>
      <trkpt lat="44.41691" lon="6.71026">
        <ele>1435.8</ele>
        <time>2021-08-28T12:52:03Z</time>
      </trkpt>
      <trkpt lat="44.41697" lon="6.71024">
        <ele>1436.8</ele>
        <time>2021-08-28T12:52:07Z</time>
      </trkpt>
      <trkpt lat="44.41702" lon="6.71026">
        <ele>1436.6</ele>
        <time>2021-08-28T12:52:11Z</time>
      </trkpt>
      <trkpt lat="44.41709" lon="6.71024">
        <ele>1437.7</ele>
        <time>2021-08-28T12:52:15Z</time>
      </trkpt>
      <trkpt lat="44.41715" lon="6.71025">
        <ele>1437.9</ele>
        <time>2021-08-28T12:52:19Z</time>
      </trkpt>
      <trkpt lat="44.41722" lon="6.71023">
        <ele>1439</ele>
        <time>2021-08-28T12:52:23Z</time>
      </trkpt>
      <trkpt lat="44.41729" lon="6.71019">
        <ele>1440.6</ele>
        <time>2021-08-28T12:52:27Z</time>
      </trkpt>
      <trkpt lat="44.41736" lon="6.71015">
        <ele>1442.2</ele>
        <time>2021-08-28T12:52:31Z</time>
      </trkpt>
      <trkpt lat="44.4174" lon="6.71013">
        <ele>1443</ele>
        <time>2021-08-28T12:52:35Z</time>
      </trkpt>
      <trkpt lat="44.41747" lon="6.71012">
        <ele>1443.7</ele>
        <time>2021-08-28T12:52:39Z</time>
      </trkpt>
      <trkpt lat="44.41753" lon="6.71012">
        <ele>1444.1</ele>
        <time>2021-08-28T12:52:43Z</time>
      </trkpt>
      <trkpt lat="44.4176" lon="6.71011">
        <ele>1444.7</ele>
        <time>2021-08-28T12:52:47Z</time>
      </trkpt>
      <trkpt lat="44.41765" lon="6.71011">
        <ele>1444.9</ele>
        <time>2021-08-28T12:52:51Z</time>
      </trkpt>
      <trkpt lat="44.41771" lon="6.7101">
        <ele>1445.5</ele>
        <time>2021-08-28T12:52:55Z</time>
      </trkpt>
      <trkpt lat="44.41777" lon="6.7101">
        <ele>1445.7</ele>
        <time>2021-08-28T12:52:59Z</time>
      </trkpt>
      <trkpt lat="44.41784" lon="6.71009">
        <ele>1446.3</ele>
        <time>2021-08-28T12:53:03Z</time>
      </trkpt>
      <trkpt lat="44.4179" lon="6.71007">
        <ele>1447.1</ele>
        <time>2021-08-28T12:53:07Z</time>
      </trkpt>
      <trkpt lat="44.41798" lon="6.71006">
        <ele>1447.8</ele>
        <time>2021-08-28T12:53:11Z</time>
      </trkpt>
      <trkpt lat="44.41804" lon="6.71003">
        <ele>1448.8</ele>
        <time>2021-08-28T12:53:15Z</time>
      </trkpt>
      <trkpt lat="44.41811" lon="6.71">
        <ele>1449.9</ele>
        <time>2021-08-28T12:53:19Z</time>
      </trkpt>
      <trkpt lat="44.41817" lon="6.70999">
        <ele>1450.4</ele>
        <time>2021-08-28T12:53:23Z</time>
      </trkpt>
      <trkpt lat="44.41823" lon="6.70997">
        <ele>1451.2</ele>
        <time>2021-08-28T12:53:27Z</time>
      </trkpt>
      <trkpt lat="44.41829" lon="6.70993">
        <ele>1452.3</ele>
        <time>2021-08-28T12:53:31Z</time>
      </trkpt>
      <trkpt lat="44.41835" lon="6.70991">
        <ele>1452.8</ele>
        <time>2021-08-28T12:53:35Z</time>
      </trkpt>
      <trkpt lat="44.41841" lon="6.70989">
        <ele>1453.2</ele>
        <time>2021-08-28T12:53:39Z</time>
      </trkpt>
      <trkpt lat="44.41846" lon="6.70988">
        <ele>1453.4</ele>
        <time>2021-08-28T12:53:43Z</time>
      </trkpt>
      <trkpt lat="44.41851" lon="6.70984">
        <ele>1454.3</ele>
        <time>2021-08-28T12:53:47Z</time>
      </trkpt>
      <trkpt lat="44.41858" lon="6.70981">
        <ele>1455</ele>
        <time>2021-08-28T12:53:51Z</time>
      </trkpt>
      <trkpt lat="44.41865" lon="6.70979">
        <ele>1455.5</ele>
        <time>2021-08-28T12:53:55Z</time>
      </trkpt>
      <trkpt lat="44.4187" lon="6.70976">
        <ele>1456.2</ele>
        <time>2021-08-28T12:53:59Z</time>
      </trkpt>
      <trkpt lat="44.41876" lon="6.70972">
        <ele>1457.2</ele>
        <time>2021-08-28T12:54:03Z</time>
      </trkpt>
      <trkpt lat="44.41881" lon="6.70967">
        <ele>1458.5</ele>
        <time>2021-08-28T12:54:07Z</time>
      </trkpt>
      <trkpt lat="44.41886" lon="6.70961">
        <ele>1460.1</ele>
        <time>2021-08-28T12:54:11Z</time>
      </trkpt>
      <trkpt lat="44.41892" lon="6.70955">
        <ele>1461.8</ele>
        <time>2021-08-28T12:54:15Z</time>
      </trkpt>
      <trkpt lat="44.41898" lon="6.7095">
        <ele>1463.2</ele>
        <time>2021-08-28T12:54:19Z</time>
      </trkpt>
      <trkpt lat="44.41904" lon="6.70946">
        <ele>1464.5</ele>
        <time>2021-08-28T12:54:23Z</time>
      </trkpt>
      <trkpt lat="44.41909" lon="6.70942">
        <ele>1465.7</ele>
        <time>2021-08-28T12:54:27Z</time>
      </trkpt>
      <trkpt lat="44.41913" lon="6.70938">
        <ele>1467</ele>
        <time>2021-08-28T12:54:31Z</time>
      </trkpt>
      <trkpt lat="44.41912" lon="6.70934">
        <ele>1468</ele>
        <time>2021-08-28T12:54:35Z</time>
      </trkpt>
      <trkpt lat="44.41908" lon="6.70932">
        <ele>1468.4</ele>
        <time>2021-08-28T12:54:39Z</time>
      </trkpt>
      <trkpt lat="44.41904" lon="6.70933">
        <ele>1467.9</ele>
        <time>2021-08-28T12:54:43Z</time>
      </trkpt>
      <trkpt lat="44.41899" lon="6.70932">
        <ele>1467.9</ele>
        <time>2021-08-28T12:54:47Z</time>
      </trkpt>
      <trkpt lat="44.41895" lon="6.70931">
        <ele>1468</ele>
        <time>2021-08-28T12:54:51Z</time>
      </trkpt>
      <trkpt lat="44.4189" lon="6.70929">
        <ele>1468.3</ele>
        <time>2021-08-28T12:54:55Z</time>
      </trkpt>
      <trkpt lat="44.41885" lon="6.70927">
        <ele>1468.5</ele>
        <time>2021-08-28T12:54:59Z</time>
      </trkpt>
      <trkpt lat="44.41879" lon="6.70923">
        <ele>1469.2</ele>
        <time>2021-08-28T12:55:03Z</time>
      </trkpt>
      <trkpt lat="44.41874" lon="6.70922">
        <ele>1469.2</ele>
        <time>2021-08-28T12:55:07Z</time>
      </trkpt>
      <trkpt lat="44.41868" lon="6.70918">
        <ele>1469.8</ele>
        <time>2021-08-28T12:55:11Z</time>
      </trkpt>
      <trkpt lat="44.41861" lon="6.70914">
        <ele>1470.5</ele>
        <time>2021-08-28T12:55:15Z</time>
      </trkpt>
      <trkpt lat="44.41854" lon="6.70911">
        <ele>1471.1</ele>
        <time>2021-08-28T12:55:19Z</time>
      </trkpt>
      <trkpt lat="44.41848" lon="6.7091">
        <ele>1471</ele>
        <time>2021-08-28T12:55:23Z</time>
      </trkpt>
      <trkpt lat="44.41839" lon="6.70907">
        <ele>1471.5</ele>
        <time>2021-08-28T12:55:27Z</time>
      </trkpt>
      <trkpt lat="44.41833" lon="6.70909">
        <ele>1470.5</ele>
        <time>2021-08-28T12:55:31Z</time>
      </trkpt>
      <trkpt lat="44.41823" lon="6.70908">
        <ele>1471.3</ele>
        <time>2021-08-28T12:55:35Z</time>
      </trkpt>
      <trkpt lat="44.41811" lon="6.70905">
        <ele>1472.8</ele>
        <time>2021-08-28T12:55:39Z</time>
      </trkpt>
      <trkpt lat="44.41803" lon="6.70907">
        <ele>1472.6</ele>
        <time>2021-08-28T12:55:43Z</time>
      </trkpt>
      <trkpt lat="44.41793" lon="6.7091">
        <ele>1472.3</ele>
        <time>2021-08-28T12:55:47Z</time>
      </trkpt>
      <trkpt lat="44.41786" lon="6.70911">
        <ele>1472.4</ele>
        <time>2021-08-28T12:55:51Z</time>
      </trkpt>
      <trkpt lat="44.41779" lon="6.70911">
        <ele>1472.7</ele>
        <time>2021-08-28T12:55:55Z</time>
      </trkpt>
      <trkpt lat="44.41773" lon="6.70912">
        <ele>1472.8</ele>
        <time>2021-08-28T12:55:59Z</time>
      </trkpt>
      <trkpt lat="44.41767" lon="6.70914">
        <ele>1472.6</ele>
        <time>2021-08-28T12:56:03Z</time>
      </trkpt>
      <trkpt lat="44.41761" lon="6.70913">
        <ele>1473.2</ele>
        <time>2021-08-28T12:56:07Z</time>
      </trkpt>
      <trkpt lat="44.41757" lon="6.70911">
        <ele>1473.9</ele>
        <time>2021-08-28T12:56:11Z</time>
      </trkpt>
      <trkpt lat="44.41758" lon="6.70906">
        <ele>1475.1</ele>
        <time>2021-08-28T12:56:15Z</time>
      </trkpt>
      <trkpt lat="44.41762" lon="6.70902">
        <ele>1475.8</ele>
        <time>2021-08-28T12:56:19Z</time>
      </trkpt>
      <trkpt lat="44.41766" lon="6.70899">
        <ele>1476.4</ele>
        <time>2021-08-28T12:56:23Z</time>
      </trkpt>
      <trkpt lat="44.41771" lon="6.70894">
        <ele>1477.5</ele>
        <time>2021-08-28T12:56:27Z</time>
      </trkpt>
      <trkpt lat="44.41773" lon="6.70887">
        <ele>1479.2</ele>
        <time>2021-08-28T12:56:31Z</time>
      </trkpt>
      <trkpt lat="44.41775" lon="6.70881">
        <ele>1480.7</ele>
        <time>2021-08-28T12:56:35Z</time>
      </trkpt>
      <trkpt lat="44.41776" lon="6.70877">
        <ele>1481.7</ele>
        <time>2021-08-28T12:56:39Z</time>
      </trkpt>
      <trkpt lat="44.41778" lon="6.70869">
        <ele>1483.7</ele>
        <time>2021-08-28T12:56:43Z</time>
      </trkpt>
      <trkpt lat="44.41784" lon="6.70862">
        <ele>1485.6</ele>
        <time>2021-08-28T12:56:47Z</time>
      </trkpt>
      <trkpt lat="44.41788" lon="6.70856">
        <ele>1487.2</ele>
        <time>2021-08-28T12:56:51Z</time>
      </trkpt>
      <trkpt lat="44.41792" lon="6.70852">
        <ele>1488.4</ele>
        <time>2021-08-28T12:56:55Z</time>
      </trkpt>
      <trkpt lat="44.41796" lon="6.7085">
        <ele>1489</ele>
        <time>2021-08-28T12:56:59Z</time>
      </trkpt>
      <trkpt lat="44.41804" lon="6.70844">
        <ele>1490.8</ele>
        <time>2021-08-28T12:57:03Z</time>
      </trkpt>
      <trkpt lat="44.41812" lon="6.70841">
        <ele>1491.9</ele>
        <time>2021-08-28T12:57:07Z</time>
      </trkpt>
      <trkpt lat="44.41819" lon="6.70838">
        <ele>1493</ele>
        <time>2021-08-28T12:57:11Z</time>
      </trkpt>
      <trkpt lat="44.41826" lon="6.70836">
        <ele>1493.9</ele>
        <time>2021-08-28T12:57:15Z</time>
      </trkpt>
      <trkpt lat="44.41831" lon="6.70834">
        <ele>1494.7</ele>
        <time>2021-08-28T12:57:19Z</time>
      </trkpt>
      <trkpt lat="44.41839" lon="6.70832">
        <ele>1495.7</ele>
        <time>2021-08-28T12:57:23Z</time>
      </trkpt>
      <trkpt lat="44.41847" lon="6.70832">
        <ele>1496.2</ele>
        <time>2021-08-28T12:57:27Z</time>
      </trkpt>
      <trkpt lat="44.41855" lon="6.70831">
        <ele>1496.9</ele>
        <time>2021-08-28T12:57:31Z</time>
      </trkpt>
      <trkpt lat="44.41862" lon="6.70832">
        <ele>1497.1</ele>
        <time>2021-08-28T12:57:35Z</time>
      </trkpt>
      <trkpt lat="44.41869" lon="6.70832">
        <ele>1497.5</ele>
        <time>2021-08-28T12:57:39Z</time>
      </trkpt>
      <trkpt lat="44.41877" lon="6.70831">
        <ele>1498.3</ele>
        <time>2021-08-28T12:57:43Z</time>
      </trkpt>
      <trkpt lat="44.41885" lon="6.70831">
        <ele>1498.8</ele>
        <time>2021-08-28T12:57:47Z</time>
      </trkpt>
      <trkpt lat="44.41893" lon="6.70833">
        <ele>1498.7</ele>
        <time>2021-08-28T12:57:51Z</time>
      </trkpt>
      <trkpt lat="44.419" lon="6.7083">
        <ele>1499.9</ele>
        <time>2021-08-28T12:57:55Z</time>
      </trkpt>
      <trkpt lat="44.41899" lon="6.70821">
        <ele>1502.4</ele>
        <time>2021-08-28T12:57:59Z</time>
      </trkpt>
      <trkpt lat="44.41893" lon="6.7082">
        <ele>1502.3</ele>
        <time>2021-08-28T12:58:03Z</time>
      </trkpt>
      <trkpt lat="44.41888" lon="6.70818">
        <ele>1502.6</ele>
        <time>2021-08-28T12:58:07Z</time>
      </trkpt>
      <trkpt lat="44.41883" lon="6.70814">
        <ele>1503.4</ele>
        <time>2021-08-28T12:58:11Z</time>
      </trkpt>
      <trkpt lat="44.41879" lon="6.70813">
        <ele>1503.4</ele>
        <time>2021-08-28T12:58:15Z</time>
      </trkpt>
      <trkpt lat="44.41872" lon="6.70812">
        <ele>1503.2</ele>
        <time>2021-08-28T12:58:19Z</time>
      </trkpt>
      <trkpt lat="44.41867" lon="6.7081">
        <ele>1503.4</ele>
        <time>2021-08-28T12:58:23Z</time>
      </trkpt>
      <trkpt lat="44.41862" lon="6.70805">
        <ele>1504.4</ele>
        <time>2021-08-28T12:58:27Z</time>
      </trkpt>
      <trkpt lat="44.41856" lon="6.70802">
        <ele>1504.8</ele>
        <time>2021-08-28T12:58:31Z</time>
      </trkpt>
      <trkpt lat="44.41851" lon="6.70801">
        <ele>1504.8</ele>
        <time>2021-08-28T12:58:35Z</time>
      </trkpt>
      <trkpt lat="44.41844" lon="6.70799">
        <ele>1504.8</ele>
        <time>2021-08-28T12:58:39Z</time>
      </trkpt>
      <trkpt lat="44.41836" lon="6.70798">
        <ele>1504.5</ele>
        <time>2021-08-28T12:58:43Z</time>
      </trkpt>
      <trkpt lat="44.41829" lon="6.70796">
        <ele>1504.5</ele>
        <time>2021-08-28T12:58:47Z</time>
      </trkpt>
      <trkpt lat="44.41823" lon="6.70794">
        <ele>1504.6</ele>
        <time>2021-08-28T12:58:51Z</time>
      </trkpt>
      <trkpt lat="44.41815" lon="6.70793">
        <ele>1504.2</ele>
        <time>2021-08-28T12:58:55Z</time>
      </trkpt>
      <trkpt lat="44.41807" lon="6.70793">
        <ele>1503.6</ele>
        <time>2021-08-28T12:58:59Z</time>
      </trkpt>
      <trkpt lat="44.418" lon="6.70791">
        <ele>1503.6</ele>
        <time>2021-08-28T12:59:03Z</time>
      </trkpt>
      <trkpt lat="44.41791" lon="6.70788">
        <ele>1503.5</ele>
        <time>2021-08-28T12:59:07Z</time>
      </trkpt>
      <trkpt lat="44.41784" lon="6.70788">
        <ele>1502.9</ele>
        <time>2021-08-28T12:59:11Z</time>
      </trkpt>
      <trkpt lat="44.41775" lon="6.70787">
        <ele>1502.4</ele>
        <time>2021-08-28T12:59:15Z</time>
      </trkpt>
      <trkpt lat="44.41767" lon="6.70786">
        <ele>1501.9</ele>
        <time>2021-08-28T12:59:19Z</time>
      </trkpt>
      <trkpt lat="44.41759" lon="6.7078">
        <ele>1502.4</ele>
        <time>2021-08-28T12:59:23Z</time>
      </trkpt>
      <trkpt lat="44.41752" lon="6.70771">
        <ele>1503.4</ele>
        <time>2021-08-28T12:59:27Z</time>
      </trkpt>
      <trkpt lat="44.41744" lon="6.70761">
        <ele>1503.8</ele>
        <time>2021-08-28T12:59:31Z</time>
      </trkpt>
      <trkpt lat="44.41736" lon="6.70751">
        <ele>1504</ele>
        <time>2021-08-28T12:59:35Z</time>
      </trkpt>
      <trkpt lat="44.41729" lon="6.70741">
        <ele>1504.3</ele>
        <time>2021-08-28T12:59:39Z</time>
      </trkpt>
      <trkpt lat="44.41722" lon="6.70732">
        <ele>1504.5</ele>
        <time>2021-08-28T12:59:43Z</time>
      </trkpt>
      <trkpt lat="44.41714" lon="6.70722">
        <ele>1504.5</ele>
        <time>2021-08-28T12:59:47Z</time>
      </trkpt>
      <trkpt lat="44.41706" lon="6.70712">
        <ele>1504.4</ele>
        <time>2021-08-28T12:59:51Z</time>
      </trkpt>
      <trkpt lat="44.41699" lon="6.70702">
        <ele>1504.4</ele>
        <time>2021-08-28T12:59:55Z</time>
      </trkpt>
      <trkpt lat="44.41692" lon="6.70692">
        <ele>1504.4</ele>
        <time>2021-08-28T12:59:59Z</time>
      </trkpt>
      <trkpt lat="44.41685" lon="6.70681">
        <ele>1504.4</ele>
        <time>2021-08-28T13:00:03Z</time>
      </trkpt>
      <trkpt lat="44.41679" lon="6.70672">
        <ele>1504.3</ele>
        <time>2021-08-28T13:00:07Z</time>
      </trkpt>
      <trkpt lat="44.41672" lon="6.70665">
        <ele>1503.6</ele>
        <time>2021-08-28T13:00:11Z</time>
      </trkpt>
      <trkpt lat="44.41665" lon="6.70657">
        <ele>1502.7</ele>
        <time>2021-08-28T13:00:15Z</time>
      </trkpt>
      <trkpt lat="44.41659" lon="6.70649">
        <ele>1501.5</ele>
        <time>2021-08-28T13:00:19Z</time>
      </trkpt>
      <trkpt lat="44.41657" lon="6.70639">
        <ele>1502.2</ele>
        <time>2021-08-28T13:00:23Z</time>
      </trkpt>
      <trkpt lat="44.41656" lon="6.70629">
        <ele>1503.3</ele>
        <time>2021-08-28T13:00:27Z</time>
      </trkpt>
      <trkpt lat="44.41657" lon="6.70618">
        <ele>1505.3</ele>
        <time>2021-08-28T13:00:31Z</time>
      </trkpt>
      <trkpt lat="44.41657" lon="6.70607">
        <ele>1507</ele>
        <time>2021-08-28T13:00:35Z</time>
      </trkpt>
      <trkpt lat="44.41656" lon="6.70597">
        <ele>1508.1</ele>
        <time>2021-08-28T13:00:39Z</time>
      </trkpt>
      <trkpt lat="44.41654" lon="6.70586">
        <ele>1509</ele>
        <time>2021-08-28T13:00:43Z</time>
      </trkpt>
      <trkpt lat="44.41651" lon="6.70576">
        <ele>1509</ele>
        <time>2021-08-28T13:00:47Z</time>
      </trkpt>
      <trkpt lat="44.41649" lon="6.70567">
        <ele>1509.1</ele>
        <time>2021-08-28T13:00:51Z</time>
      </trkpt>
      <trkpt lat="44.41648" lon="6.70556">
        <ele>1509.6</ele>
        <time>2021-08-28T13:00:55Z</time>
      </trkpt>
      <trkpt lat="44.4165" lon="6.70548">
        <ele>1511.1</ele>
        <time>2021-08-28T13:00:59Z</time>
      </trkpt>
      <trkpt lat="44.41652" lon="6.7054">
        <ele>1512.5</ele>
        <time>2021-08-28T13:01:03Z</time>
      </trkpt>
      <trkpt lat="44.41654" lon="6.70529">
        <ele>1514.1</ele>
        <time>2021-08-28T13:01:07Z</time>
      </trkpt>
      <trkpt lat="44.41657" lon="6.7052">
        <ele>1515.9</ele>
        <time>2021-08-28T13:01:11Z</time>
      </trkpt>
      <trkpt lat="44.41658" lon="6.70506">
        <ele>1517.5</ele>
        <time>2021-08-28T13:01:15Z</time>
      </trkpt>
      <trkpt lat="44.4166" lon="6.70492">
        <ele>1518.5</ele>
        <time>2021-08-28T13:01:19Z</time>
      </trkpt>
      <trkpt lat="44.4166" lon="6.70481">
        <ele>1518.3</ele>
        <time>2021-08-28T13:01:31Z</time>
      </trkpt>
      <trkpt lat="44.41656" lon="6.70479">
        <ele>1517</ele>
        <time>2021-08-28T13:01:39Z</time>
      </trkpt>
      <trkpt lat="44.41653" lon="6.70472">
        <ele>1516</ele>
        <time>2021-08-28T13:02:55Z</time>
      </trkpt>
      <trkpt lat="44.41651" lon="6.70466">
        <ele>1515.4</ele>
        <time>2021-08-28T13:02:59Z</time>
      </trkpt>
      <trkpt lat="44.41648" lon="6.70455">
        <ele>1514.6</ele>
        <time>2021-08-28T13:03:03Z</time>
      </trkpt>
      <trkpt lat="44.41646" lon="6.70441">
        <ele>1514.1</ele>
        <time>2021-08-28T13:03:07Z</time>
      </trkpt>
      <trkpt lat="44.41645" lon="6.70429">
        <ele>1514</ele>
        <time>2021-08-28T13:03:11Z</time>
      </trkpt>
      <trkpt lat="44.41642" lon="6.70417">
        <ele>1513.6</ele>
        <time>2021-08-28T13:03:15Z</time>
      </trkpt>
      <trkpt lat="44.41636" lon="6.70405">
        <ele>1513.7</ele>
        <time>2021-08-28T13:03:19Z</time>
      </trkpt>
      <trkpt lat="44.41632" lon="6.7039">
        <ele>1514.6</ele>
        <time>2021-08-28T13:03:23Z</time>
      </trkpt>
      <trkpt lat="44.41632" lon="6.70378">
        <ele>1515.9</ele>
        <time>2021-08-28T13:03:27Z</time>
      </trkpt>
      <trkpt lat="44.41633" lon="6.70368">
        <ele>1517.1</ele>
        <time>2021-08-28T13:03:31Z</time>
      </trkpt>
      <trkpt lat="44.41636" lon="6.70359">
        <ele>1518.4</ele>
        <time>2021-08-28T13:03:35Z</time>
      </trkpt>
      <trkpt lat="44.41638" lon="6.70352">
        <ele>1519.4</ele>
        <time>2021-08-28T13:03:39Z</time>
      </trkpt>
      <trkpt lat="44.41639" lon="6.70345">
        <ele>1520.2</ele>
        <time>2021-08-28T13:03:43Z</time>
      </trkpt>
      <trkpt lat="44.41641" lon="6.70338">
        <ele>1521.1</ele>
        <time>2021-08-28T13:03:47Z</time>
      </trkpt>
      <trkpt lat="44.41644" lon="6.70332">
        <ele>1521.9</ele>
        <time>2021-08-28T13:03:51Z</time>
      </trkpt>
      <trkpt lat="44.41648" lon="6.70324">
        <ele>1523.1</ele>
        <time>2021-08-28T13:03:55Z</time>
      </trkpt>
      <trkpt lat="44.4165" lon="6.70316">
        <ele>1524</ele>
        <time>2021-08-28T13:03:59Z</time>
      </trkpt>
      <trkpt lat="44.41653" lon="6.70308">
        <ele>1525</ele>
        <time>2021-08-28T13:04:03Z</time>
      </trkpt>
      <trkpt lat="44.41655" lon="6.703">
        <ele>1526</ele>
        <time>2021-08-28T13:04:07Z</time>
      </trkpt>
      <trkpt lat="44.41657" lon="6.70291">
        <ele>1527</ele>
        <time>2021-08-28T13:04:11Z</time>
      </trkpt>
      <trkpt lat="44.4166" lon="6.70284">
        <ele>1528</ele>
        <time>2021-08-28T13:04:15Z</time>
      </trkpt>
      <trkpt lat="44.41663" lon="6.70277">
        <ele>1529</ele>
        <time>2021-08-28T13:04:19Z</time>
      </trkpt>
      <trkpt lat="44.41667" lon="6.70271">
        <ele>1530.1</ele>
        <time>2021-08-28T13:04:23Z</time>
      </trkpt>
      <trkpt lat="44.41671" lon="6.70264">
        <ele>1532.1</ele>
        <time>2021-08-28T13:04:27Z</time>
      </trkpt>
      <trkpt lat="44.41675" lon="6.70258">
        <ele>1534</ele>
        <time>2021-08-28T13:04:31Z</time>
      </trkpt>
      <trkpt lat="44.41677" lon="6.70251">
        <ele>1535.4</ele>
        <time>2021-08-28T13:04:35Z</time>
      </trkpt>
      <trkpt lat="44.41679" lon="6.70244">
        <ele>1536.7</ele>
        <time>2021-08-28T13:04:39Z</time>
      </trkpt>
      <trkpt lat="44.41681" lon="6.70236">
        <ele>1538</ele>
        <time>2021-08-28T13:04:43Z</time>
      </trkpt>
      <trkpt lat="44.41683" lon="6.70228">
        <ele>1539.4</ele>
        <time>2021-08-28T13:04:47Z</time>
      </trkpt>
      <trkpt lat="44.41683" lon="6.7022">
        <ele>1540.1</ele>
        <time>2021-08-28T13:04:51Z</time>
      </trkpt>
      <trkpt lat="44.41683" lon="6.70211">
        <ele>1540.9</ele>
        <time>2021-08-28T13:04:55Z</time>
      </trkpt>
      <trkpt lat="44.41685" lon="6.70204">
        <ele>1542.1</ele>
        <time>2021-08-28T13:04:59Z</time>
      </trkpt>
      <trkpt lat="44.41688" lon="6.70196">
        <ele>1543.7</ele>
        <time>2021-08-28T13:05:03Z</time>
      </trkpt>
      <trkpt lat="44.41692" lon="6.7019">
        <ele>1545.4</ele>
        <time>2021-08-28T13:05:07Z</time>
      </trkpt>
      <trkpt lat="44.41695" lon="6.70184">
        <ele>1546.8</ele>
        <time>2021-08-28T13:05:11Z</time>
      </trkpt>
      <trkpt lat="44.41698" lon="6.70175">
        <ele>1548.4</ele>
        <time>2021-08-28T13:05:15Z</time>
      </trkpt>
      <trkpt lat="44.417" lon="6.70167">
        <ele>1549.6</ele>
        <time>2021-08-28T13:05:19Z</time>
      </trkpt>
      <trkpt lat="44.41702" lon="6.70159">
        <ele>1550.7</ele>
        <time>2021-08-28T13:05:23Z</time>
      </trkpt>
      <trkpt lat="44.41701" lon="6.7015">
        <ele>1551.1</ele>
        <time>2021-08-28T13:05:27Z</time>
      </trkpt>
      <trkpt lat="44.41699" lon="6.70139">
        <ele>1551.3</ele>
        <time>2021-08-28T13:05:31Z</time>
      </trkpt>
      <trkpt lat="44.41696" lon="6.70122">
        <ele>1551.7</ele>
        <time>2021-08-28T13:05:35Z</time>
      </trkpt>
      <trkpt lat="44.41695" lon="6.70106">
        <ele>1552.5</ele>
        <time>2021-08-28T13:05:39Z</time>
      </trkpt>
      <trkpt lat="44.41694" lon="6.70092">
        <ele>1553.2</ele>
        <time>2021-08-28T13:05:43Z</time>
      </trkpt>
      <trkpt lat="44.41693" lon="6.70079">
        <ele>1553.8</ele>
        <time>2021-08-28T13:05:47Z</time>
      </trkpt>
      <trkpt lat="44.4169" lon="6.70066">
        <ele>1553.6</ele>
        <time>2021-08-28T13:05:51Z</time>
      </trkpt>
      <trkpt lat="44.41687" lon="6.70054">
        <ele>1553.4</ele>
        <time>2021-08-28T13:05:55Z</time>
      </trkpt>
      <trkpt lat="44.41686" lon="6.7004">
        <ele>1553.9</ele>
        <time>2021-08-28T13:05:59Z</time>
      </trkpt>
      <trkpt lat="44.41687" lon="6.70028">
        <ele>1554.9</ele>
        <time>2021-08-28T13:06:03Z</time>
      </trkpt>
      <trkpt lat="44.41687" lon="6.70017">
        <ele>1555.4</ele>
        <time>2021-08-28T13:06:07Z</time>
      </trkpt>
      <trkpt lat="44.41684" lon="6.70004">
        <ele>1555.4</ele>
        <time>2021-08-28T13:06:11Z</time>
      </trkpt>
      <trkpt lat="44.4168" lon="6.69994">
        <ele>1555.4</ele>
        <time>2021-08-28T13:06:15Z</time>
      </trkpt>
      <trkpt lat="44.41674" lon="6.69986">
        <ele>1555</ele>
        <time>2021-08-28T13:06:19Z</time>
      </trkpt>
      <trkpt lat="44.41668" lon="6.69978">
        <ele>1554.8</ele>
        <time>2021-08-28T13:06:23Z</time>
      </trkpt>
      <trkpt lat="44.4166" lon="6.6997">
        <ele>1555.3</ele>
        <time>2021-08-28T13:06:27Z</time>
      </trkpt>
      <trkpt lat="44.41653" lon="6.69964">
        <ele>1555.7</ele>
        <time>2021-08-28T13:06:31Z</time>
      </trkpt>
      <trkpt lat="44.41646" lon="6.69958">
        <ele>1555.9</ele>
        <time>2021-08-28T13:06:35Z</time>
      </trkpt>
      <trkpt lat="44.41638" lon="6.69953">
        <ele>1555.9</ele>
        <time>2021-08-28T13:06:39Z</time>
      </trkpt>
      <trkpt lat="44.4163" lon="6.69948">
        <ele>1555.8</ele>
        <time>2021-08-28T13:06:43Z</time>
      </trkpt>
      <trkpt lat="44.41623" lon="6.69943">
        <ele>1555.6</ele>
        <time>2021-08-28T13:06:47Z</time>
      </trkpt>
      <trkpt lat="44.41622" lon="6.69934">
        <ele>1556.4</ele>
        <time>2021-08-28T13:06:51Z</time>
      </trkpt>
      <trkpt lat="44.41627" lon="6.69929">
        <ele>1557.5</ele>
        <time>2021-08-28T13:06:55Z</time>
      </trkpt>
      <trkpt lat="44.41632" lon="6.69925">
        <ele>1558.5</ele>
        <time>2021-08-28T13:06:59Z</time>
      </trkpt>
      <trkpt lat="44.41637" lon="6.69921">
        <ele>1559.6</ele>
        <time>2021-08-28T13:07:03Z</time>
      </trkpt>
      <trkpt lat="44.41643" lon="6.69918">
        <ele>1560.7</ele>
        <time>2021-08-28T13:07:07Z</time>
      </trkpt>
      <trkpt lat="44.41649" lon="6.69915">
        <ele>1561.7</ele>
        <time>2021-08-28T13:07:11Z</time>
      </trkpt>
      <trkpt lat="44.41655" lon="6.69913">
        <ele>1562.6</ele>
        <time>2021-08-28T13:07:15Z</time>
      </trkpt>
      <trkpt lat="44.41662" lon="6.6991">
        <ele>1563.7</ele>
        <time>2021-08-28T13:07:19Z</time>
      </trkpt>
      <trkpt lat="44.41667" lon="6.69907">
        <ele>1564.5</ele>
        <time>2021-08-28T13:07:23Z</time>
      </trkpt>
      <trkpt lat="44.41671" lon="6.69902">
        <ele>1565.5</ele>
        <time>2021-08-28T13:07:27Z</time>
      </trkpt>
      <trkpt lat="44.41675" lon="6.69896">
        <ele>1566.6</ele>
        <time>2021-08-28T13:07:31Z</time>
      </trkpt>
      <trkpt lat="44.4168" lon="6.6989">
        <ele>1568</ele>
        <time>2021-08-28T13:07:35Z</time>
      </trkpt>
      <trkpt lat="44.41683" lon="6.69886">
        <ele>1568.8</ele>
        <time>2021-08-28T13:07:39Z</time>
      </trkpt>
      <trkpt lat="44.41689" lon="6.69882">
        <ele>1570.4</ele>
        <time>2021-08-28T13:07:43Z</time>
      </trkpt>
      <trkpt lat="44.41694" lon="6.69876">
        <ele>1571.8</ele>
        <time>2021-08-28T13:07:47Z</time>
      </trkpt>
      <trkpt lat="44.417" lon="6.69871">
        <ele>1573.5</ele>
        <time>2021-08-28T13:07:51Z</time>
      </trkpt>
      <trkpt lat="44.41703" lon="6.69863">
        <ele>1574.8</ele>
        <time>2021-08-28T13:07:55Z</time>
      </trkpt>
      <trkpt lat="44.41704" lon="6.69854">
        <ele>1575.7</ele>
        <time>2021-08-28T13:07:59Z</time>
      </trkpt>
      <trkpt lat="44.41705" lon="6.69845">
        <ele>1576.7</ele>
        <time>2021-08-28T13:08:03Z</time>
      </trkpt>
      <trkpt lat="44.41706" lon="6.69836">
        <ele>1577.7</ele>
        <time>2021-08-28T13:08:07Z</time>
      </trkpt>
      <trkpt lat="44.41707" lon="6.69828">
        <ele>1578.7</ele>
        <time>2021-08-28T13:08:11Z</time>
      </trkpt>
      <trkpt lat="44.41707" lon="6.69819">
        <ele>1579.6</ele>
        <time>2021-08-28T13:08:15Z</time>
      </trkpt>
      <trkpt lat="44.41708" lon="6.6981">
        <ele>1580.8</ele>
        <time>2021-08-28T13:08:19Z</time>
      </trkpt>
      <trkpt lat="44.41709" lon="6.69802">
        <ele>1581.9</ele>
        <time>2021-08-28T13:08:23Z</time>
      </trkpt>
      <trkpt lat="44.41711" lon="6.69794">
        <ele>1583.1</ele>
        <time>2021-08-28T13:08:27Z</time>
      </trkpt>
      <trkpt lat="44.4171" lon="6.69786">
        <ele>1583.7</ele>
        <time>2021-08-28T13:08:31Z</time>
      </trkpt>
      <trkpt lat="44.41708" lon="6.69781">
        <ele>1583.8</ele>
        <time>2021-08-28T13:08:35Z</time>
      </trkpt>
      <trkpt lat="44.41705" lon="6.69773">
        <ele>1583.9</ele>
        <time>2021-08-28T13:08:39Z</time>
      </trkpt>
      <trkpt lat="44.41702" lon="6.69767">
        <ele>1583.9</ele>
        <time>2021-08-28T13:08:43Z</time>
      </trkpt>
      <trkpt lat="44.41698" lon="6.6976">
        <ele>1583.7</ele>
        <time>2021-08-28T13:08:47Z</time>
      </trkpt>
      <trkpt lat="44.41694" lon="6.69749">
        <ele>1584.1</ele>
        <time>2021-08-28T13:08:51Z</time>
      </trkpt>
      <trkpt lat="44.4169" lon="6.69741">
        <ele>1584.5</ele>
        <time>2021-08-28T13:08:55Z</time>
      </trkpt>
      <trkpt lat="44.41684" lon="6.69734">
        <ele>1584.3</ele>
        <time>2021-08-28T13:08:59Z</time>
      </trkpt>
      <trkpt lat="44.41679" lon="6.69727">
        <ele>1584.2</ele>
        <time>2021-08-28T13:09:03Z</time>
      </trkpt>
      <trkpt lat="44.41673" lon="6.69721">
        <ele>1583.7</ele>
        <time>2021-08-28T13:09:07Z</time>
      </trkpt>
      <trkpt lat="44.41669" lon="6.69715">
        <ele>1583.6</ele>
        <time>2021-08-28T13:09:11Z</time>
      </trkpt>
      <trkpt lat="44.41664" lon="6.69707">
        <ele>1583.2</ele>
        <time>2021-08-28T13:09:15Z</time>
      </trkpt>
      <trkpt lat="44.4166" lon="6.69699">
        <ele>1582.6</ele>
        <time>2021-08-28T13:09:19Z</time>
      </trkpt>
      <trkpt lat="44.41658" lon="6.69689">
        <ele>1583.1</ele>
        <time>2021-08-28T13:09:23Z</time>
      </trkpt>
      <trkpt lat="44.4166" lon="6.69681">
        <ele>1585</ele>
        <time>2021-08-28T13:09:27Z</time>
      </trkpt>
      <trkpt lat="44.41666" lon="6.69681">
        <ele>1587.6</ele>
        <time>2021-08-28T13:09:31Z</time>
      </trkpt>
      <trkpt lat="44.41671" lon="6.69687">
        <ele>1588.2</ele>
        <time>2021-08-28T13:09:35Z</time>
      </trkpt>
      <trkpt lat="44.41676" lon="6.69691">
        <ele>1589</ele>
        <time>2021-08-28T13:09:39Z</time>
      </trkpt>
      <trkpt lat="44.41682" lon="6.69694">
        <ele>1590.1</ele>
        <time>2021-08-28T13:09:43Z</time>
      </trkpt>
      <trkpt lat="44.41688" lon="6.69696">
        <ele>1591.4</ele>
        <time>2021-08-28T13:09:47Z</time>
      </trkpt>
      <trkpt lat="44.41693" lon="6.69699">
        <ele>1592.2</ele>
        <time>2021-08-28T13:09:51Z</time>
      </trkpt>
      <trkpt lat="44.417" lon="6.69701">
        <ele>1593.7</ele>
        <time>2021-08-28T13:09:55Z</time>
      </trkpt>
      <trkpt lat="44.41705" lon="6.69704">
        <ele>1594.4</ele>
        <time>2021-08-28T13:09:59Z</time>
      </trkpt>
      <trkpt lat="44.41712" lon="6.69707">
        <ele>1595.7</ele>
        <time>2021-08-28T13:10:03Z</time>
      </trkpt>
      <trkpt lat="44.41719" lon="6.6971">
        <ele>1596.9</ele>
        <time>2021-08-28T13:10:07Z</time>
      </trkpt>
      <trkpt lat="44.41726" lon="6.69712">
        <ele>1598.2</ele>
        <time>2021-08-28T13:10:11Z</time>
      </trkpt>
      <trkpt lat="44.41731" lon="6.69714">
        <ele>1599.1</ele>
        <time>2021-08-28T13:10:15Z</time>
      </trkpt>
      <trkpt lat="44.41738" lon="6.69717">
        <ele>1600.2</ele>
        <time>2021-08-28T13:10:19Z</time>
      </trkpt>
      <trkpt lat="44.41744" lon="6.69719">
        <ele>1601.2</ele>
        <time>2021-08-28T13:10:23Z</time>
      </trkpt>
      <trkpt lat="44.41751" lon="6.69724">
        <ele>1601.9</ele>
        <time>2021-08-28T13:10:27Z</time>
      </trkpt>
      <trkpt lat="44.41758" lon="6.6973">
        <ele>1603</ele>
        <time>2021-08-28T13:10:31Z</time>
      </trkpt>
      <trkpt lat="44.41765" lon="6.69732">
        <ele>1604.9</ele>
        <time>2021-08-28T13:10:35Z</time>
      </trkpt>
      <trkpt lat="44.41774" lon="6.69737">
        <ele>1607</ele>
        <time>2021-08-28T13:10:39Z</time>
      </trkpt>
      <trkpt lat="44.41777" lon="6.69748">
        <ele>1606.1</ele>
        <time>2021-08-28T13:10:43Z</time>
      </trkpt>
      <trkpt lat="44.41776" lon="6.69757">
        <ele>1604.8</ele>
        <time>2021-08-28T13:10:47Z</time>
      </trkpt>
      <trkpt lat="44.41778" lon="6.69767">
        <ele>1604.7</ele>
        <time>2021-08-28T13:10:51Z</time>
      </trkpt>
      <trkpt lat="44.41782" lon="6.69776">
        <ele>1605.3</ele>
        <time>2021-08-28T13:10:55Z</time>
      </trkpt>
      <trkpt lat="44.41785" lon="6.69785">
        <ele>1605.7</ele>
        <time>2021-08-28T13:10:59Z</time>
      </trkpt>
      <trkpt lat="44.41788" lon="6.69795">
        <ele>1605.9</ele>
        <time>2021-08-28T13:11:03Z</time>
      </trkpt>
      <trkpt lat="44.41792" lon="6.69803">
        <ele>1606.7</ele>
        <time>2021-08-28T13:11:07Z</time>
      </trkpt>
      <trkpt lat="44.41797" lon="6.69811">
        <ele>1607.8</ele>
        <time>2021-08-28T13:11:11Z</time>
      </trkpt>
      <trkpt lat="44.41803" lon="6.69817">
        <ele>1609.5</ele>
        <time>2021-08-28T13:11:15Z</time>
      </trkpt>
      <trkpt lat="44.41808" lon="6.69823">
        <ele>1610.7</ele>
        <time>2021-08-28T13:11:19Z</time>
      </trkpt>
      <trkpt lat="44.41813" lon="6.69828">
        <ele>1612.1</ele>
        <time>2021-08-28T13:11:23Z</time>
      </trkpt>
      <trkpt lat="44.41818" lon="6.69834">
        <ele>1613.3</ele>
        <time>2021-08-28T13:11:27Z</time>
      </trkpt>
      <trkpt lat="44.41824" lon="6.69839">
        <ele>1614.4</ele>
        <time>2021-08-28T13:11:31Z</time>
      </trkpt>
      <trkpt lat="44.41828" lon="6.69845">
        <ele>1614.5</ele>
        <time>2021-08-28T13:11:35Z</time>
      </trkpt>
      <trkpt lat="44.41834" lon="6.6985">
        <ele>1615.4</ele>
        <time>2021-08-28T13:11:39Z</time>
      </trkpt>
      <trkpt lat="44.41838" lon="6.69852">
        <ele>1616.3</ele>
        <time>2021-08-28T13:11:43Z</time>
      </trkpt>
      <trkpt lat="44.4184" lon="6.69854">
        <ele>1616.5</ele>
        <time>2021-08-28T13:11:47Z</time>
      </trkpt>
      <trkpt lat="44.41842" lon="6.69858">
        <ele>1616.2</ele>
        <time>2021-08-28T13:13:27Z</time>
      </trkpt>
      <trkpt lat="44.41841" lon="6.69859">
        <ele>1615.7</ele>
        <time>2021-08-28T13:13:35Z</time>
      </trkpt>
      <trkpt lat="44.41844" lon="6.69861">
        <ele>1616.2</ele>
        <time>2021-08-28T13:13:39Z</time>
      </trkpt>
      <trkpt lat="44.41846" lon="6.69863">
        <ele>1616.4</ele>
        <time>2021-08-28T13:13:43Z</time>
      </trkpt>
      <trkpt lat="44.4185" lon="6.69867">
        <ele>1616.9</ele>
        <time>2021-08-28T13:13:47Z</time>
      </trkpt>
      <trkpt lat="44.41856" lon="6.69872">
        <ele>1617.8</ele>
        <time>2021-08-28T13:13:51Z</time>
      </trkpt>
      <trkpt lat="44.41863" lon="6.69876">
        <ele>1619.2</ele>
        <time>2021-08-28T13:13:55Z</time>
      </trkpt>
      <trkpt lat="44.41871" lon="6.69882">
        <ele>1620.6</ele>
        <time>2021-08-28T13:13:59Z</time>
      </trkpt>
      <trkpt lat="44.41878" lon="6.69885">
        <ele>1622.4</ele>
        <time>2021-08-28T13:14:03Z</time>
      </trkpt>
      <trkpt lat="44.41884" lon="6.69891">
        <ele>1623.1</ele>
        <time>2021-08-28T13:14:07Z</time>
      </trkpt>
      <trkpt lat="44.41893" lon="6.69897">
        <ele>1624.9</ele>
        <time>2021-08-28T13:14:11Z</time>
      </trkpt>
      <trkpt lat="44.419" lon="6.69906">
        <ele>1625.4</ele>
        <time>2021-08-28T13:14:15Z</time>
      </trkpt>
      <trkpt lat="44.41906" lon="6.69912">
        <ele>1626.3</ele>
        <time>2021-08-28T13:14:19Z</time>
      </trkpt>
      <trkpt lat="44.41913" lon="6.69922">
        <ele>1627</ele>
        <time>2021-08-28T13:14:23Z</time>
      </trkpt>
      <trkpt lat="44.41918" lon="6.69934">
        <ele>1627</ele>
        <time>2021-08-28T13:14:27Z</time>
      </trkpt>
      <trkpt lat="44.41919" lon="6.69949">
        <ele>1625.2</ele>
        <time>2021-08-28T13:14:31Z</time>
      </trkpt>
      <trkpt lat="44.41917" lon="6.69964">
        <ele>1622.3</ele>
        <time>2021-08-28T13:14:35Z</time>
      </trkpt>
      <trkpt lat="44.41914" lon="6.69977">
        <ele>1619.5</ele>
        <time>2021-08-28T13:14:39Z</time>
      </trkpt>
      <trkpt lat="44.41912" lon="6.6999">
        <ele>1617</ele>
        <time>2021-08-28T13:14:43Z</time>
      </trkpt>
      <trkpt lat="44.4191" lon="6.70002">
        <ele>1615</ele>
        <time>2021-08-28T13:14:47Z</time>
      </trkpt>
      <trkpt lat="44.41907" lon="6.70013">
        <ele>1614.7</ele>
        <time>2021-08-28T13:14:51Z</time>
      </trkpt>
      <trkpt lat="44.41906" lon="6.70023">
        <ele>1614.9</ele>
        <time>2021-08-28T13:14:55Z</time>
      </trkpt>
      <trkpt lat="44.41906" lon="6.70034">
        <ele>1615.6</ele>
        <time>2021-08-28T13:14:59Z</time>
      </trkpt>
      <trkpt lat="44.41908" lon="6.70045">
        <ele>1616.8</ele>
        <time>2021-08-28T13:15:03Z</time>
      </trkpt>
      <trkpt lat="44.41911" lon="6.70055">
        <ele>1618.4</ele>
        <time>2021-08-28T13:15:07Z</time>
      </trkpt>
      <trkpt lat="44.41915" lon="6.70064">
        <ele>1620.3</ele>
        <time>2021-08-28T13:15:11Z</time>
      </trkpt>
      <trkpt lat="44.41919" lon="6.70073">
        <ele>1622</ele>
        <time>2021-08-28T13:15:15Z</time>
      </trkpt>
      <trkpt lat="44.4192" lon="6.70085">
        <ele>1623</ele>
        <time>2021-08-28T13:15:19Z</time>
      </trkpt>
      <trkpt lat="44.4192" lon="6.70096">
        <ele>1623.3</ele>
        <time>2021-08-28T13:15:23Z</time>
      </trkpt>
      <trkpt lat="44.41919" lon="6.70108">
        <ele>1623.5</ele>
        <time>2021-08-28T13:15:27Z</time>
      </trkpt>
      <trkpt lat="44.4192" lon="6.7012">
        <ele>1624.1</ele>
        <time>2021-08-28T13:15:31Z</time>
      </trkpt>
      <trkpt lat="44.41921" lon="6.70131">
        <ele>1624.7</ele>
        <time>2021-08-28T13:15:35Z</time>
      </trkpt>
      <trkpt lat="44.41922" lon="6.70144">
        <ele>1625.3</ele>
        <time>2021-08-28T13:15:39Z</time>
      </trkpt>
      <trkpt lat="44.41925" lon="6.70154">
        <ele>1626.2</ele>
        <time>2021-08-28T13:15:43Z</time>
      </trkpt>
      <trkpt lat="44.41927" lon="6.70165">
        <ele>1626.8</ele>
        <time>2021-08-28T13:15:47Z</time>
      </trkpt>
      <trkpt lat="44.4193" lon="6.70178">
        <ele>1626.9</ele>
        <time>2021-08-28T13:15:51Z</time>
      </trkpt>
      <trkpt lat="44.41934" lon="6.70185">
        <ele>1627.4</ele>
        <time>2021-08-28T13:15:55Z</time>
      </trkpt>
      <trkpt lat="44.41941" lon="6.70193">
        <ele>1628.2</ele>
        <time>2021-08-28T13:15:59Z</time>
      </trkpt>
      <trkpt lat="44.41947" lon="6.70201">
        <ele>1628.9</ele>
        <time>2021-08-28T13:16:03Z</time>
      </trkpt>
      <trkpt lat="44.41954" lon="6.70208">
        <ele>1629.8</ele>
        <time>2021-08-28T13:16:07Z</time>
      </trkpt>
      <trkpt lat="44.41961" lon="6.70215">
        <ele>1630.6</ele>
        <time>2021-08-28T13:16:11Z</time>
      </trkpt>
      <trkpt lat="44.41968" lon="6.70221">
        <ele>1631.5</ele>
        <time>2021-08-28T13:16:15Z</time>
      </trkpt>
      <trkpt lat="44.41974" lon="6.70226">
        <ele>1632.2</ele>
        <time>2021-08-28T13:16:19Z</time>
      </trkpt>
      <trkpt lat="44.41979" lon="6.70228">
        <ele>1632.9</ele>
        <time>2021-08-28T13:16:23Z</time>
      </trkpt>
      <trkpt lat="44.41987" lon="6.70228">
        <ele>1634.2</ele>
        <time>2021-08-28T13:16:27Z</time>
      </trkpt>
      <trkpt lat="44.41996" lon="6.70226">
        <ele>1635.8</ele>
        <time>2021-08-28T13:16:31Z</time>
      </trkpt>
      <trkpt lat="44.42002" lon="6.70221">
        <ele>1636.8</ele>
        <time>2021-08-28T13:16:35Z</time>
      </trkpt>
      <trkpt lat="44.4201" lon="6.70217">
        <ele>1637.3</ele>
        <time>2021-08-28T13:16:39Z</time>
      </trkpt>
      <trkpt lat="44.42021" lon="6.70214">
        <ele>1638</ele>
        <time>2021-08-28T13:16:43Z</time>
      </trkpt>
      <trkpt lat="44.4203" lon="6.70216">
        <ele>1638.1</ele>
        <time>2021-08-28T13:16:47Z</time>
      </trkpt>
      <trkpt lat="44.42038" lon="6.70221">
        <ele>1638</ele>
        <time>2021-08-28T13:16:51Z</time>
      </trkpt>
      <trkpt lat="44.42046" lon="6.70226">
        <ele>1637.8</ele>
        <time>2021-08-28T13:16:55Z</time>
      </trkpt>
      <trkpt lat="44.42057" lon="6.70232">
        <ele>1637.5</ele>
        <time>2021-08-28T13:16:59Z</time>
      </trkpt>
      <trkpt lat="44.42068" lon="6.70237">
        <ele>1637.2</ele>
        <time>2021-08-28T13:17:03Z</time>
      </trkpt>
      <trkpt lat="44.42079" lon="6.7024">
        <ele>1637.1</ele>
        <time>2021-08-28T13:17:07Z</time>
      </trkpt>
      <trkpt lat="44.4209" lon="6.70241">
        <ele>1637.7</ele>
        <time>2021-08-28T13:17:11Z</time>
      </trkpt>
      <trkpt lat="44.421" lon="6.7024">
        <ele>1638.8</ele>
        <time>2021-08-28T13:17:15Z</time>
      </trkpt>
      <trkpt lat="44.42108" lon="6.70236">
        <ele>1640.1</ele>
        <time>2021-08-28T13:17:19Z</time>
      </trkpt>
      <trkpt lat="44.42116" lon="6.70229">
        <ele>1642.1</ele>
        <time>2021-08-28T13:17:23Z</time>
      </trkpt>
      <trkpt lat="44.42125" lon="6.7022">
        <ele>1644.5</ele>
        <time>2021-08-28T13:17:27Z</time>
      </trkpt>
      <trkpt lat="44.42129" lon="6.70207">
        <ele>1647.3</ele>
        <time>2021-08-28T13:17:31Z</time>
      </trkpt>
      <trkpt lat="44.42127" lon="6.70194">
        <ele>1649.2</ele>
        <time>2021-08-28T13:17:35Z</time>
      </trkpt>
      <trkpt lat="44.42124" lon="6.70186">
        <ele>1650.1</ele>
        <time>2021-08-28T13:17:39Z</time>
      </trkpt>
      <trkpt lat="44.42121" lon="6.70181">
        <ele>1650.4</ele>
        <time>2021-08-28T13:17:43Z</time>
      </trkpt>
      <trkpt lat="44.42115" lon="6.70178">
        <ele>1649.9</ele>
        <time>2021-08-28T13:17:47Z</time>
      </trkpt>
      <trkpt lat="44.42108" lon="6.70178">
        <ele>1648.8</ele>
        <time>2021-08-28T13:17:51Z</time>
      </trkpt>
      <trkpt lat="44.421" lon="6.70175">
        <ele>1647.8</ele>
        <time>2021-08-28T13:17:55Z</time>
      </trkpt>
      <trkpt lat="44.42094" lon="6.70172">
        <ele>1647.2</ele>
        <time>2021-08-28T13:17:59Z</time>
      </trkpt>
      <trkpt lat="44.4209" lon="6.70166">
        <ele>1647.3</ele>
        <time>2021-08-28T13:18:03Z</time>
      </trkpt>
      <trkpt lat="44.42088" lon="6.70159">
        <ele>1648.1</ele>
        <time>2021-08-28T13:18:07Z</time>
      </trkpt>
      <trkpt lat="44.42088" lon="6.70156">
        <ele>1648.5</ele>
        <time>2021-08-28T13:18:19Z</time>
      </trkpt>
      <trkpt lat="44.42088" lon="6.70152">
        <ele>1649.2</ele>
        <time>2021-08-28T13:18:23Z</time>
      </trkpt>
      <trkpt lat="44.42088" lon="6.70147">
        <ele>1650</ele>
        <time>2021-08-28T13:18:27Z</time>
      </trkpt>
      <trkpt lat="44.42087" lon="6.70142">
        <ele>1650.6</ele>
        <time>2021-08-28T13:18:31Z</time>
      </trkpt>
      <trkpt lat="44.42086" lon="6.70141">
        <ele>1650.5</ele>
        <time>2021-08-28T13:18:35Z</time>
      </trkpt>
      <trkpt lat="44.42088" lon="6.70144">
        <ele>1650.5</ele>
        <time>2021-08-28T13:18:51Z</time>
      </trkpt>
      <trkpt lat="44.42081" lon="6.70153">
        <ele>1647.9</ele>
        <time>2021-08-28T13:18:55Z</time>
      </trkpt>
      <trkpt lat="44.42074" lon="6.70155">
        <ele>1647</ele>
        <time>2021-08-28T13:18:59Z</time>
      </trkpt>
      <trkpt lat="44.42072" lon="6.70152">
        <ele>1647.3</ele>
        <time>2021-08-28T13:19:03Z</time>
      </trkpt>
      <trkpt lat="44.4207" lon="6.70149">
        <ele>1647.5</ele>
        <time>2021-08-28T13:19:07Z</time>
      </trkpt>
      <trkpt lat="44.42067" lon="6.70147">
        <ele>1647.5</ele>
        <time>2021-08-28T13:19:11Z</time>
      </trkpt>
      <trkpt lat="44.42063" lon="6.70147">
        <ele>1647.1</ele>
        <time>2021-08-28T13:19:43Z</time>
      </trkpt>
      <trkpt lat="44.4206" lon="6.70151">
        <ele>1646.3</ele>
        <time>2021-08-28T13:19:47Z</time>
      </trkpt>
      <trkpt lat="44.42054" lon="6.70156">
        <ele>1645.2</ele>
        <time>2021-08-28T13:19:51Z</time>
      </trkpt>
      <trkpt lat="44.42046" lon="6.70152">
        <ele>1645</ele>
        <time>2021-08-28T13:19:55Z</time>
      </trkpt>
      <trkpt lat="44.42037" lon="6.70146">
        <ele>1644.8</ele>
        <time>2021-08-28T13:19:59Z</time>
      </trkpt>
      <trkpt lat="44.42027" lon="6.70142">
        <ele>1644.2</ele>
        <time>2021-08-28T13:20:03Z</time>
      </trkpt>
      <trkpt lat="44.42017" lon="6.70142">
        <ele>1643.2</ele>
        <time>2021-08-28T13:20:07Z</time>
      </trkpt>
      <trkpt lat="44.42007" lon="6.70144">
        <ele>1642</ele>
        <time>2021-08-28T13:20:11Z</time>
      </trkpt>
      <trkpt lat="44.41994" lon="6.70141">
        <ele>1640.3</ele>
        <time>2021-08-28T13:20:15Z</time>
      </trkpt>
      <trkpt lat="44.41984" lon="6.70132">
        <ele>1638.6</ele>
        <time>2021-08-28T13:20:19Z</time>
      </trkpt>
      <trkpt lat="44.41969" lon="6.70111">
        <ele>1635.8</ele>
        <time>2021-08-28T13:20:23Z</time>
      </trkpt>
      <trkpt lat="44.41959" lon="6.70085">
        <ele>1633.7</ele>
        <time>2021-08-28T13:20:27Z</time>
      </trkpt>
      <trkpt lat="44.41956" lon="6.70057">
        <ele>1632.2</ele>
        <time>2021-08-28T13:20:31Z</time>
      </trkpt>
      <trkpt lat="44.41954" lon="6.70024">
        <ele>1630.7</ele>
        <time>2021-08-28T13:20:35Z</time>
      </trkpt>
      <trkpt lat="44.41959" lon="6.70006">
        <ele>1631.9</ele>
        <time>2021-08-28T13:20:39Z</time>
      </trkpt>
      <trkpt lat="44.41961" lon="6.69996">
        <ele>1633</ele>
        <time>2021-08-28T13:20:43Z</time>
      </trkpt>
      <trkpt lat="44.41961" lon="6.69989">
        <ele>1634</ele>
        <time>2021-08-28T13:20:47Z</time>
      </trkpt>
      <trkpt lat="44.41961" lon="6.69981">
        <ele>1635.2</ele>
        <time>2021-08-28T13:20:51Z</time>
      </trkpt>
      <trkpt lat="44.41961" lon="6.69971">
        <ele>1636.6</ele>
        <time>2021-08-28T13:20:55Z</time>
      </trkpt>
      <trkpt lat="44.4196" lon="6.69964">
        <ele>1637.3</ele>
        <time>2021-08-28T13:20:59Z</time>
      </trkpt>
      <trkpt lat="44.41959" lon="6.69955">
        <ele>1638.2</ele>
        <time>2021-08-28T13:21:03Z</time>
      </trkpt>
      <trkpt lat="44.4196" lon="6.69947">
        <ele>1639.7</ele>
        <time>2021-08-28T13:21:07Z</time>
      </trkpt>
      <trkpt lat="44.41959" lon="6.69938">
        <ele>1640.7</ele>
        <time>2021-08-28T13:21:11Z</time>
      </trkpt>
      <trkpt lat="44.41959" lon="6.69934">
        <ele>1641.2</ele>
        <time>2021-08-28T13:21:15Z</time>
      </trkpt>
      <trkpt lat="44.4196" lon="6.69928">
        <ele>1642.4</ele>
        <time>2021-08-28T13:21:35Z</time>
      </trkpt>
      <trkpt lat="44.4196" lon="6.69927">
        <ele>1642.6</ele>
        <time>2021-08-28T13:21:39Z</time>
      </trkpt>
      <trkpt lat="44.41962" lon="6.69924">
        <ele>1643.7</ele>
        <time>2021-08-28T13:21:47Z</time>
      </trkpt>
      <trkpt lat="44.41964" lon="6.69921">
        <ele>1644.8</ele>
        <time>2021-08-28T13:21:51Z</time>
      </trkpt>
      <trkpt lat="44.41966" lon="6.69918">
        <ele>1646</ele>
        <time>2021-08-28T13:21:55Z</time>
      </trkpt>
      <trkpt lat="44.41968" lon="6.69915">
        <ele>1647.2</ele>
        <time>2021-08-28T13:21:59Z</time>
      </trkpt>
      <trkpt lat="44.41969" lon="6.69912">
        <ele>1648.1</ele>
        <time>2021-08-28T13:22:03Z</time>
      </trkpt>
      <trkpt lat="44.41971" lon="6.69908">
        <ele>1649.5</ele>
        <time>2021-08-28T13:22:07Z</time>
      </trkpt>
      <trkpt lat="44.41973" lon="6.69906">
        <ele>1650.6</ele>
        <time>2021-08-28T13:22:11Z</time>
      </trkpt>
      <trkpt lat="44.41975" lon="6.69904">
        <ele>1651.7</ele>
        <time>2021-08-28T13:22:15Z</time>
      </trkpt>
      <trkpt lat="44.41977" lon="6.699">
        <ele>1653.1</ele>
        <time>2021-08-28T13:22:19Z</time>
      </trkpt>
      <trkpt lat="44.41979" lon="6.69898">
        <ele>1654.2</ele>
        <time>2021-08-28T13:22:23Z</time>
      </trkpt>
      <trkpt lat="44.41981" lon="6.69896">
        <ele>1655.2</ele>
        <time>2021-08-28T13:22:27Z</time>
      </trkpt>
      <trkpt lat="44.41983" lon="6.69893">
        <ele>1656.5</ele>
        <time>2021-08-28T13:22:31Z</time>
      </trkpt>
      <trkpt lat="44.41984" lon="6.6989">
        <ele>1657.4</ele>
        <time>2021-08-28T13:22:35Z</time>
      </trkpt>
      <trkpt lat="44.41985" lon="6.69887">
        <ele>1658.2</ele>
        <time>2021-08-28T13:22:39Z</time>
      </trkpt>
      <trkpt lat="44.41987" lon="6.69885">
        <ele>1659.3</ele>
        <time>2021-08-28T13:22:43Z</time>
      </trkpt>
      <trkpt lat="44.41988" lon="6.69883">
        <ele>1660</ele>
        <time>2021-08-28T13:22:47Z</time>
      </trkpt>
      <trkpt lat="44.4199" lon="6.69882">
        <ele>1660.9</ele>
        <time>2021-08-28T13:22:51Z</time>
      </trkpt>
      <trkpt lat="44.41992" lon="6.69881">
        <ele>1661.7</ele>
        <time>2021-08-28T13:22:55Z</time>
      </trkpt>
      <trkpt lat="44.41994" lon="6.69879">
        <ele>1662.8</ele>
        <time>2021-08-28T13:22:59Z</time>
      </trkpt>
      <trkpt lat="44.41996" lon="6.69877">
        <ele>1663.8</ele>
        <time>2021-08-28T13:23:03Z</time>
      </trkpt>
      <trkpt lat="44.41999" lon="6.69875">
        <ele>1665.2</ele>
        <time>2021-08-28T13:23:07Z</time>
      </trkpt>
      <trkpt lat="44.42001" lon="6.69873">
        <ele>1666.2</ele>
        <time>2021-08-28T13:23:11Z</time>
      </trkpt>
      <trkpt lat="44.42003" lon="6.6987">
        <ele>1667.4</ele>
        <time>2021-08-28T13:23:15Z</time>
      </trkpt>
      <trkpt lat="44.42005" lon="6.69868">
        <ele>1668.5</ele>
        <time>2021-08-28T13:23:19Z</time>
      </trkpt>
      <trkpt lat="44.42007" lon="6.69869">
        <ele>1669</ele>
        <time>2021-08-28T13:23:23Z</time>
      </trkpt>
      <trkpt lat="44.42009" lon="6.69871">
        <ele>1669.3</ele>
        <time>2021-08-28T13:23:27Z</time>
      </trkpt>
      <trkpt lat="44.42012" lon="6.69873">
        <ele>1670</ele>
        <time>2021-08-28T13:23:31Z</time>
      </trkpt>
      <trkpt lat="44.42015" lon="6.69874">
        <ele>1670.8</ele>
        <time>2021-08-28T13:23:35Z</time>
      </trkpt>
      <trkpt lat="44.42018" lon="6.69875">
        <ele>1671.7</ele>
        <time>2021-08-28T13:23:39Z</time>
      </trkpt>
      <trkpt lat="44.4202" lon="6.69874">
        <ele>1672.5</ele>
        <time>2021-08-28T13:23:43Z</time>
      </trkpt>
      <trkpt lat="44.42022" lon="6.69871">
        <ele>1673.7</ele>
        <time>2021-08-28T13:23:47Z</time>
      </trkpt>
      <trkpt lat="44.42023" lon="6.69868">
        <ele>1674.6</ele>
        <time>2021-08-28T13:23:55Z</time>
      </trkpt>
      <trkpt lat="44.42024" lon="6.69865">
        <ele>1675.4</ele>
        <time>2021-08-28T13:23:59Z</time>
      </trkpt>
      <trkpt lat="44.42026" lon="6.69863">
        <ele>1676.4</ele>
        <time>2021-08-28T13:24:03Z</time>
      </trkpt>
      <trkpt lat="44.42029" lon="6.69863">
        <ele>1677.4</ele>
        <time>2021-08-28T13:24:07Z</time>
      </trkpt>
      <trkpt lat="44.4203" lon="6.6986">
        <ele>1678.3</ele>
        <time>2021-08-28T13:24:11Z</time>
      </trkpt>
      <trkpt lat="44.4203" lon="6.69857">
        <ele>1678.8</ele>
        <time>2021-08-28T13:24:15Z</time>
      </trkpt>
      <trkpt lat="44.42032" lon="6.69855">
        <ele>1679.8</ele>
        <time>2021-08-28T13:24:19Z</time>
      </trkpt>
      <trkpt lat="44.42034" lon="6.69853">
        <ele>1680.8</ele>
        <time>2021-08-28T13:24:27Z</time>
      </trkpt>
      <trkpt lat="44.42037" lon="6.6985">
        <ele>1682.3</ele>
        <time>2021-08-28T13:24:31Z</time>
      </trkpt>
      <trkpt lat="44.42039" lon="6.6985">
        <ele>1682.9</ele>
        <time>2021-08-28T13:24:35Z</time>
      </trkpt>
      <trkpt lat="44.4204" lon="6.69849">
        <ele>1683.4</ele>
        <time>2021-08-28T13:24:39Z</time>
      </trkpt>
      <trkpt lat="44.42041" lon="6.69846">
        <ele>1684.2</ele>
        <time>2021-08-28T13:24:43Z</time>
      </trkpt>
      <trkpt lat="44.42042" lon="6.69841">
        <ele>1685.4</ele>
        <time>2021-08-28T13:24:51Z</time>
      </trkpt>
      <trkpt lat="44.42045" lon="6.69839">
        <ele>1686.7</ele>
        <time>2021-08-28T13:24:55Z</time>
      </trkpt>
      <trkpt lat="44.42048" lon="6.69836">
        <ele>1688.1</ele>
        <time>2021-08-28T13:24:59Z</time>
      </trkpt>
      <trkpt lat="44.42049" lon="6.69834">
        <ele>1688.8</ele>
        <time>2021-08-28T13:25:03Z</time>
      </trkpt>
      <trkpt lat="44.42052" lon="6.6983">
        <ele>1690.3</ele>
        <time>2021-08-28T13:25:51Z</time>
      </trkpt>
      <trkpt lat="44.42047" lon="6.69824">
        <ele>1689.6</ele>
        <time>2021-08-28T13:25:55Z</time>
      </trkpt>
      <trkpt lat="44.42041" lon="6.69817">
        <ele>1688.6</ele>
        <time>2021-08-28T13:25:59Z</time>
      </trkpt>
      <trkpt lat="44.42038" lon="6.69802">
        <ele>1689.8</ele>
        <time>2021-08-28T13:26:03Z</time>
      </trkpt>
      <trkpt lat="44.42035" lon="6.69794">
        <ele>1689.9</ele>
        <time>2021-08-28T13:26:07Z</time>
      </trkpt>
      <trkpt lat="44.42033" lon="6.69782">
        <ele>1691</ele>
        <time>2021-08-28T13:26:11Z</time>
      </trkpt>
      <trkpt lat="44.42032" lon="6.69771">
        <ele>1692.2</ele>
        <time>2021-08-28T13:26:15Z</time>
      </trkpt>
      <trkpt lat="44.42032" lon="6.6976">
        <ele>1693.7</ele>
        <time>2021-08-28T13:26:19Z</time>
      </trkpt>
      <trkpt lat="44.42031" lon="6.69751">
        <ele>1694.6</ele>
        <time>2021-08-28T13:26:23Z</time>
      </trkpt>
      <trkpt lat="44.4203" lon="6.69742">
        <ele>1695.8</ele>
        <time>2021-08-28T13:26:27Z</time>
      </trkpt>
      <trkpt lat="44.4203" lon="6.69734">
        <ele>1697.1</ele>
        <time>2021-08-28T13:26:31Z</time>
      </trkpt>
      <trkpt lat="44.42029" lon="6.69726">
        <ele>1698.1</ele>
        <time>2021-08-28T13:26:35Z</time>
      </trkpt>
      <trkpt lat="44.42026" lon="6.69718">
        <ele>1698.2</ele>
        <time>2021-08-28T13:26:39Z</time>
      </trkpt>
      <trkpt lat="44.42021" lon="6.69711">
        <ele>1697.3</ele>
        <time>2021-08-28T13:26:43Z</time>
      </trkpt>
      <trkpt lat="44.42014" lon="6.69706">
        <ele>1695.1</ele>
        <time>2021-08-28T13:26:47Z</time>
      </trkpt>
      <trkpt lat="44.42009" lon="6.697">
        <ele>1693.8</ele>
        <time>2021-08-28T13:26:51Z</time>
      </trkpt>
      <trkpt lat="44.42006" lon="6.69689">
        <ele>1694</ele>
        <time>2021-08-28T13:26:55Z</time>
      </trkpt>
      <trkpt lat="44.42004" lon="6.69679">
        <ele>1694.4</ele>
        <time>2021-08-28T13:26:59Z</time>
      </trkpt>
      <trkpt lat="44.42001" lon="6.69668">
        <ele>1694.3</ele>
        <time>2021-08-28T13:27:03Z</time>
      </trkpt>
      <trkpt lat="44.41998" lon="6.69658">
        <ele>1694.3</ele>
        <time>2021-08-28T13:27:07Z</time>
      </trkpt>
      <trkpt lat="44.41996" lon="6.69648">
        <ele>1694.8</ele>
        <time>2021-08-28T13:27:11Z</time>
      </trkpt>
      <trkpt lat="44.41996" lon="6.69639">
        <ele>1695.9</ele>
        <time>2021-08-28T13:27:15Z</time>
      </trkpt>
      <trkpt lat="44.41995" lon="6.6963">
        <ele>1696.6</ele>
        <time>2021-08-28T13:27:19Z</time>
      </trkpt>
      <trkpt lat="44.41994" lon="6.6962">
        <ele>1697.4</ele>
        <time>2021-08-28T13:27:23Z</time>
      </trkpt>
      <trkpt lat="44.41995" lon="6.6961">
        <ele>1699</ele>
        <time>2021-08-28T13:27:27Z</time>
      </trkpt>
      <trkpt lat="44.41994" lon="6.696">
        <ele>1699.8</ele>
        <time>2021-08-28T13:27:31Z</time>
      </trkpt>
      <trkpt lat="44.41992" lon="6.69594">
        <ele>1699.8</ele>
        <time>2021-08-28T13:27:35Z</time>
      </trkpt>
      <trkpt lat="44.4199" lon="6.69585">
        <ele>1700.2</ele>
        <time>2021-08-28T13:27:39Z</time>
      </trkpt>
      <trkpt lat="44.41989" lon="6.69578">
        <ele>1701.3</ele>
        <time>2021-08-28T13:27:43Z</time>
      </trkpt>
      <trkpt lat="44.41989" lon="6.69569">
        <ele>1703.4</ele>
        <time>2021-08-28T13:27:47Z</time>
      </trkpt>
      <trkpt lat="44.41989" lon="6.6956">
        <ele>1705.5</ele>
        <time>2021-08-28T13:27:51Z</time>
      </trkpt>
      <trkpt lat="44.41992" lon="6.69551">
        <ele>1708.8</ele>
        <time>2021-08-28T13:27:55Z</time>
      </trkpt>
      <trkpt lat="44.41994" lon="6.69544">
        <ele>1711.2</ele>
        <time>2021-08-28T13:27:59Z</time>
      </trkpt>
      <trkpt lat="44.41998" lon="6.69538">
        <ele>1714.1</ele>
        <time>2021-08-28T13:28:03Z</time>
      </trkpt>
      <trkpt lat="44.41997" lon="6.69533">
        <ele>1714.9</ele>
        <time>2021-08-28T13:28:35Z</time>
      </trkpt>
      <trkpt lat="44.41993" lon="6.69532">
        <ele>1713.6</ele>
        <time>2021-08-28T13:28:39Z</time>
      </trkpt>
      <trkpt lat="44.41989" lon="6.69531">
        <ele>1712.4</ele>
        <time>2021-08-28T13:28:43Z</time>
      </trkpt>
      <trkpt lat="44.41986" lon="6.69526">
        <ele>1712.4</ele>
        <time>2021-08-28T13:28:51Z</time>
      </trkpt>
      <trkpt lat="44.41985" lon="6.69523">
        <ele>1712.7</ele>
        <time>2021-08-28T13:28:55Z</time>
      </trkpt>
      <trkpt lat="44.41983" lon="6.6952">
        <ele>1712.6</ele>
        <time>2021-08-28T13:28:59Z</time>
      </trkpt>
      <trkpt lat="44.41983" lon="6.69514">
        <ele>1714</ele>
        <time>2021-08-28T13:29:15Z</time>
      </trkpt>
      <trkpt lat="44.41981" lon="6.69511">
        <ele>1713.9</ele>
        <time>2021-08-28T13:29:19Z</time>
      </trkpt>
      <trkpt lat="44.41976" lon="6.69506">
        <ele>1713.1</ele>
        <time>2021-08-28T13:29:23Z</time>
      </trkpt>
      <trkpt lat="44.41973" lon="6.695">
        <ele>1713.3</ele>
        <time>2021-08-28T13:29:27Z</time>
      </trkpt>
      <trkpt lat="44.41968" lon="6.69494">
        <ele>1712.6</ele>
        <time>2021-08-28T13:29:31Z</time>
      </trkpt>
      <trkpt lat="44.41963" lon="6.69484">
        <ele>1712.7</ele>
        <time>2021-08-28T13:29:35Z</time>
      </trkpt>
      <trkpt lat="44.41956" lon="6.69476">
        <ele>1711.4</ele>
        <time>2021-08-28T13:29:39Z</time>
      </trkpt>
      <trkpt lat="44.4195" lon="6.69466">
        <ele>1711</ele>
        <time>2021-08-28T13:29:43Z</time>
      </trkpt>
      <trkpt lat="44.41945" lon="6.69455">
        <ele>1711.1</ele>
        <time>2021-08-28T13:29:47Z</time>
      </trkpt>
      <trkpt lat="44.4194" lon="6.69445">
        <ele>1710.9</ele>
        <time>2021-08-28T13:29:51Z</time>
      </trkpt>
      <trkpt lat="44.41933" lon="6.69437">
        <ele>1709.4</ele>
        <time>2021-08-28T13:29:55Z</time>
      </trkpt>
      <trkpt lat="44.41927" lon="6.69428">
        <ele>1708.5</ele>
        <time>2021-08-28T13:29:59Z</time>
      </trkpt>
      <trkpt lat="44.41922" lon="6.69418">
        <ele>1708.1</ele>
        <time>2021-08-28T13:30:03Z</time>
      </trkpt>
      <trkpt lat="44.41916" lon="6.69407">
        <ele>1706.1</ele>
        <time>2021-08-28T13:30:07Z</time>
      </trkpt>
      <trkpt lat="44.41913" lon="6.69397">
        <ele>1705.4</ele>
        <time>2021-08-28T13:30:11Z</time>
      </trkpt>
      <trkpt lat="44.4191" lon="6.6938">
        <ele>1704.7</ele>
        <time>2021-08-28T13:30:15Z</time>
      </trkpt>
      <trkpt lat="44.4191" lon="6.69365">
        <ele>1705.1</ele>
        <time>2021-08-28T13:30:19Z</time>
      </trkpt>
      <trkpt lat="44.41911" lon="6.69351">
        <ele>1705.8</ele>
        <time>2021-08-28T13:30:23Z</time>
      </trkpt>
      <trkpt lat="44.41913" lon="6.69343">
        <ele>1707</ele>
        <time>2021-08-28T13:30:27Z</time>
      </trkpt>
      <trkpt lat="44.41913" lon="6.69338">
        <ele>1707.1</ele>
        <time>2021-08-28T13:30:31Z</time>
      </trkpt>
      <trkpt lat="44.41913" lon="6.69336">
        <ele>1707.2</ele>
        <time>2021-08-28T13:30:39Z</time>
      </trkpt>
      <trkpt lat="44.41912" lon="6.69332">
        <ele>1706.5</ele>
        <time>2021-08-28T13:30:47Z</time>
      </trkpt>
      <trkpt lat="44.41912" lon="6.69325">
        <ele>1705.2</ele>
        <time>2021-08-28T13:30:51Z</time>
      </trkpt>
      <trkpt lat="44.4191" lon="6.6932">
        <ele>1703.3</ele>
        <time>2021-08-28T13:30:55Z</time>
      </trkpt>
      <trkpt lat="44.41911" lon="6.69313">
        <ele>1702.6</ele>
        <time>2021-08-28T13:30:59Z</time>
      </trkpt>
      <trkpt lat="44.41913" lon="6.69308">
        <ele>1702.6</ele>
        <time>2021-08-28T13:31:03Z</time>
      </trkpt>
      <trkpt lat="44.41916" lon="6.69302">
        <ele>1703</ele>
        <time>2021-08-28T13:31:07Z</time>
      </trkpt>
      <trkpt lat="44.41918" lon="6.69296">
        <ele>1703</ele>
        <time>2021-08-28T13:31:35Z</time>
      </trkpt>
      <trkpt lat="44.41917" lon="6.69299">
        <ele>1703</ele>
        <time>2021-08-28T13:31:39Z</time>
      </trkpt>
      <trkpt lat="44.41915" lon="6.69304">
        <ele>1702.9</ele>
        <time>2021-08-28T13:31:43Z</time>
      </trkpt>
      <trkpt lat="44.41913" lon="6.69312">
        <ele>1703.4</ele>
        <time>2021-08-28T13:31:47Z</time>
      </trkpt>
      <trkpt lat="44.41908" lon="6.69323">
        <ele>1702.9</ele>
        <time>2021-08-28T13:33:07Z</time>
      </trkpt>
      <trkpt lat="44.4191" lon="6.69321">
        <ele>1703.5</ele>
        <time>2021-08-28T13:33:11Z</time>
      </trkpt>
      <trkpt lat="44.41911" lon="6.69317">
        <ele>1703.3</ele>
        <time>2021-08-28T13:33:15Z</time>
      </trkpt>
      <trkpt lat="44.41913" lon="6.69309">
        <ele>1702.8</ele>
        <time>2021-08-28T13:33:19Z</time>
      </trkpt>
      <trkpt lat="44.41916" lon="6.693">
        <ele>1702.7</ele>
        <time>2021-08-28T13:33:23Z</time>
      </trkpt>
      <trkpt lat="44.41919" lon="6.69293">
        <ele>1703.1</ele>
        <time>2021-08-28T13:33:27Z</time>
      </trkpt>
      <trkpt lat="44.41924" lon="6.69284">
        <ele>1704.3</ele>
        <time>2021-08-28T13:33:31Z</time>
      </trkpt>
      <trkpt lat="44.4193" lon="6.69276">
        <ele>1706.5</ele>
        <time>2021-08-28T13:33:35Z</time>
      </trkpt>
      <trkpt lat="44.41935" lon="6.69269">
        <ele>1708.4</ele>
        <time>2021-08-28T13:33:39Z</time>
      </trkpt>
      <trkpt lat="44.41937" lon="6.69259">
        <ele>1708</ele>
        <time>2021-08-28T13:33:43Z</time>
      </trkpt>
      <trkpt lat="44.41933" lon="6.6925">
        <ele>1704.2</ele>
        <time>2021-08-28T13:33:47Z</time>
      </trkpt>
      <trkpt lat="44.41933" lon="6.69244">
        <ele>1703.4</ele>
        <time>2021-08-28T13:33:51Z</time>
      </trkpt>
      <trkpt lat="44.41934" lon="6.69239">
        <ele>1703.3</ele>
        <time>2021-08-28T13:33:59Z</time>
      </trkpt>
      <trkpt lat="44.41932" lon="6.69241">
        <ele>1702.3</ele>
        <time>2021-08-28T13:34:11Z</time>
      </trkpt>
      <trkpt lat="44.41932" lon="6.69246">
        <ele>1703</ele>
        <time>2021-08-28T13:34:15Z</time>
      </trkpt>
      <trkpt lat="44.41934" lon="6.69252">
        <ele>1705.1</ele>
        <time>2021-08-28T13:34:19Z</time>
      </trkpt>
      <trkpt lat="44.41937" lon="6.69256">
        <ele>1707.6</ele>
        <time>2021-08-28T13:34:23Z</time>
      </trkpt>
      <trkpt lat="44.41939" lon="6.6926">
        <ele>1709.4</ele>
        <time>2021-08-28T13:34:27Z</time>
      </trkpt>
      <trkpt lat="44.41942" lon="6.69257">
        <ele>1710.8</ele>
        <time>2021-08-28T13:34:31Z</time>
      </trkpt>
      <trkpt lat="44.41945" lon="6.69251">
        <ele>1711.8</ele>
        <time>2021-08-28T13:34:35Z</time>
      </trkpt>
      <trkpt lat="44.41948" lon="6.69247">
        <ele>1713.1</ele>
        <time>2021-08-28T13:34:39Z</time>
      </trkpt>
      <trkpt lat="44.4195" lon="6.69243">
        <ele>1713.7</ele>
        <time>2021-08-28T13:34:43Z</time>
      </trkpt>
      <trkpt lat="44.41951" lon="6.69239">
        <ele>1713.7</ele>
        <time>2021-08-28T13:34:47Z</time>
      </trkpt>
      <trkpt lat="44.41952" lon="6.69236">
        <ele>1713.9</ele>
        <time>2021-08-28T13:34:51Z</time>
      </trkpt>
      <trkpt lat="44.41956" lon="6.69228">
        <ele>1715</ele>
        <time>2021-08-28T13:34:55Z</time>
      </trkpt>
      <trkpt lat="44.41961" lon="6.69223">
        <ele>1717.2</ele>
        <time>2021-08-28T13:34:59Z</time>
      </trkpt>
      <trkpt lat="44.41967" lon="6.69215">
        <ele>1719.4</ele>
        <time>2021-08-28T13:35:03Z</time>
      </trkpt>
      <trkpt lat="44.41975" lon="6.69208">
        <ele>1722.9</ele>
        <time>2021-08-28T13:35:07Z</time>
      </trkpt>
      <trkpt lat="44.41981" lon="6.69201">
        <ele>1725.1</ele>
        <time>2021-08-28T13:35:11Z</time>
      </trkpt>
      <trkpt lat="44.41985" lon="6.69193">
        <ele>1725.9</ele>
        <time>2021-08-28T13:35:15Z</time>
      </trkpt>
      <trkpt lat="44.41989" lon="6.69185">
        <ele>1726.6</ele>
        <time>2021-08-28T13:35:19Z</time>
      </trkpt>
      <trkpt lat="44.41992" lon="6.69177">
        <ele>1726.7</ele>
        <time>2021-08-28T13:35:23Z</time>
      </trkpt>
      <trkpt lat="44.41997" lon="6.69173">
        <ele>1728.7</ele>
        <time>2021-08-28T13:35:27Z</time>
      </trkpt>
      <trkpt lat="44.42" lon="6.69167">
        <ele>1729.1</ele>
        <time>2021-08-28T13:35:31Z</time>
      </trkpt>
      <trkpt lat="44.42" lon="6.69163">
        <ele>1728.4</ele>
        <time>2021-08-28T13:35:35Z</time>
      </trkpt>
      <trkpt lat="44.42001" lon="6.69158">
        <ele>1728.2</ele>
        <time>2021-08-28T13:35:39Z</time>
      </trkpt>
      <trkpt lat="44.42002" lon="6.69153">
        <ele>1728</ele>
        <time>2021-08-28T13:35:43Z</time>
      </trkpt>
      <trkpt lat="44.42003" lon="6.69149">
        <ele>1727.9</ele>
        <time>2021-08-28T13:35:47Z</time>
      </trkpt>
      <trkpt lat="44.42004" lon="6.69144">
        <ele>1727.7</ele>
        <time>2021-08-28T13:35:51Z</time>
      </trkpt>
      <trkpt lat="44.42009" lon="6.69139">
        <ele>1730.1</ele>
        <time>2021-08-28T13:35:59Z</time>
      </trkpt>
      <trkpt lat="44.42013" lon="6.69135">
        <ele>1732</ele>
        <time>2021-08-28T13:36:03Z</time>
      </trkpt>
      <trkpt lat="44.42016" lon="6.69128">
        <ele>1732.8</ele>
        <time>2021-08-28T13:36:07Z</time>
      </trkpt>
      <trkpt lat="44.42019" lon="6.69119">
        <ele>1733.2</ele>
        <time>2021-08-28T13:36:11Z</time>
      </trkpt>
      <trkpt lat="44.42019" lon="6.69111">
        <ele>1732</ele>
        <time>2021-08-28T13:36:15Z</time>
      </trkpt>
      <trkpt lat="44.42021" lon="6.69104">
        <ele>1732.1</ele>
        <time>2021-08-28T13:36:19Z</time>
      </trkpt>
      <trkpt lat="44.42021" lon="6.691">
        <ele>1731.5</ele>
        <time>2021-08-28T13:36:23Z</time>
      </trkpt>
      <trkpt lat="44.42021" lon="6.69098">
        <ele>1731.2</ele>
        <time>2021-08-28T13:36:27Z</time>
      </trkpt>
      <trkpt lat="44.42022" lon="6.69095">
        <ele>1731.4</ele>
        <time>2021-08-28T13:36:43Z</time>
      </trkpt>
      <trkpt lat="44.42021" lon="6.69091">
        <ele>1730.1</ele>
        <time>2021-08-28T13:36:51Z</time>
      </trkpt>
      <trkpt lat="44.42021" lon="6.6909">
        <ele>1729.9</ele>
        <time>2021-08-28T13:36:55Z</time>
      </trkpt>
      <trkpt lat="44.42022" lon="6.6909">
        <ele>1730.6</ele>
        <time>2021-08-28T13:36:59Z</time>
      </trkpt>
      <trkpt lat="44.42024" lon="6.69086">
        <ele>1731.3</ele>
        <time>2021-08-28T13:37:03Z</time>
      </trkpt>
      <trkpt lat="44.42024" lon="6.69082">
        <ele>1730.7</ele>
        <time>2021-08-28T13:37:07Z</time>
      </trkpt>
      <trkpt lat="44.42026" lon="6.69079">
        <ele>1731.6</ele>
        <time>2021-08-28T13:37:11Z</time>
      </trkpt>
      <trkpt lat="44.42027" lon="6.69076">
        <ele>1731.9</ele>
        <time>2021-08-28T13:37:15Z</time>
      </trkpt>
      <trkpt lat="44.42028" lon="6.69073">
        <ele>1732.2</ele>
        <time>2021-08-28T13:37:19Z</time>
      </trkpt>
      <trkpt lat="44.4203" lon="6.69069">
        <ele>1733.1</ele>
        <time>2021-08-28T13:37:23Z</time>
      </trkpt>
      <trkpt lat="44.42032" lon="6.69065">
        <ele>1733.9</ele>
        <time>2021-08-28T13:37:27Z</time>
      </trkpt>
      <trkpt lat="44.42033" lon="6.69061">
        <ele>1734</ele>
        <time>2021-08-28T13:37:31Z</time>
      </trkpt>
      <trkpt lat="44.42036" lon="6.69056">
        <ele>1735.3</ele>
        <time>2021-08-28T13:37:35Z</time>
      </trkpt>
      <trkpt lat="44.42039" lon="6.6905">
        <ele>1736.4</ele>
        <time>2021-08-28T13:37:39Z</time>
      </trkpt>
      <trkpt lat="44.42044" lon="6.69045">
        <ele>1738.9</ele>
        <time>2021-08-28T13:37:43Z</time>
      </trkpt>
      <trkpt lat="44.42049" lon="6.69041">
        <ele>1741.5</ele>
        <time>2021-08-28T13:37:47Z</time>
      </trkpt>
      <trkpt lat="44.42052" lon="6.69036">
        <ele>1742.6</ele>
        <time>2021-08-28T13:37:55Z</time>
      </trkpt>
      <trkpt lat="44.42055" lon="6.69034">
        <ele>1744.2</ele>
        <time>2021-08-28T13:37:59Z</time>
      </trkpt>
      <trkpt lat="44.42056" lon="6.69034">
        <ele>1744.8</ele>
        <time>2021-08-28T13:38:07Z</time>
      </trkpt>
      <trkpt lat="44.42058" lon="6.69031">
        <ele>1745.6</ele>
        <time>2021-08-28T13:38:11Z</time>
      </trkpt>
      <trkpt lat="44.4206" lon="6.69027">
        <ele>1746.3</ele>
        <time>2021-08-28T13:38:15Z</time>
      </trkpt>
      <trkpt lat="44.4206" lon="6.69024">
        <ele>1745.8</ele>
        <time>2021-08-28T13:38:19Z</time>
      </trkpt>
      <trkpt lat="44.42062" lon="6.69021">
        <ele>1746.6</ele>
        <time>2021-08-28T13:38:23Z</time>
      </trkpt>
      <trkpt lat="44.42064" lon="6.69017">
        <ele>1747.2</ele>
        <time>2021-08-28T13:38:27Z</time>
      </trkpt>
      <trkpt lat="44.42066" lon="6.69014">
        <ele>1748</ele>
        <time>2021-08-28T13:38:31Z</time>
      </trkpt>
      <trkpt lat="44.42066" lon="6.6901">
        <ele>1747.3</ele>
        <time>2021-08-28T13:38:35Z</time>
      </trkpt>
      <trkpt lat="44.42068" lon="6.69006">
        <ele>1747.9</ele>
        <time>2021-08-28T13:38:39Z</time>
      </trkpt>
      <trkpt lat="44.4207" lon="6.69001">
        <ele>1748.3</ele>
        <time>2021-08-28T13:38:43Z</time>
      </trkpt>
      <trkpt lat="44.42071" lon="6.68998">
        <ele>1748.3</ele>
        <time>2021-08-28T13:38:47Z</time>
      </trkpt>
      <trkpt lat="44.42072" lon="6.68996">
        <ele>1748.5</ele>
        <time>2021-08-28T13:38:51Z</time>
      </trkpt>
      <trkpt lat="44.42073" lon="6.68992">
        <ele>1748.2</ele>
        <time>2021-08-28T13:38:55Z</time>
      </trkpt>
      <trkpt lat="44.42075" lon="6.68992">
        <ele>1749.3</ele>
        <time>2021-08-28T13:38:59Z</time>
      </trkpt>
      <trkpt lat="44.42078" lon="6.68991">
        <ele>1750.9</ele>
        <time>2021-08-28T13:39:03Z</time>
      </trkpt>
      <trkpt lat="44.42081" lon="6.6899">
        <ele>1752.5</ele>
        <time>2021-08-28T13:39:11Z</time>
      </trkpt>
      <trkpt lat="44.42083" lon="6.68988">
        <ele>1753.2</ele>
        <time>2021-08-28T13:39:15Z</time>
      </trkpt>
      <trkpt lat="44.42085" lon="6.68987">
        <ele>1754.3</ele>
        <time>2021-08-28T13:39:27Z</time>
      </trkpt>
      <trkpt lat="44.42083" lon="6.68983">
        <ele>1752.1</ele>
        <time>2021-08-28T13:39:35Z</time>
      </trkpt>
      <trkpt lat="44.42089" lon="6.68977">
        <ele>1755</ele>
        <time>2021-08-28T13:39:43Z</time>
      </trkpt>
      <trkpt lat="44.42091" lon="6.68971">
        <ele>1755.1</ele>
        <time>2021-08-28T13:39:51Z</time>
      </trkpt>
      <trkpt lat="44.42091" lon="6.68968">
        <ele>1754.5</ele>
        <time>2021-08-28T13:39:55Z</time>
      </trkpt>
      <trkpt lat="44.4209" lon="6.68961">
        <ele>1752.3</ele>
        <time>2021-08-28T13:40:11Z</time>
      </trkpt>
      <trkpt lat="44.42093" lon="6.68957">
        <ele>1753.6</ele>
        <time>2021-08-28T13:40:15Z</time>
      </trkpt>
      <trkpt lat="44.42096" lon="6.68953">
        <ele>1754.9</ele>
        <time>2021-08-28T13:40:19Z</time>
      </trkpt>
      <trkpt lat="44.42098" lon="6.68948">
        <ele>1755.3</ele>
        <time>2021-08-28T13:40:23Z</time>
      </trkpt>
      <trkpt lat="44.421" lon="6.68944">
        <ele>1756</ele>
        <time>2021-08-28T13:40:27Z</time>
      </trkpt>
      <trkpt lat="44.42107" lon="6.68937">
        <ele>1759.7</ele>
        <time>2021-08-28T13:40:31Z</time>
      </trkpt>
      <trkpt lat="44.4211" lon="6.68934">
        <ele>1761.3</ele>
        <time>2021-08-28T13:40:35Z</time>
      </trkpt>
      <trkpt lat="44.42114" lon="6.68928">
        <ele>1763</ele>
        <time>2021-08-28T13:40:39Z</time>
      </trkpt>
      <trkpt lat="44.42116" lon="6.68921">
        <ele>1763.1</ele>
        <time>2021-08-28T13:40:43Z</time>
      </trkpt>
      <trkpt lat="44.42117" lon="6.68917">
        <ele>1763.1</ele>
        <time>2021-08-28T13:40:47Z</time>
      </trkpt>
      <trkpt lat="44.4212" lon="6.68911">
        <ele>1764.2</ele>
        <time>2021-08-28T13:40:51Z</time>
      </trkpt>
      <trkpt lat="44.42122" lon="6.68905">
        <ele>1764.5</ele>
        <time>2021-08-28T13:40:55Z</time>
      </trkpt>
      <trkpt lat="44.42125" lon="6.68899">
        <ele>1765.6</ele>
        <time>2021-08-28T13:40:59Z</time>
      </trkpt>
      <trkpt lat="44.42128" lon="6.68891">
        <ele>1766.3</ele>
        <time>2021-08-28T13:41:03Z</time>
      </trkpt>
      <trkpt lat="44.42133" lon="6.68886">
        <ele>1769</ele>
        <time>2021-08-28T13:41:07Z</time>
      </trkpt>
      <trkpt lat="44.42137" lon="6.68878">
        <ele>1770.4</ele>
        <time>2021-08-28T13:41:11Z</time>
      </trkpt>
      <trkpt lat="44.42139" lon="6.68871">
        <ele>1770.5</ele>
        <time>2021-08-28T13:41:15Z</time>
      </trkpt>
      <trkpt lat="44.42142" lon="6.6886">
        <ele>1770.5</ele>
        <time>2021-08-28T13:41:19Z</time>
      </trkpt>
      <trkpt lat="44.42142" lon="6.6885">
        <ele>1768.5</ele>
        <time>2021-08-28T13:41:23Z</time>
      </trkpt>
      <trkpt lat="44.42142" lon="6.68837">
        <ele>1766</ele>
        <time>2021-08-28T13:41:27Z</time>
      </trkpt>
      <trkpt lat="44.4214" lon="6.68825">
        <ele>1763.3</ele>
        <time>2021-08-28T13:41:31Z</time>
      </trkpt>
      <trkpt lat="44.42141" lon="6.68813">
        <ele>1763.3</ele>
        <time>2021-08-28T13:41:35Z</time>
      </trkpt>
      <trkpt lat="44.42141" lon="6.68803">
        <ele>1762.7</ele>
        <time>2021-08-28T13:41:39Z</time>
      </trkpt>
      <trkpt lat="44.42144" lon="6.68797">
        <ele>1764.4</ele>
        <time>2021-08-28T13:41:51Z</time>
      </trkpt>
      <trkpt lat="44.42143" lon="6.68795">
        <ele>1763.6</ele>
        <time>2021-08-28T13:41:55Z</time>
      </trkpt>
      <trkpt lat="44.42142" lon="6.68792">
        <ele>1762.7</ele>
        <time>2021-08-28T13:41:59Z</time>
      </trkpt>
      <trkpt lat="44.42142" lon="6.68787">
        <ele>1762.4</ele>
        <time>2021-08-28T13:42:03Z</time>
      </trkpt>
      <trkpt lat="44.42141" lon="6.68784">
        <ele>1761.5</ele>
        <time>2021-08-28T13:42:11Z</time>
      </trkpt>
      <trkpt lat="44.4214" lon="6.6878">
        <ele>1760.6</ele>
        <time>2021-08-28T13:42:15Z</time>
      </trkpt>
      <trkpt lat="44.42141" lon="6.68777">
        <ele>1761.1</ele>
        <time>2021-08-28T13:42:19Z</time>
      </trkpt>
      <trkpt lat="44.42142" lon="6.68773">
        <ele>1761.5</ele>
        <time>2021-08-28T13:42:23Z</time>
      </trkpt>
      <trkpt lat="44.42144" lon="6.68769">
        <ele>1762.7</ele>
        <time>2021-08-28T13:42:27Z</time>
      </trkpt>
      <trkpt lat="44.42146" lon="6.68766">
        <ele>1763.9</ele>
        <time>2021-08-28T13:42:31Z</time>
      </trkpt>
      <trkpt lat="44.42147" lon="6.68763">
        <ele>1764.4</ele>
        <time>2021-08-28T13:42:35Z</time>
      </trkpt>
      <trkpt lat="44.42149" lon="6.6876">
        <ele>1765.6</ele>
        <time>2021-08-28T13:42:39Z</time>
      </trkpt>
      <trkpt lat="44.42151" lon="6.68757">
        <ele>1766.7</ele>
        <time>2021-08-28T13:42:43Z</time>
      </trkpt>
      <trkpt lat="44.42153" lon="6.68756">
        <ele>1768</ele>
        <time>2021-08-28T13:42:47Z</time>
      </trkpt>
      <trkpt lat="44.42155" lon="6.68754">
        <ele>1769.3</ele>
        <time>2021-08-28T13:42:51Z</time>
      </trkpt>
      <trkpt lat="44.42157" lon="6.68752">
        <ele>1770.5</ele>
        <time>2021-08-28T13:42:55Z</time>
      </trkpt>
      <trkpt lat="44.42159" lon="6.68751">
        <ele>1771.8</ele>
        <time>2021-08-28T13:42:59Z</time>
      </trkpt>
      <trkpt lat="44.42162" lon="6.68749">
        <ele>1773.9</ele>
        <time>2021-08-28T13:43:03Z</time>
      </trkpt>
      <trkpt lat="44.42165" lon="6.68746">
        <ele>1776.2</ele>
        <time>2021-08-28T13:43:07Z</time>
      </trkpt>
      <trkpt lat="44.42167" lon="6.68743">
        <ele>1777.8</ele>
        <time>2021-08-28T13:43:11Z</time>
      </trkpt>
      <trkpt lat="44.4217" lon="6.68741">
        <ele>1780</ele>
        <time>2021-08-28T13:43:15Z</time>
      </trkpt>
      <trkpt lat="44.42173" lon="6.68739">
        <ele>1782</ele>
        <time>2021-08-28T13:43:19Z</time>
      </trkpt>
      <trkpt lat="44.42175" lon="6.68736">
        <ele>1783.5</ele>
        <time>2021-08-28T13:43:23Z</time>
      </trkpt>
      <trkpt lat="44.42178" lon="6.68734">
        <ele>1785.5</ele>
        <time>2021-08-28T13:43:31Z</time>
      </trkpt>
      <trkpt lat="44.4218" lon="6.68732">
        <ele>1786.8</ele>
        <time>2021-08-28T13:43:35Z</time>
      </trkpt>
      <trkpt lat="44.42182" lon="6.68729">
        <ele>1788.1</ele>
        <time>2021-08-28T13:43:39Z</time>
      </trkpt>
      <trkpt lat="44.42185" lon="6.68727">
        <ele>1789.9</ele>
        <time>2021-08-28T13:43:43Z</time>
      </trkpt>
      <trkpt lat="44.42188" lon="6.68727">
        <ele>1791.7</ele>
        <time>2021-08-28T13:43:47Z</time>
      </trkpt>
      <trkpt lat="44.42191" lon="6.68726">
        <ele>1793.5</ele>
        <time>2021-08-28T13:43:51Z</time>
      </trkpt>
      <trkpt lat="44.42194" lon="6.68724">
        <ele>1795.2</ele>
        <time>2021-08-28T13:43:55Z</time>
      </trkpt>
      <trkpt lat="44.42198" lon="6.68723">
        <ele>1797.5</ele>
        <time>2021-08-28T13:43:59Z</time>
      </trkpt>
      <trkpt lat="44.42202" lon="6.68721">
        <ele>1799.7</ele>
        <time>2021-08-28T13:44:03Z</time>
      </trkpt>
      <trkpt lat="44.42205" lon="6.68719">
        <ele>1801.3</ele>
        <time>2021-08-28T13:44:07Z</time>
      </trkpt>
      <trkpt lat="44.42209" lon="6.68718">
        <ele>1803.5</ele>
        <time>2021-08-28T13:44:11Z</time>
      </trkpt>
      <trkpt lat="44.42214" lon="6.68717">
        <ele>1806.2</ele>
        <time>2021-08-28T13:44:15Z</time>
      </trkpt>
      <trkpt lat="44.42216" lon="6.68716">
        <ele>1807.2</ele>
        <time>2021-08-28T13:44:19Z</time>
      </trkpt>
      <trkpt lat="44.42219" lon="6.68714">
        <ele>1808.6</ele>
        <time>2021-08-28T13:44:23Z</time>
      </trkpt>
      <trkpt lat="44.42222" lon="6.68713">
        <ele>1810.1</ele>
        <time>2021-08-28T13:44:27Z</time>
      </trkpt>
      <trkpt lat="44.42225" lon="6.68709">
        <ele>1811.1</ele>
        <time>2021-08-28T13:44:31Z</time>
      </trkpt>
      <trkpt lat="44.42228" lon="6.68705">
        <ele>1811.9</ele>
        <time>2021-08-28T13:44:35Z</time>
      </trkpt>
      <trkpt lat="44.42231" lon="6.687">
        <ele>1812.5</ele>
        <time>2021-08-28T13:44:39Z</time>
      </trkpt>
      <trkpt lat="44.42235" lon="6.68698">
        <ele>1814.1</ele>
        <time>2021-08-28T13:44:43Z</time>
      </trkpt>
      <trkpt lat="44.42239" lon="6.68697">
        <ele>1815.8</ele>
        <time>2021-08-28T13:44:47Z</time>
      </trkpt>
      <trkpt lat="44.42241" lon="6.68696">
        <ele>1816.5</ele>
        <time>2021-08-28T13:44:51Z</time>
      </trkpt>
      <trkpt lat="44.42244" lon="6.68693">
        <ele>1817.2</ele>
        <time>2021-08-28T13:44:55Z</time>
      </trkpt>
      <trkpt lat="44.42248" lon="6.68693">
        <ele>1819</ele>
        <time>2021-08-28T13:44:59Z</time>
      </trkpt>
      <trkpt lat="44.4225" lon="6.6869">
        <ele>1819.2</ele>
        <time>2021-08-28T13:45:03Z</time>
      </trkpt>
      <trkpt lat="44.42251" lon="6.68687">
        <ele>1818.9</ele>
        <time>2021-08-28T13:45:11Z</time>
      </trkpt>
      <trkpt lat="44.4225" lon="6.68684">
        <ele>1817.6</ele>
        <time>2021-08-28T13:45:15Z</time>
      </trkpt>
      <trkpt lat="44.42252" lon="6.68682">
        <ele>1818</ele>
        <time>2021-08-28T13:45:19Z</time>
      </trkpt>
      <trkpt lat="44.42253" lon="6.68678">
        <ele>1817.5</ele>
        <time>2021-08-28T13:45:23Z</time>
      </trkpt>
      <trkpt lat="44.42255" lon="6.68675">
        <ele>1817.7</ele>
        <time>2021-08-28T13:45:27Z</time>
      </trkpt>
      <trkpt lat="44.4226" lon="6.6867">
        <ele>1818.9</ele>
        <time>2021-08-28T13:45:39Z</time>
      </trkpt>
      <trkpt lat="44.42262" lon="6.68667">
        <ele>1819.1</ele>
        <time>2021-08-28T13:45:43Z</time>
      </trkpt>
      <trkpt lat="44.42264" lon="6.68665">
        <ele>1820.5</ele>
        <time>2021-08-28T13:45:47Z</time>
      </trkpt>
      <trkpt lat="44.42266" lon="6.68662">
        <ele>1822.3</ele>
        <time>2021-08-28T13:45:51Z</time>
      </trkpt>
      <trkpt lat="44.42268" lon="6.68661">
        <ele>1823.6</ele>
        <time>2021-08-28T13:45:55Z</time>
      </trkpt>
      <trkpt lat="44.4227" lon="6.68659">
        <ele>1825.1</ele>
        <time>2021-08-28T13:45:59Z</time>
      </trkpt>
      <trkpt lat="44.42272" lon="6.68657">
        <ele>1826.5</ele>
        <time>2021-08-28T13:46:03Z</time>
      </trkpt>
      <trkpt lat="44.42274" lon="6.68655">
        <ele>1828</ele>
        <time>2021-08-28T13:46:07Z</time>
      </trkpt>
      <trkpt lat="44.42277" lon="6.68653">
        <ele>1829.9</ele>
        <time>2021-08-28T13:46:15Z</time>
      </trkpt>
      <trkpt lat="44.4228" lon="6.68651">
        <ele>1831.7</ele>
        <time>2021-08-28T13:46:19Z</time>
      </trkpt>
      <trkpt lat="44.42284" lon="6.68648">
        <ele>1834.2</ele>
        <time>2021-08-28T13:46:23Z</time>
      </trkpt>
      <trkpt lat="44.42288" lon="6.68645">
        <ele>1836.7</ele>
        <time>2021-08-28T13:46:27Z</time>
      </trkpt>
      <trkpt lat="44.42292" lon="6.68643">
        <ele>1838.8</ele>
        <time>2021-08-28T13:46:35Z</time>
      </trkpt>
      <trkpt lat="44.42295" lon="6.6864">
        <ele>1840.7</ele>
        <time>2021-08-28T13:46:39Z</time>
      </trkpt>
      <trkpt lat="44.42298" lon="6.68636">
        <ele>1842.7</ele>
        <time>2021-08-28T13:46:43Z</time>
      </trkpt>
      <trkpt lat="44.42301" lon="6.68632">
        <ele>1844.7</ele>
        <time>2021-08-28T13:46:51Z</time>
      </trkpt>
      <trkpt lat="44.42302" lon="6.68631">
        <ele>1845.3</ele>
        <time>2021-08-28T13:46:59Z</time>
      </trkpt>
      <trkpt lat="44.42304" lon="6.68628">
        <ele>1846.6</ele>
        <time>2021-08-28T13:47:03Z</time>
      </trkpt>
      <trkpt lat="44.42305" lon="6.68625">
        <ele>1847.5</ele>
        <time>2021-08-28T13:47:11Z</time>
      </trkpt>
      <trkpt lat="44.42305" lon="6.68622">
        <ele>1847.9</ele>
        <time>2021-08-28T13:47:15Z</time>
      </trkpt>
      <trkpt lat="44.42301" lon="6.6862">
        <ele>1846.8</ele>
        <time>2021-08-28T13:47:19Z</time>
      </trkpt>
      <trkpt lat="44.42298" lon="6.68621">
        <ele>1845.4</ele>
        <time>2021-08-28T13:47:23Z</time>
      </trkpt>
      <trkpt lat="44.42295" lon="6.6862">
        <ele>1844.5</ele>
        <time>2021-08-28T13:47:27Z</time>
      </trkpt>
      <trkpt lat="44.42291" lon="6.6862">
        <ele>1843</ele>
        <time>2021-08-28T13:47:31Z</time>
      </trkpt>
      <trkpt lat="44.42287" lon="6.68621">
        <ele>1841.3</ele>
        <time>2021-08-28T13:47:35Z</time>
      </trkpt>
      <trkpt lat="44.42282" lon="6.68622">
        <ele>1839.2</ele>
        <time>2021-08-28T13:47:39Z</time>
      </trkpt>
      <trkpt lat="44.42277" lon="6.68625">
        <ele>1836.5</ele>
        <time>2021-08-28T13:47:43Z</time>
      </trkpt>
      <trkpt lat="44.42272" lon="6.68629">
        <ele>1833.6</ele>
        <time>2021-08-28T13:47:47Z</time>
      </trkpt>
      <trkpt lat="44.42268" lon="6.6863">
        <ele>1831.7</ele>
        <time>2021-08-28T13:47:51Z</time>
      </trkpt>
      <trkpt lat="44.42265" lon="6.68632">
        <ele>1830</ele>
        <time>2021-08-28T13:47:55Z</time>
      </trkpt>
      <trkpt lat="44.42261" lon="6.68631">
        <ele>1828.6</ele>
        <time>2021-08-28T13:47:59Z</time>
      </trkpt>
      <trkpt lat="44.42254" lon="6.68635">
        <ele>1824.5</ele>
        <time>2021-08-28T13:48:03Z</time>
      </trkpt>
      <trkpt lat="44.42247" lon="6.6864">
        <ele>1820.2</ele>
        <time>2021-08-28T13:48:07Z</time>
      </trkpt>
      <trkpt lat="44.42242" lon="6.68644">
        <ele>1817.2</ele>
        <time>2021-08-28T13:48:11Z</time>
      </trkpt>
      <trkpt lat="44.42238" lon="6.68644">
        <ele>1815.7</ele>
        <time>2021-08-28T13:48:15Z</time>
      </trkpt>
      <trkpt lat="44.42233" lon="6.68642">
        <ele>1814.5</ele>
        <time>2021-08-28T13:48:19Z</time>
      </trkpt>
      <trkpt lat="44.4223" lon="6.68643">
        <ele>1813.1</ele>
        <time>2021-08-28T13:48:23Z</time>
      </trkpt>
      <trkpt lat="44.42226" lon="6.68644">
        <ele>1811.3</ele>
        <time>2021-08-28T13:48:27Z</time>
      </trkpt>
      <trkpt lat="44.42221" lon="6.68643">
        <ele>1809.8</ele>
        <time>2021-08-28T13:48:31Z</time>
      </trkpt>
      <trkpt lat="44.42218" lon="6.6864">
        <ele>1809.6</ele>
        <time>2021-08-28T13:48:35Z</time>
      </trkpt>
      <trkpt lat="44.42215" lon="6.68637">
        <ele>1809.3</ele>
        <time>2021-08-28T13:48:39Z</time>
      </trkpt>
      <trkpt lat="44.42212" lon="6.68635">
        <ele>1808.8</ele>
        <time>2021-08-28T13:48:43Z</time>
      </trkpt>
      <trkpt lat="44.42209" lon="6.68635">
        <ele>1807.7</ele>
        <time>2021-08-28T13:48:47Z</time>
      </trkpt>
      <trkpt lat="44.42206" lon="6.68633">
        <ele>1807.1</ele>
        <time>2021-08-28T13:48:51Z</time>
      </trkpt>
      <trkpt lat="44.42204" lon="6.68629">
        <ele>1807.5</ele>
        <time>2021-08-28T13:48:55Z</time>
      </trkpt>
      <trkpt lat="44.42205" lon="6.68625">
        <ele>1809</ele>
        <time>2021-08-28T13:49:03Z</time>
      </trkpt>
      <trkpt lat="44.42205" lon="6.68618">
        <ele>1810.9</ele>
        <time>2021-08-28T13:49:07Z</time>
      </trkpt>
      <trkpt lat="44.42206" lon="6.68613">
        <ele>1812.7</ele>
        <time>2021-08-28T13:49:11Z</time>
      </trkpt>
      <trkpt lat="44.4222" lon="6.68585">
        <ele>1826.3</ele>
        <time>2021-08-28T13:58:23Z</time>
      </trkpt>
      <trkpt lat="44.42215" lon="6.68584">
        <ele>1824.5</ele>
        <time>2021-08-28T13:58:27Z</time>
      </trkpt>
      <trkpt lat="44.42202" lon="6.68582">
        <ele>1819.7</ele>
        <time>2021-08-28T13:58:31Z</time>
      </trkpt>
      <trkpt lat="44.42189" lon="6.68564">
        <ele>1817.1</ele>
        <time>2021-08-28T13:58:35Z</time>
      </trkpt>
      <trkpt lat="44.42177" lon="6.68536">
        <ele>1814.7</ele>
        <time>2021-08-28T13:58:39Z</time>
      </trkpt>
      <trkpt lat="44.4217" lon="6.685">
        <ele>1814.2</ele>
        <time>2021-08-28T13:58:43Z</time>
      </trkpt>
      <trkpt lat="44.42165" lon="6.68458">
        <ele>1822.4</ele>
        <time>2021-08-28T13:58:47Z</time>
      </trkpt>
      <trkpt lat="44.42164" lon="6.68414">
        <ele>1833.9</ele>
        <time>2021-08-28T13:58:51Z</time>
      </trkpt>
      <trkpt lat="44.42161" lon="6.68379">
        <ele>1843.1</ele>
        <time>2021-08-28T13:58:55Z</time>
      </trkpt>
      <trkpt lat="44.42166" lon="6.68357">
        <ele>1851</ele>
        <time>2021-08-28T13:58:59Z</time>
      </trkpt>
      <trkpt lat="44.42164" lon="6.68337">
        <ele>1856.1</ele>
        <time>2021-08-28T13:59:03Z</time>
      </trkpt>
      <trkpt lat="44.42155" lon="6.68333">
        <ele>1854.6</ele>
        <time>2021-08-28T13:59:07Z</time>
      </trkpt>
      <trkpt lat="44.42143" lon="6.68338">
        <ele>1849.5</ele>
        <time>2021-08-28T13:59:11Z</time>
      </trkpt>
      <trkpt lat="44.42128" lon="6.68348">
        <ele>1842</ele>
        <time>2021-08-28T13:59:15Z</time>
      </trkpt>
      <trkpt lat="44.42115" lon="6.6836">
        <ele>1834.4</ele>
        <time>2021-08-28T13:59:19Z</time>
      </trkpt>
      <trkpt lat="44.42106" lon="6.68371">
        <ele>1828.3</ele>
        <time>2021-08-28T13:59:23Z</time>
      </trkpt>
      <trkpt lat="44.4209" lon="6.68398">
        <ele>1814.9</ele>
        <time>2021-08-28T13:59:39Z</time>
      </trkpt>
      <trkpt lat="44.42087" lon="6.68406">
        <ele>1811.5</ele>
        <time>2021-08-28T13:59:43Z</time>
      </trkpt>
      <trkpt lat="44.42084" lon="6.68412">
        <ele>1808.7</ele>
        <time>2021-08-28T13:59:47Z</time>
      </trkpt>
      <trkpt lat="44.42077" lon="6.68421">
        <ele>1803.8</ele>
        <time>2021-08-28T13:59:51Z</time>
      </trkpt>
      <trkpt lat="44.42078" lon="6.68419">
        <ele>1804.8</ele>
        <time>2021-08-28T13:59:55Z</time>
      </trkpt>
      <trkpt lat="44.42062" lon="6.68412">
        <ele>1803.5</ele>
        <time>2021-08-28T13:59:59Z</time>
      </trkpt>
      <trkpt lat="44.4204" lon="6.68397">
        <ele>1802.6</ele>
        <time>2021-08-28T14:00:03Z</time>
      </trkpt>
      <trkpt lat="44.42012" lon="6.68378">
        <ele>1800.8</ele>
        <time>2021-08-28T14:00:07Z</time>
      </trkpt>
      <trkpt lat="44.4198" lon="6.68363">
        <ele>1797.9</ele>
        <time>2021-08-28T14:00:11Z</time>
      </trkpt>
      <trkpt lat="44.41954" lon="6.6837">
        <ele>1791</ele>
        <time>2021-08-28T14:00:15Z</time>
      </trkpt>
      <trkpt lat="44.41922" lon="6.68362">
        <ele>1787.9</ele>
        <time>2021-08-28T14:00:19Z</time>
      </trkpt>
      <trkpt lat="44.41887" lon="6.68338">
        <ele>1788.1</ele>
        <time>2021-08-28T14:00:23Z</time>
      </trkpt>
      <trkpt lat="44.41849" lon="6.68314">
        <ele>1787.7</ele>
        <time>2021-08-28T14:00:27Z</time>
      </trkpt>
      <trkpt lat="44.41807" lon="6.68308">
        <ele>1780.9</ele>
        <time>2021-08-28T14:00:31Z</time>
      </trkpt>
      <trkpt lat="44.41768" lon="6.68295">
        <ele>1779</ele>
        <time>2021-08-28T14:00:35Z</time>
      </trkpt>
      <trkpt lat="44.41733" lon="6.68288">
        <ele>1778.3</ele>
        <time>2021-08-28T14:00:39Z</time>
      </trkpt>
      <trkpt lat="44.41696" lon="6.68294">
        <ele>1775.4</ele>
        <time>2021-08-28T14:00:43Z</time>
      </trkpt>
      <trkpt lat="44.41657" lon="6.68302">
        <ele>1772</ele>
        <time>2021-08-28T14:00:47Z</time>
      </trkpt>
      <trkpt lat="44.41616" lon="6.68301">
        <ele>1772.3</ele>
        <time>2021-08-28T14:00:51Z</time>
      </trkpt>
      <trkpt lat="44.41579" lon="6.68301">
        <ele>1771.8</ele>
        <time>2021-08-28T14:00:55Z</time>
      </trkpt>
      <trkpt lat="44.4155" lon="6.68289">
        <ele>1772.4</ele>
        <time>2021-08-28T14:00:59Z</time>
      </trkpt>
      <trkpt lat="44.41522" lon="6.68289">
        <ele>1769</ele>
        <time>2021-08-28T14:01:03Z</time>
      </trkpt>
      <trkpt lat="44.41496" lon="6.68284">
        <ele>1767</ele>
        <time>2021-08-28T14:01:07Z</time>
      </trkpt>
      <trkpt lat="44.41476" lon="6.68275">
        <ele>1765.6</ele>
        <time>2021-08-28T14:01:11Z</time>
      </trkpt>
      <trkpt lat="44.41461" lon="6.68261">
        <ele>1767</ele>
        <time>2021-08-28T14:01:15Z</time>
      </trkpt>
      <trkpt lat="44.41442" lon="6.68253">
        <ele>1765.9</ele>
        <time>2021-08-28T14:01:19Z</time>
      </trkpt>
      <trkpt lat="44.41425" lon="6.68244">
        <ele>1764.9</ele>
        <time>2021-08-28T14:01:23Z</time>
      </trkpt>
      <trkpt lat="44.41408" lon="6.68228">
        <ele>1765</ele>
        <time>2021-08-28T14:01:27Z</time>
      </trkpt>
      <trkpt lat="44.41391" lon="6.68208">
        <ele>1766</ele>
        <time>2021-08-28T14:01:31Z</time>
      </trkpt>
      <trkpt lat="44.41373" lon="6.68188">
        <ele>1766.9</ele>
        <time>2021-08-28T14:01:35Z</time>
      </trkpt>
      <trkpt lat="44.41362" lon="6.68171">
        <ele>1768.5</ele>
        <time>2021-08-28T14:01:39Z</time>
      </trkpt>
      <trkpt lat="44.41347" lon="6.68163">
        <ele>1766.9</ele>
        <time>2021-08-28T14:01:43Z</time>
      </trkpt>
      <trkpt lat="44.41344" lon="6.68155">
        <ele>1766.9</ele>
        <time>2021-08-28T14:01:47Z</time>
      </trkpt>
      <trkpt lat="44.4134" lon="6.68143">
        <ele>1766.9</ele>
        <time>2021-08-28T14:02:39Z</time>
      </trkpt>
      <trkpt lat="44.41339" lon="6.68146">
        <ele>1766.4</ele>
        <time>2021-08-28T14:02:55Z</time>
      </trkpt>
      <trkpt lat="44.41335" lon="6.68148">
        <ele>1765.5</ele>
        <time>2021-08-28T14:02:59Z</time>
      </trkpt>
      <trkpt lat="44.4132" lon="6.68147">
        <ele>1764.1</ele>
        <time>2021-08-28T14:03:03Z</time>
      </trkpt>
      <trkpt lat="44.41302" lon="6.68153">
        <ele>1762.8</ele>
        <time>2021-08-28T14:03:07Z</time>
      </trkpt>
      <trkpt lat="44.41287" lon="6.68166">
        <ele>1762.3</ele>
        <time>2021-08-28T14:03:11Z</time>
      </trkpt>
      <trkpt lat="44.41289" lon="6.68173">
        <ele>1761.1</ele>
        <time>2021-08-28T14:03:15Z</time>
      </trkpt>
      <trkpt lat="44.4131" lon="6.68184">
        <ele>1759.4</ele>
        <time>2021-08-28T14:03:19Z</time>
      </trkpt>
      <trkpt lat="44.41341" lon="6.6821">
        <ele>1755.6</ele>
        <time>2021-08-28T14:03:23Z</time>
      </trkpt>
      <trkpt lat="44.41344" lon="6.68228">
        <ele>1752.2</ele>
        <time>2021-08-28T14:03:27Z</time>
      </trkpt>
      <trkpt lat="44.41317" lon="6.68233">
        <ele>1748.9</ele>
        <time>2021-08-28T14:03:31Z</time>
      </trkpt>
      <trkpt lat="44.41285" lon="6.68249">
        <ele>1745.8</ele>
        <time>2021-08-28T14:03:35Z</time>
      </trkpt>
      <trkpt lat="44.41249" lon="6.68277">
        <ele>1737.3</ele>
        <time>2021-08-28T14:03:39Z</time>
      </trkpt>
      <trkpt lat="44.41217" lon="6.6831">
        <ele>1729</ele>
        <time>2021-08-28T14:03:43Z</time>
      </trkpt>
      <trkpt lat="44.4121" lon="6.68341">
        <ele>1721.4</ele>
        <time>2021-08-28T14:03:47Z</time>
      </trkpt>
      <trkpt lat="44.4121" lon="6.6835">
        <ele>1718.6</ele>
        <time>2021-08-28T14:03:51Z</time>
      </trkpt>
      <trkpt lat="44.41221" lon="6.68339">
        <ele>1720.7</ele>
        <time>2021-08-28T14:03:55Z</time>
      </trkpt>
      <trkpt lat="44.41232" lon="6.68344">
        <ele>1717.9</ele>
        <time>2021-08-28T14:03:59Z</time>
      </trkpt>
      <trkpt lat="44.41228" lon="6.68371">
        <ele>1710.1</ele>
        <time>2021-08-28T14:04:03Z</time>
      </trkpt>
      <trkpt lat="44.41217" lon="6.68388">
        <ele>1706</ele>
        <time>2021-08-28T14:04:07Z</time>
      </trkpt>
      <trkpt lat="44.41209" lon="6.68397">
        <ele>1704.1</ele>
        <time>2021-08-28T14:04:11Z</time>
      </trkpt>
      <trkpt lat="44.41197" lon="6.68403">
        <ele>1703.4</ele>
        <time>2021-08-28T14:04:15Z</time>
      </trkpt>
      <trkpt lat="44.41202" lon="6.6841">
        <ele>1700.7</ele>
        <time>2021-08-28T14:04:19Z</time>
      </trkpt>
      <trkpt lat="44.41217" lon="6.68414">
        <ele>1698</ele>
        <time>2021-08-28T14:04:23Z</time>
      </trkpt>
      <trkpt lat="44.41209" lon="6.68427">
        <ele>1693.9</ele>
        <time>2021-08-28T14:04:27Z</time>
      </trkpt>
      <trkpt lat="44.41194" lon="6.68432">
        <ele>1693.4</ele>
        <time>2021-08-28T14:04:31Z</time>
      </trkpt>
      <trkpt lat="44.412" lon="6.68442">
        <ele>1688.9</ele>
        <time>2021-08-28T14:04:35Z</time>
      </trkpt>
      <trkpt lat="44.41216" lon="6.68457">
        <ele>1681.6</ele>
        <time>2021-08-28T14:04:39Z</time>
      </trkpt>
      <trkpt lat="44.41199" lon="6.68466">
        <ele>1679.6</ele>
        <time>2021-08-28T14:04:43Z</time>
      </trkpt>
      <trkpt lat="44.41172" lon="6.68467">
        <ele>1681.6</ele>
        <time>2021-08-28T14:04:47Z</time>
      </trkpt>
      <trkpt lat="44.41172" lon="6.68475">
        <ele>1678.4</ele>
        <time>2021-08-28T14:04:51Z</time>
      </trkpt>
      <trkpt lat="44.41191" lon="6.6849">
        <ele>1670.9</ele>
        <time>2021-08-28T14:04:55Z</time>
      </trkpt>
      <trkpt lat="44.41202" lon="6.68511">
        <ele>1663.3</ele>
        <time>2021-08-28T14:04:59Z</time>
      </trkpt>
      <trkpt lat="44.4119" lon="6.68554">
        <ele>1652.8</ele>
        <time>2021-08-28T14:05:07Z</time>
      </trkpt>
      <trkpt lat="44.41168" lon="6.68562">
        <ele>1650.4</ele>
        <time>2021-08-28T14:05:11Z</time>
      </trkpt>
      <trkpt lat="44.41144" lon="6.68553">
        <ele>1647</ele>
        <time>2021-08-28T14:05:15Z</time>
      </trkpt>
      <trkpt lat="44.4114" lon="6.68564">
        <ele>1642.7</ele>
        <time>2021-08-28T14:05:19Z</time>
      </trkpt>
      <trkpt lat="44.41152" lon="6.68584">
        <ele>1639.9</ele>
        <time>2021-08-28T14:05:23Z</time>
      </trkpt>
      <trkpt lat="44.4116" lon="6.68607">
        <ele>1634.9</ele>
        <time>2021-08-28T14:05:27Z</time>
      </trkpt>
      <trkpt lat="44.41142" lon="6.68609">
        <ele>1629.8</ele>
        <time>2021-08-28T14:05:31Z</time>
      </trkpt>
      <trkpt lat="44.41125" lon="6.68603">
        <ele>1627.3</ele>
        <time>2021-08-28T14:05:35Z</time>
      </trkpt>
      <trkpt lat="44.41103" lon="6.68601">
        <ele>1622.3</ele>
        <time>2021-08-28T14:05:39Z</time>
      </trkpt>
      <trkpt lat="44.41091" lon="6.68601">
        <ele>1619.3</ele>
        <time>2021-08-28T14:05:43Z</time>
      </trkpt>
      <trkpt lat="44.41095" lon="6.6861">
        <ele>1617.9</ele>
        <time>2021-08-28T14:05:47Z</time>
      </trkpt>
      <trkpt lat="44.41092" lon="6.68624">
        <ele>1613.3</ele>
        <time>2021-08-28T14:05:51Z</time>
      </trkpt>
      <trkpt lat="44.41101" lon="6.68641">
        <ele>1610.9</ele>
        <time>2021-08-28T14:05:55Z</time>
      </trkpt>
      <trkpt lat="44.41106" lon="6.68658">
        <ele>1607.3</ele>
        <time>2021-08-28T14:05:59Z</time>
      </trkpt>
      <trkpt lat="44.41098" lon="6.68663">
        <ele>1604.2</ele>
        <time>2021-08-28T14:06:03Z</time>
      </trkpt>
      <trkpt lat="44.41093" lon="6.6867">
        <ele>1601.3</ele>
        <time>2021-08-28T14:06:19Z</time>
      </trkpt>
      <trkpt lat="44.4109" lon="6.68675">
        <ele>1599.3</ele>
        <time>2021-08-28T14:06:31Z</time>
      </trkpt>
      <trkpt lat="44.41097" lon="6.68691">
        <ele>1596.9</ele>
        <time>2021-08-28T14:06:35Z</time>
      </trkpt>
      <trkpt lat="44.41108" lon="6.6871">
        <ele>1594.6</ele>
        <time>2021-08-28T14:06:39Z</time>
      </trkpt>
      <trkpt lat="44.4112" lon="6.68724">
        <ele>1593.8</ele>
        <time>2021-08-28T14:06:43Z</time>
      </trkpt>
      <trkpt lat="44.41122" lon="6.68739">
        <ele>1590.5</ele>
        <time>2021-08-28T14:06:55Z</time>
      </trkpt>
      <trkpt lat="44.41116" lon="6.68741">
        <ele>1588.7</ele>
        <time>2021-08-28T14:06:59Z</time>
      </trkpt>
      <trkpt lat="44.41101" lon="6.68738">
        <ele>1586</ele>
        <time>2021-08-28T14:07:03Z</time>
      </trkpt>
      <trkpt lat="44.41086" lon="6.68727">
        <ele>1585.4</ele>
        <time>2021-08-28T14:07:07Z</time>
      </trkpt>
      <trkpt lat="44.41074" lon="6.68716">
        <ele>1583.4</ele>
        <time>2021-08-28T14:07:11Z</time>
      </trkpt>
      <trkpt lat="44.41062" lon="6.68715">
        <ele>1578.2</ele>
        <time>2021-08-28T14:07:15Z</time>
      </trkpt>
      <trkpt lat="44.41042" lon="6.68701">
        <ele>1572.8</ele>
        <time>2021-08-28T14:07:19Z</time>
      </trkpt>
      <trkpt lat="44.41022" lon="6.68687">
        <ele>1567.5</ele>
        <time>2021-08-28T14:07:23Z</time>
      </trkpt>
      <trkpt lat="44.41004" lon="6.68666">
        <ele>1564.9</ele>
        <time>2021-08-28T14:07:27Z</time>
      </trkpt>
      <trkpt lat="44.40989" lon="6.68634">
        <ele>1565</ele>
        <time>2021-08-28T14:07:31Z</time>
      </trkpt>
      <trkpt lat="44.40983" lon="6.68633">
        <ele>1562.4</ele>
        <time>2021-08-28T14:07:35Z</time>
      </trkpt>
      <trkpt lat="44.40986" lon="6.68659">
        <ele>1558.1</ele>
        <time>2021-08-28T14:07:39Z</time>
      </trkpt>
      <trkpt lat="44.40989" lon="6.68667">
        <ele>1557.8</ele>
        <time>2021-08-28T14:07:43Z</time>
      </trkpt>
      <trkpt lat="44.40989" lon="6.68672">
        <ele>1556.5</ele>
        <time>2021-08-28T14:07:47Z</time>
      </trkpt>
      <trkpt lat="44.40993" lon="6.68678">
        <ele>1556.8</ele>
        <time>2021-08-28T14:07:51Z</time>
      </trkpt>
      <trkpt lat="44.41" lon="6.68685">
        <ele>1558.2</ele>
        <time>2021-08-28T14:07:55Z</time>
      </trkpt>
      <trkpt lat="44.41005" lon="6.68694">
        <ele>1558</ele>
        <time>2021-08-28T14:07:59Z</time>
      </trkpt>
      <trkpt lat="44.41014" lon="6.68706">
        <ele>1558.9</ele>
        <time>2021-08-28T14:08:03Z</time>
      </trkpt>
      <trkpt lat="44.41018" lon="6.68723">
        <ele>1556.3</ele>
        <time>2021-08-28T14:08:07Z</time>
      </trkpt>
      <trkpt lat="44.41039" lon="6.68741">
        <ele>1561.1</ele>
        <time>2021-08-28T14:08:11Z</time>
      </trkpt>
      <trkpt lat="44.4105" lon="6.68762">
        <ele>1558.2</ele>
        <time>2021-08-28T14:08:15Z</time>
      </trkpt>
      <trkpt lat="44.41053" lon="6.68776">
        <ele>1552.9</ele>
        <time>2021-08-28T14:08:19Z</time>
      </trkpt>
      <trkpt lat="44.41042" lon="6.68774">
        <ele>1549.3</ele>
        <time>2021-08-28T14:08:23Z</time>
      </trkpt>
      <trkpt lat="44.41031" lon="6.68774">
        <ele>1544.8</ele>
        <time>2021-08-28T14:08:27Z</time>
      </trkpt>
      <trkpt lat="44.4102" lon="6.68769">
        <ele>1542.3</ele>
        <time>2021-08-28T14:08:31Z</time>
      </trkpt>
      <trkpt lat="44.41006" lon="6.68769">
        <ele>1536.5</ele>
        <time>2021-08-28T14:08:35Z</time>
      </trkpt>
      <trkpt lat="44.40996" lon="6.68761">
        <ele>1535.4</ele>
        <time>2021-08-28T14:08:39Z</time>
      </trkpt>
      <trkpt lat="44.40983" lon="6.68753">
        <ele>1533.1</ele>
        <time>2021-08-28T14:08:43Z</time>
      </trkpt>
      <trkpt lat="44.40975" lon="6.68753">
        <ele>1529.8</ele>
        <time>2021-08-28T14:08:47Z</time>
      </trkpt>
      <trkpt lat="44.4098" lon="6.68769">
        <ele>1526.5</ele>
        <time>2021-08-28T14:08:51Z</time>
      </trkpt>
      <trkpt lat="44.40985" lon="6.68786">
        <ele>1522.6</ele>
        <time>2021-08-28T14:08:55Z</time>
      </trkpt>
      <trkpt lat="44.40981" lon="6.68782">
        <ele>1522.6</ele>
        <time>2021-08-28T14:08:59Z</time>
      </trkpt>
      <trkpt lat="44.40966" lon="6.68781">
        <ele>1517.7</ele>
        <time>2021-08-28T14:09:03Z</time>
      </trkpt>
      <trkpt lat="44.40946" lon="6.6878">
        <ele>1511.1</ele>
        <time>2021-08-28T14:09:07Z</time>
      </trkpt>
      <trkpt lat="44.40949" lon="6.688">
        <ele>1506.7</ele>
        <time>2021-08-28T14:09:11Z</time>
      </trkpt>
      <trkpt lat="44.40958" lon="6.68827">
        <ele>1501.7</ele>
        <time>2021-08-28T14:09:15Z</time>
      </trkpt>
      <trkpt lat="44.4095" lon="6.68833">
        <ele>1498.1</ele>
        <time>2021-08-28T14:09:19Z</time>
      </trkpt>
      <trkpt lat="44.40938" lon="6.68835">
        <ele>1494.5</ele>
        <time>2021-08-28T14:09:23Z</time>
      </trkpt>
      <trkpt lat="44.40917" lon="6.68827">
        <ele>1491.4</ele>
        <time>2021-08-28T14:09:27Z</time>
      </trkpt>
      <trkpt lat="44.40907" lon="6.68828">
        <ele>1487.4</ele>
        <time>2021-08-28T14:09:31Z</time>
      </trkpt>
      <trkpt lat="44.40915" lon="6.68836">
        <ele>1488.5</ele>
        <time>2021-08-28T14:09:35Z</time>
      </trkpt>
      <trkpt lat="44.40922" lon="6.68852">
        <ele>1484.9</ele>
        <time>2021-08-28T14:09:39Z</time>
      </trkpt>
      <trkpt lat="44.40916" lon="6.68856">
        <ele>1482.2</ele>
        <time>2021-08-28T14:09:43Z</time>
      </trkpt>
      <trkpt lat="44.40903" lon="6.68848">
        <ele>1480.1</ele>
        <time>2021-08-28T14:09:47Z</time>
      </trkpt>
      <trkpt lat="44.40889" lon="6.68842">
        <ele>1476.8</ele>
        <time>2021-08-28T14:09:51Z</time>
      </trkpt>
      <trkpt lat="44.40879" lon="6.68836">
        <ele>1474.8</ele>
        <time>2021-08-28T14:09:55Z</time>
      </trkpt>
      <trkpt lat="44.40866" lon="6.68832">
        <ele>1470.8</ele>
        <time>2021-08-28T14:09:59Z</time>
      </trkpt>
      <trkpt lat="44.40852" lon="6.68819">
        <ele>1467.7</ele>
        <time>2021-08-28T14:10:03Z</time>
      </trkpt>
      <trkpt lat="44.40839" lon="6.68819">
        <ele>1462.6</ele>
        <time>2021-08-28T14:10:07Z</time>
      </trkpt>
      <trkpt lat="44.40838" lon="6.68825">
        <ele>1461.2</ele>
        <time>2021-08-28T14:10:11Z</time>
      </trkpt>
      <trkpt lat="44.40825" lon="6.68828">
        <ele>1455.3</ele>
        <time>2021-08-28T14:10:15Z</time>
      </trkpt>
      <trkpt lat="44.40823" lon="6.68833">
        <ele>1453.6</ele>
        <time>2021-08-28T14:10:19Z</time>
      </trkpt>
      <trkpt lat="44.40828" lon="6.68839">
        <ele>1454.5</ele>
        <time>2021-08-28T14:10:23Z</time>
      </trkpt>
      <trkpt lat="44.40839" lon="6.68847">
        <ele>1457.3</ele>
        <time>2021-08-28T14:10:27Z</time>
      </trkpt>
      <trkpt lat="44.40844" lon="6.68859">
        <ele>1456.4</ele>
        <time>2021-08-28T14:10:31Z</time>
      </trkpt>
      <trkpt lat="44.40852" lon="6.6887">
        <ele>1456.6</ele>
        <time>2021-08-28T14:10:35Z</time>
      </trkpt>
      <trkpt lat="44.4086" lon="6.68883">
        <ele>1456</ele>
        <time>2021-08-28T14:10:39Z</time>
      </trkpt>
      <trkpt lat="44.40872" lon="6.68898">
        <ele>1455.7</ele>
        <time>2021-08-28T14:10:43Z</time>
      </trkpt>
      <trkpt lat="44.4088" lon="6.6891">
        <ele>1454.6</ele>
        <time>2021-08-28T14:10:47Z</time>
      </trkpt>
      <trkpt lat="44.40893" lon="6.68915">
        <ele>1456.5</ele>
        <time>2021-08-28T14:10:51Z</time>
      </trkpt>
      <trkpt lat="44.40909" lon="6.68924">
        <ele>1458.1</ele>
        <time>2021-08-28T14:10:55Z</time>
      </trkpt>
      <trkpt lat="44.40914" lon="6.68933">
        <ele>1457</ele>
        <time>2021-08-28T14:10:59Z</time>
      </trkpt>
      <trkpt lat="44.40914" lon="6.68945">
        <ele>1453.8</ele>
        <time>2021-08-28T14:11:03Z</time>
      </trkpt>
      <trkpt lat="44.40911" lon="6.68975">
        <ele>1445</ele>
        <time>2021-08-28T14:11:07Z</time>
      </trkpt>
      <trkpt lat="44.40918" lon="6.68994">
        <ele>1441.6</ele>
        <time>2021-08-28T14:11:11Z</time>
      </trkpt>
      <trkpt lat="44.40934" lon="6.68995">
        <ele>1441.4</ele>
        <time>2021-08-28T14:11:15Z</time>
      </trkpt>
      <trkpt lat="44.40924" lon="6.69004">
        <ele>1438.9</ele>
        <time>2021-08-28T14:11:19Z</time>
      </trkpt>
      <trkpt lat="44.40906" lon="6.69029">
        <ele>1428.6</ele>
        <time>2021-08-28T14:11:23Z</time>
      </trkpt>
      <trkpt lat="44.40904" lon="6.69056">
        <ele>1420.1</ele>
        <time>2021-08-28T14:11:27Z</time>
      </trkpt>
      <trkpt lat="44.40899" lon="6.69076">
        <ele>1412.4</ele>
        <time>2021-08-28T14:11:43Z</time>
      </trkpt>
      <trkpt lat="44.409" lon="6.69078">
        <ele>1412.2</ele>
        <time>2021-08-28T14:11:51Z</time>
      </trkpt>
      <trkpt lat="44.40901" lon="6.69083">
        <ele>1411.1</ele>
        <time>2021-08-28T14:12:23Z</time>
      </trkpt>
      <trkpt lat="44.40904" lon="6.69092">
        <ele>1408.9</ele>
        <time>2021-08-28T14:12:27Z</time>
      </trkpt>
      <trkpt lat="44.40909" lon="6.69105">
        <ele>1406</ele>
        <time>2021-08-28T14:12:31Z</time>
      </trkpt>
      <trkpt lat="44.40917" lon="6.69104">
        <ele>1409.3</ele>
        <time>2021-08-28T14:12:35Z</time>
      </trkpt>
      <trkpt lat="44.40923" lon="6.69088">
        <ele>1414.5</ele>
        <time>2021-08-28T14:12:39Z</time>
      </trkpt>
      <trkpt lat="44.40926" lon="6.69093">
        <ele>1412.4</ele>
        <time>2021-08-28T14:12:43Z</time>
      </trkpt>
      <trkpt lat="44.40929" lon="6.69109">
        <ele>1406.3</ele>
        <time>2021-08-28T14:12:47Z</time>
      </trkpt>
      <trkpt lat="44.40928" lon="6.69128">
        <ele>1399.6</ele>
        <time>2021-08-28T14:12:51Z</time>
      </trkpt>
      <trkpt lat="44.40937" lon="6.69124">
        <ele>1400.4</ele>
        <time>2021-08-28T14:12:55Z</time>
      </trkpt>
      <trkpt lat="44.40957" lon="6.69105">
        <ele>1405.1</ele>
        <time>2021-08-28T14:12:59Z</time>
      </trkpt>
      <trkpt lat="44.40964" lon="6.69105">
        <ele>1404.4</ele>
        <time>2021-08-28T14:13:03Z</time>
      </trkpt>
      <trkpt lat="44.40962" lon="6.69119">
        <ele>1400.2</ele>
        <time>2021-08-28T14:13:07Z</time>
      </trkpt>
      <trkpt lat="44.40962" lon="6.69137">
        <ele>1394.4</ele>
        <time>2021-08-28T14:13:11Z</time>
      </trkpt>
      <trkpt lat="44.40973" lon="6.69146">
        <ele>1391</ele>
        <time>2021-08-28T14:13:15Z</time>
      </trkpt>
      <trkpt lat="44.40982" lon="6.69161">
        <ele>1386.1</ele>
        <time>2021-08-28T14:13:19Z</time>
      </trkpt>
      <trkpt lat="44.40988" lon="6.69177">
        <ele>1380.1</ele>
        <time>2021-08-28T14:13:23Z</time>
      </trkpt>
      <trkpt lat="44.40998" lon="6.69181">
        <ele>1378.6</ele>
        <time>2021-08-28T14:13:27Z</time>
      </trkpt>
      <trkpt lat="44.41009" lon="6.69197">
        <ele>1373.8</ele>
        <time>2021-08-28T14:13:31Z</time>
      </trkpt>
      <trkpt lat="44.41013" lon="6.69198">
        <ele>1374</ele>
        <time>2021-08-28T14:13:35Z</time>
      </trkpt>
      <trkpt lat="44.41017" lon="6.69207">
        <ele>1371.1</ele>
        <time>2021-08-28T14:13:39Z</time>
      </trkpt>
      <trkpt lat="44.4103" lon="6.69215">
        <ele>1369.8</ele>
        <time>2021-08-28T14:13:43Z</time>
      </trkpt>
      <trkpt lat="44.41034" lon="6.69216">
        <ele>1370</ele>
        <time>2021-08-28T14:13:47Z</time>
      </trkpt>
      <trkpt lat="44.4104" lon="6.69215">
        <ele>1371.1</ele>
        <time>2021-08-28T14:13:51Z</time>
      </trkpt>
      <trkpt lat="44.41048" lon="6.69223">
        <ele>1369.2</ele>
        <time>2021-08-28T14:13:55Z</time>
      </trkpt>
      <trkpt lat="44.41055" lon="6.69231">
        <ele>1367.2</ele>
        <time>2021-08-28T14:13:59Z</time>
      </trkpt>
      <trkpt lat="44.41058" lon="6.69245">
        <ele>1362.5</ele>
        <time>2021-08-28T14:14:03Z</time>
      </trkpt>
      <trkpt lat="44.41055" lon="6.69261">
        <ele>1357.7</ele>
        <time>2021-08-28T14:14:07Z</time>
      </trkpt>
      <trkpt lat="44.41054" lon="6.69275">
        <ele>1354.3</ele>
        <time>2021-08-28T14:14:11Z</time>
      </trkpt>
      <trkpt lat="44.41053" lon="6.69283">
        <ele>1352.3</ele>
        <time>2021-08-28T14:14:15Z</time>
      </trkpt>
      <trkpt lat="44.41039" lon="6.69296">
        <ele>1347</ele>
        <time>2021-08-28T14:14:19Z</time>
      </trkpt>
      <trkpt lat="44.41021" lon="6.69314">
        <ele>1339.7</ele>
        <time>2021-08-28T14:14:23Z</time>
      </trkpt>
      <trkpt lat="44.41003" lon="6.6932">
        <ele>1335</ele>
        <time>2021-08-28T14:14:27Z</time>
      </trkpt>
      <trkpt lat="44.40979" lon="6.69329">
        <ele>1327.2</ele>
        <time>2021-08-28T14:14:31Z</time>
      </trkpt>
      <trkpt lat="44.4095" lon="6.69337">
        <ele>1318.4</ele>
        <time>2021-08-28T14:14:35Z</time>
      </trkpt>
      <trkpt lat="44.40917" lon="6.69348">
        <ele>1308.8</ele>
        <time>2021-08-28T14:14:39Z</time>
      </trkpt>
      <trkpt lat="44.40899" lon="6.69357">
        <ele>1305</ele>
        <time>2021-08-28T14:14:43Z</time>
      </trkpt>
      <trkpt lat="44.40887" lon="6.6937">
        <ele>1301</ele>
        <time>2021-08-28T14:14:47Z</time>
      </trkpt>
      <trkpt lat="44.40866" lon="6.69377">
        <ele>1296.5</ele>
        <time>2021-08-28T14:14:51Z</time>
      </trkpt>
      <trkpt lat="44.40844" lon="6.69387">
        <ele>1290.8</ele>
        <time>2021-08-28T14:14:55Z</time>
      </trkpt>
      <trkpt lat="44.40831" lon="6.694">
        <ele>1285.7</ele>
        <time>2021-08-28T14:14:59Z</time>
      </trkpt>
      <trkpt lat="44.40823" lon="6.6941">
        <ele>1282.4</ele>
        <time>2021-08-28T14:15:03Z</time>
      </trkpt>
      <trkpt lat="44.40805" lon="6.69415">
        <ele>1279.3</ele>
        <time>2021-08-28T14:15:39Z</time>
      </trkpt>
      <trkpt lat="44.40801" lon="6.69424">
        <ele>1278.9</ele>
        <time>2021-08-28T14:15:43Z</time>
      </trkpt>
      <trkpt lat="44.40791" lon="6.69434">
        <ele>1278.5</ele>
        <time>2021-08-28T14:15:47Z</time>
      </trkpt>
      <trkpt lat="44.40772" lon="6.69428">
        <ele>1276.1</ele>
        <time>2021-08-28T14:15:51Z</time>
      </trkpt>
      <trkpt lat="44.4074" lon="6.69431">
        <ele>1272.1</ele>
        <time>2021-08-28T14:15:55Z</time>
      </trkpt>
      <trkpt lat="44.40707" lon="6.69443">
        <ele>1266.4</ele>
        <time>2021-08-28T14:15:59Z</time>
      </trkpt>
      <trkpt lat="44.40691" lon="6.69477">
        <ele>1263.6</ele>
        <time>2021-08-28T14:16:03Z</time>
      </trkpt>
      <trkpt lat="44.40657" lon="6.69504">
        <ele>1257.1</ele>
        <time>2021-08-28T14:16:07Z</time>
      </trkpt>
      <trkpt lat="44.40625" lon="6.69534">
        <ele>1254.4</ele>
        <time>2021-08-28T14:16:11Z</time>
      </trkpt>
      <trkpt lat="44.40602" lon="6.69563">
        <ele>1250.7</ele>
        <time>2021-08-28T14:16:15Z</time>
      </trkpt>
      <trkpt lat="44.40576" lon="6.69591">
        <ele>1243.9</ele>
        <time>2021-08-28T14:16:19Z</time>
      </trkpt>
      <trkpt lat="44.40559" lon="6.69617">
        <ele>1238.6</ele>
        <time>2021-08-28T14:16:23Z</time>
      </trkpt>
      <trkpt lat="44.40551" lon="6.69628">
        <ele>1236.4</ele>
        <time>2021-08-28T14:16:27Z</time>
      </trkpt>
      <trkpt lat="44.40546" lon="6.69633">
        <ele>1235.3</ele>
        <time>2021-08-28T14:17:07Z</time>
      </trkpt>
      <trkpt lat="44.40541" lon="6.6964">
        <ele>1234</ele>
        <time>2021-08-28T14:17:11Z</time>
      </trkpt>
      <trkpt lat="44.40534" lon="6.69659">
        <ele>1231.6</ele>
        <time>2021-08-28T14:17:15Z</time>
      </trkpt>
      <trkpt lat="44.40519" lon="6.69685">
        <ele>1228</ele>
        <time>2021-08-28T14:17:19Z</time>
      </trkpt>
      <trkpt lat="44.40502" lon="6.69708">
        <ele>1225.6</ele>
        <time>2021-08-28T14:17:23Z</time>
      </trkpt>
      <trkpt lat="44.40496" lon="6.69738">
        <ele>1224.1</ele>
        <time>2021-08-28T14:17:27Z</time>
      </trkpt>
      <trkpt lat="44.40475" lon="6.69755">
        <ele>1222</ele>
        <time>2021-08-28T14:17:31Z</time>
      </trkpt>
      <trkpt lat="44.40458" lon="6.69787">
        <ele>1219.4</ele>
        <time>2021-08-28T14:17:35Z</time>
      </trkpt>
      <trkpt lat="44.40435" lon="6.69824">
        <ele>1217</ele>
        <time>2021-08-28T14:17:39Z</time>
      </trkpt>
      <trkpt lat="44.40412" lon="6.69864">
        <ele>1213.4</ele>
        <time>2021-08-28T14:17:43Z</time>
      </trkpt>
      <trkpt lat="44.40406" lon="6.69903">
        <ele>1210.4</ele>
        <time>2021-08-28T14:17:47Z</time>
      </trkpt>
      <trkpt lat="44.40401" lon="6.69943">
        <ele>1207.5</ele>
        <time>2021-08-28T14:17:51Z</time>
      </trkpt>
      <trkpt lat="44.40407" lon="6.69985">
        <ele>1204.8</ele>
        <time>2021-08-28T14:17:55Z</time>
      </trkpt>
      <trkpt lat="44.404" lon="6.70023">
        <ele>1201.8</ele>
        <time>2021-08-28T14:17:59Z</time>
      </trkpt>
      <trkpt lat="44.40366" lon="6.70046">
        <ele>1198.8</ele>
        <time>2021-08-28T14:18:03Z</time>
      </trkpt>
      <trkpt lat="44.40339" lon="6.70075">
        <ele>1195.1</ele>
        <time>2021-08-28T14:18:07Z</time>
      </trkpt>
      <trkpt lat="44.40326" lon="6.7012">
        <ele>1190.8</ele>
        <time>2021-08-28T14:18:11Z</time>
      </trkpt>
      <trkpt lat="44.40331" lon="6.70144">
        <ele>1188.9</ele>
        <time>2021-08-28T14:18:15Z</time>
      </trkpt>
      <trkpt lat="44.40349" lon="6.70158">
        <ele>1188.3</ele>
        <time>2021-08-28T14:18:19Z</time>
      </trkpt>
      <trkpt lat="44.40368" lon="6.70165">
        <ele>1188.4</ele>
        <time>2021-08-28T14:18:23Z</time>
      </trkpt>
      <trkpt lat="44.40375" lon="6.70177">
        <ele>1187.7</ele>
        <time>2021-08-28T14:18:27Z</time>
      </trkpt>
      <trkpt lat="44.4039" lon="6.70208">
        <ele>1185.7</ele>
        <time>2021-08-28T14:18:31Z</time>
      </trkpt>
      <trkpt lat="44.40404" lon="6.70244">
        <ele>1183.2</ele>
        <time>2021-08-28T14:18:35Z</time>
      </trkpt>
      <trkpt lat="44.40414" lon="6.70279">
        <ele>1182.3</ele>
        <time>2021-08-28T14:18:39Z</time>
      </trkpt>
      <trkpt lat="44.40422" lon="6.70312">
        <ele>1181.5</ele>
        <time>2021-08-28T14:18:43Z</time>
      </trkpt>
      <trkpt lat="44.40431" lon="6.70342">
        <ele>1181.2</ele>
        <time>2021-08-28T14:18:47Z</time>
      </trkpt>
      <trkpt lat="44.40438" lon="6.70373">
        <ele>1181.8</ele>
        <time>2021-08-28T14:18:51Z</time>
      </trkpt>
      <trkpt lat="44.40451" lon="6.70399">
        <ele>1182.3</ele>
        <time>2021-08-28T14:18:55Z</time>
      </trkpt>
      <trkpt lat="44.40454" lon="6.70424">
        <ele>1182.4</ele>
        <time>2021-08-28T14:18:59Z</time>
      </trkpt>
      <trkpt lat="44.40461" lon="6.7045">
        <ele>1181.7</ele>
        <time>2021-08-28T14:19:03Z</time>
      </trkpt>
      <trkpt lat="44.40472" lon="6.70471">
        <ele>1181</ele>
        <time>2021-08-28T14:19:07Z</time>
      </trkpt>
      <trkpt lat="44.40484" lon="6.70479">
        <ele>1180.7</ele>
        <time>2021-08-28T14:19:11Z</time>
      </trkpt>
      <trkpt lat="44.40496" lon="6.70486">
        <ele>1180.4</ele>
        <time>2021-08-28T14:19:15Z</time>
      </trkpt>
      <trkpt lat="44.40508" lon="6.70493">
        <ele>1180.6</ele>
        <time>2021-08-28T14:19:19Z</time>
      </trkpt>
      <trkpt lat="44.4052" lon="6.70502">
        <ele>1180.9</ele>
        <time>2021-08-28T14:19:23Z</time>
      </trkpt>
      <trkpt lat="44.40533" lon="6.70508">
        <ele>1181.4</ele>
        <time>2021-08-28T14:19:27Z</time>
      </trkpt>
      <trkpt lat="44.40544" lon="6.70515">
        <ele>1181.9</ele>
        <time>2021-08-28T14:19:31Z</time>
      </trkpt>
      <trkpt lat="44.40556" lon="6.70523">
        <ele>1182.4</ele>
        <time>2021-08-28T14:19:35Z</time>
      </trkpt>
      <trkpt lat="44.40566" lon="6.70531">
        <ele>1182.9</ele>
        <time>2021-08-28T14:19:39Z</time>
      </trkpt>
      <trkpt lat="44.40578" lon="6.70539">
        <ele>1183.7</ele>
        <time>2021-08-28T14:19:43Z</time>
      </trkpt>
      <trkpt lat="44.4059" lon="6.70547">
        <ele>1185</ele>
        <time>2021-08-28T14:19:47Z</time>
      </trkpt>
      <trkpt lat="44.40601" lon="6.70554">
        <ele>1186.5</ele>
        <time>2021-08-28T14:19:51Z</time>
      </trkpt>
      <trkpt lat="44.40609" lon="6.70562">
        <ele>1187.5</ele>
        <time>2021-08-28T14:19:55Z</time>
      </trkpt>
      <trkpt lat="44.40619" lon="6.70568">
        <ele>1188.7</ele>
        <time>2021-08-28T14:19:59Z</time>
      </trkpt>
      <trkpt lat="44.40628" lon="6.70574">
        <ele>1189.7</ele>
        <time>2021-08-28T14:20:03Z</time>
      </trkpt>
      <trkpt lat="44.40637" lon="6.70582">
        <ele>1190.5</ele>
        <time>2021-08-28T14:20:07Z</time>
      </trkpt>
      <trkpt lat="44.40645" lon="6.70591">
        <ele>1191.1</ele>
        <time>2021-08-28T14:20:11Z</time>
      </trkpt>
      <trkpt lat="44.40652" lon="6.70602">
        <ele>1191.3</ele>
        <time>2021-08-28T14:20:15Z</time>
      </trkpt>
      <trkpt lat="44.40658" lon="6.7061">
        <ele>1191.5</ele>
        <time>2021-08-28T14:20:19Z</time>
      </trkpt>
      <trkpt lat="44.40665" lon="6.70619">
        <ele>1191.7</ele>
        <time>2021-08-28T14:20:23Z</time>
      </trkpt>
      <trkpt lat="44.4067" lon="6.70628">
        <ele>1192.1</ele>
        <time>2021-08-28T14:20:27Z</time>
      </trkpt>
      <trkpt lat="44.40675" lon="6.7064">
        <ele>1192.5</ele>
        <time>2021-08-28T14:20:31Z</time>
      </trkpt>
      <trkpt lat="44.40682" lon="6.70651">
        <ele>1193.3</ele>
        <time>2021-08-28T14:20:35Z</time>
      </trkpt>
      <trkpt lat="44.4069" lon="6.7066">
        <ele>1194.3</ele>
        <time>2021-08-28T14:20:39Z</time>
      </trkpt>
      <trkpt lat="44.40698" lon="6.70666">
        <ele>1195.5</ele>
        <time>2021-08-28T14:20:43Z</time>
      </trkpt>
      <trkpt lat="44.40706" lon="6.70673">
        <ele>1197</ele>
        <time>2021-08-28T14:20:47Z</time>
      </trkpt>
      <trkpt lat="44.40715" lon="6.70679">
        <ele>1198.6</ele>
        <time>2021-08-28T14:20:51Z</time>
      </trkpt>
      <trkpt lat="44.40722" lon="6.70685">
        <ele>1199.8</ele>
        <time>2021-08-28T14:20:55Z</time>
      </trkpt>
      <trkpt lat="44.40729" lon="6.70692">
        <ele>1200.8</ele>
        <time>2021-08-28T14:20:59Z</time>
      </trkpt>
      <trkpt lat="44.40735" lon="6.70699">
        <ele>1201.6</ele>
        <time>2021-08-28T14:21:03Z</time>
      </trkpt>
      <trkpt lat="44.40741" lon="6.70707">
        <ele>1202.2</ele>
        <time>2021-08-28T14:21:07Z</time>
      </trkpt>
      <trkpt lat="44.40748" lon="6.70715">
        <ele>1202.8</ele>
        <time>2021-08-28T14:21:11Z</time>
      </trkpt>
      <trkpt lat="44.40755" lon="6.70722">
        <ele>1203.8</ele>
        <time>2021-08-28T14:21:15Z</time>
      </trkpt>
      <trkpt lat="44.40763" lon="6.70729">
        <ele>1205.2</ele>
        <time>2021-08-28T14:21:19Z</time>
      </trkpt>
      <trkpt lat="44.40768" lon="6.70736">
        <ele>1205.8</ele>
        <time>2021-08-28T14:21:23Z</time>
      </trkpt>
      <trkpt lat="44.40775" lon="6.70744">
        <ele>1206.8</ele>
        <time>2021-08-28T14:21:27Z</time>
      </trkpt>
      <trkpt lat="44.40782" lon="6.70751">
        <ele>1207.9</ele>
        <time>2021-08-28T14:21:31Z</time>
      </trkpt>
      <trkpt lat="44.40788" lon="6.70756">
        <ele>1209.1</ele>
        <time>2021-08-28T14:21:35Z</time>
      </trkpt>
      <trkpt lat="44.40794" lon="6.70763">
        <ele>1210.2</ele>
        <time>2021-08-28T14:21:39Z</time>
      </trkpt>
      <trkpt lat="44.40799" lon="6.70772">
        <ele>1210.9</ele>
        <time>2021-08-28T14:21:43Z</time>
      </trkpt>
      <trkpt lat="44.40805" lon="6.7078">
        <ele>1211.7</ele>
        <time>2021-08-28T14:21:47Z</time>
      </trkpt>
      <trkpt lat="44.40809" lon="6.7079">
        <ele>1212</ele>
        <time>2021-08-28T14:21:51Z</time>
      </trkpt>
      <trkpt lat="44.40814" lon="6.708">
        <ele>1212.3</ele>
        <time>2021-08-28T14:21:55Z</time>
      </trkpt>
      <trkpt lat="44.40818" lon="6.70809">
        <ele>1212.5</ele>
        <time>2021-08-28T14:21:59Z</time>
      </trkpt>
      <trkpt lat="44.40823" lon="6.70817">
        <ele>1212.7</ele>
        <time>2021-08-28T14:22:03Z</time>
      </trkpt>
      <trkpt lat="44.40827" lon="6.70823">
        <ele>1212.9</ele>
        <time>2021-08-28T14:22:07Z</time>
      </trkpt>
      <trkpt lat="44.40831" lon="6.70832">
        <ele>1212.8</ele>
        <time>2021-08-28T14:22:11Z</time>
      </trkpt>
      <trkpt lat="44.40835" lon="6.70842">
        <ele>1213.3</ele>
        <time>2021-08-28T14:22:15Z</time>
      </trkpt>
      <trkpt lat="44.40839" lon="6.70853">
        <ele>1214</ele>
        <time>2021-08-28T14:22:19Z</time>
      </trkpt>
      <trkpt lat="44.40844" lon="6.70864">
        <ele>1214.9</ele>
        <time>2021-08-28T14:22:23Z</time>
      </trkpt>
      <trkpt lat="44.4085" lon="6.70875">
        <ele>1215.9</ele>
        <time>2021-08-28T14:22:27Z</time>
      </trkpt>
      <trkpt lat="44.40855" lon="6.70886">
        <ele>1216.7</ele>
        <time>2021-08-28T14:22:31Z</time>
      </trkpt>
      <trkpt lat="44.40862" lon="6.70896">
        <ele>1217.7</ele>
        <time>2021-08-28T14:22:35Z</time>
      </trkpt>
      <trkpt lat="44.40868" lon="6.70905">
        <ele>1218.6</ele>
        <time>2021-08-28T14:22:39Z</time>
      </trkpt>
      <trkpt lat="44.40875" lon="6.70914">
        <ele>1219.5</ele>
        <time>2021-08-28T14:22:43Z</time>
      </trkpt>
      <trkpt lat="44.40881" lon="6.70923">
        <ele>1220.6</ele>
        <time>2021-08-28T14:22:47Z</time>
      </trkpt>
      <trkpt lat="44.40886" lon="6.70932">
        <ele>1221.6</ele>
        <time>2021-08-28T14:22:51Z</time>
      </trkpt>
      <trkpt lat="44.4089" lon="6.70943">
        <ele>1222.5</ele>
        <time>2021-08-28T14:22:55Z</time>
      </trkpt>
      <trkpt lat="44.40893" lon="6.70954">
        <ele>1223.1</ele>
        <time>2021-08-28T14:22:59Z</time>
      </trkpt>
      <trkpt lat="44.40897" lon="6.70965">
        <ele>1223.9</ele>
        <time>2021-08-28T14:23:03Z</time>
      </trkpt>
      <trkpt lat="44.409" lon="6.70976">
        <ele>1224.5</ele>
        <time>2021-08-28T14:23:07Z</time>
      </trkpt>
      <trkpt lat="44.40903" lon="6.70986">
        <ele>1225.1</ele>
        <time>2021-08-28T14:23:11Z</time>
      </trkpt>
      <trkpt lat="44.40905" lon="6.70997">
        <ele>1225.5</ele>
        <time>2021-08-28T14:23:15Z</time>
      </trkpt>
      <trkpt lat="44.40905" lon="6.71008">
        <ele>1225.7</ele>
        <time>2021-08-28T14:23:19Z</time>
      </trkpt>
      <trkpt lat="44.40905" lon="6.71019">
        <ele>1225.9</ele>
        <time>2021-08-28T14:23:23Z</time>
      </trkpt>
      <trkpt lat="44.40906" lon="6.71029">
        <ele>1226.1</ele>
        <time>2021-08-28T14:23:27Z</time>
      </trkpt>
      <trkpt lat="44.40908" lon="6.71039">
        <ele>1226.5</ele>
        <time>2021-08-28T14:23:31Z</time>
      </trkpt>
      <trkpt lat="44.40911" lon="6.71048">
        <ele>1226.9</ele>
        <time>2021-08-28T14:23:35Z</time>
      </trkpt>
      <trkpt lat="44.40915" lon="6.71056">
        <ele>1227.5</ele>
        <time>2021-08-28T14:23:39Z</time>
      </trkpt>
      <trkpt lat="44.40919" lon="6.71065">
        <ele>1228.3</ele>
        <time>2021-08-28T14:23:43Z</time>
      </trkpt>
      <trkpt lat="44.40925" lon="6.71073">
        <ele>1229.7</ele>
        <time>2021-08-28T14:23:47Z</time>
      </trkpt>
      <trkpt lat="44.40931" lon="6.71081">
        <ele>1230.9</ele>
        <time>2021-08-28T14:23:51Z</time>
      </trkpt>
      <trkpt lat="44.40937" lon="6.71088">
        <ele>1232.3</ele>
        <time>2021-08-28T14:23:55Z</time>
      </trkpt>
      <trkpt lat="44.40943" lon="6.71095">
        <ele>1233.6</ele>
        <time>2021-08-28T14:23:59Z</time>
      </trkpt>
      <trkpt lat="44.40951" lon="6.711">
        <ele>1235.2</ele>
        <time>2021-08-28T14:24:03Z</time>
      </trkpt>
      <trkpt lat="44.40959" lon="6.71104">
        <ele>1236.7</ele>
        <time>2021-08-28T14:24:07Z</time>
      </trkpt>
      <trkpt lat="44.40966" lon="6.7111">
        <ele>1238</ele>
        <time>2021-08-28T14:24:11Z</time>
      </trkpt>
      <trkpt lat="44.40972" lon="6.71118">
        <ele>1239</ele>
        <time>2021-08-28T14:24:15Z</time>
      </trkpt>
      <trkpt lat="44.40978" lon="6.71125">
        <ele>1239.9</ele>
        <time>2021-08-28T14:24:19Z</time>
      </trkpt>
      <trkpt lat="44.40983" lon="6.71135">
        <ele>1240.6</ele>
        <time>2021-08-28T14:24:23Z</time>
      </trkpt>
      <trkpt lat="44.40988" lon="6.71144">
        <ele>1241.1</ele>
        <time>2021-08-28T14:24:27Z</time>
      </trkpt>
      <trkpt lat="44.40994" lon="6.71153">
        <ele>1241.7</ele>
        <time>2021-08-28T14:24:32Z</time>
      </trkpt>
      <trkpt lat="44.40999" lon="6.71161">
        <ele>1242.1</ele>
        <time>2021-08-28T14:24:35Z</time>
      </trkpt>
      <trkpt lat="44.41004" lon="6.71169">
        <ele>1242.8</ele>
        <time>2021-08-28T14:24:39Z</time>
      </trkpt>
      <trkpt lat="44.41009" lon="6.71178">
        <ele>1243.6</ele>
        <time>2021-08-28T14:24:43Z</time>
      </trkpt>
      <trkpt lat="44.41015" lon="6.71186">
        <ele>1244.6</ele>
        <time>2021-08-28T14:24:47Z</time>
      </trkpt>
      <trkpt lat="44.41021" lon="6.71194">
        <ele>1245.5</ele>
        <time>2021-08-28T14:24:51Z</time>
      </trkpt>
      <trkpt lat="44.41024" lon="6.71202">
        <ele>1245.9</ele>
        <time>2021-08-28T14:24:55Z</time>
      </trkpt>
      <trkpt lat="44.41028" lon="6.7121">
        <ele>1246.3</ele>
        <time>2021-08-28T14:24:59Z</time>
      </trkpt>
      <trkpt lat="44.41033" lon="6.71218">
        <ele>1246.9</ele>
        <time>2021-08-28T14:25:03Z</time>
      </trkpt>
      <trkpt lat="44.41038" lon="6.71227">
        <ele>1247.4</ele>
        <time>2021-08-28T14:25:07Z</time>
      </trkpt>
      <trkpt lat="44.41042" lon="6.71236">
        <ele>1247.6</ele>
        <time>2021-08-28T14:25:11Z</time>
      </trkpt>
      <trkpt lat="44.41047" lon="6.71244">
        <ele>1248</ele>
        <time>2021-08-28T14:25:15Z</time>
      </trkpt>
      <trkpt lat="44.41053" lon="6.71252">
        <ele>1248.6</ele>
        <time>2021-08-28T14:25:19Z</time>
      </trkpt>
      <trkpt lat="44.41059" lon="6.71258">
        <ele>1249.4</ele>
        <time>2021-08-28T14:25:23Z</time>
      </trkpt>
      <trkpt lat="44.41066" lon="6.71265">
        <ele>1250.2</ele>
        <time>2021-08-28T14:25:27Z</time>
      </trkpt>
      <trkpt lat="44.41073" lon="6.71273">
        <ele>1251</ele>
        <time>2021-08-28T14:25:31Z</time>
      </trkpt>
      <trkpt lat="44.41078" lon="6.71281">
        <ele>1251.5</ele>
        <time>2021-08-28T14:25:35Z</time>
      </trkpt>
      <trkpt lat="44.41082" lon="6.71289">
        <ele>1251.9</ele>
        <time>2021-08-28T14:25:39Z</time>
      </trkpt>
      <trkpt lat="44.41086" lon="6.71299">
        <ele>1252.2</ele>
        <time>2021-08-28T14:25:43Z</time>
      </trkpt>
      <trkpt lat="44.41089" lon="6.7131">
        <ele>1252.4</ele>
        <time>2021-08-28T14:25:47Z</time>
      </trkpt>
      <trkpt lat="44.41094" lon="6.7132">
        <ele>1252.8</ele>
        <time>2021-08-28T14:25:51Z</time>
      </trkpt>
      <trkpt lat="44.41101" lon="6.71326">
        <ele>1253.4</ele>
        <time>2021-08-28T14:25:55Z</time>
      </trkpt>
      <trkpt lat="44.41108" lon="6.71333">
        <ele>1254</ele>
        <time>2021-08-28T14:25:59Z</time>
      </trkpt>
      <trkpt lat="44.41113" lon="6.71341">
        <ele>1254.5</ele>
        <time>2021-08-28T14:26:03Z</time>
      </trkpt>
      <trkpt lat="44.41119" lon="6.71348">
        <ele>1255.1</ele>
        <time>2021-08-28T14:26:07Z</time>
      </trkpt>
      <trkpt lat="44.41125" lon="6.71355">
        <ele>1255.6</ele>
        <time>2021-08-28T14:26:11Z</time>
      </trkpt>
      <trkpt lat="44.41134" lon="6.71359">
        <ele>1256.5</ele>
        <time>2021-08-28T14:26:15Z</time>
      </trkpt>
      <trkpt lat="44.41142" lon="6.71362">
        <ele>1257.2</ele>
        <time>2021-08-28T14:26:19Z</time>
      </trkpt>
      <trkpt lat="44.4115" lon="6.71365">
        <ele>1257.9</ele>
        <time>2021-08-28T14:26:23Z</time>
      </trkpt>
      <trkpt lat="44.41157" lon="6.71368">
        <ele>1258.4</ele>
        <time>2021-08-28T14:26:27Z</time>
      </trkpt>
      <trkpt lat="44.41165" lon="6.71371">
        <ele>1259</ele>
        <time>2021-08-28T14:26:31Z</time>
      </trkpt>
      <trkpt lat="44.41172" lon="6.71376">
        <ele>1259.8</ele>
        <time>2021-08-28T14:26:35Z</time>
      </trkpt>
      <trkpt lat="44.41179" lon="6.71382">
        <ele>1260.8</ele>
        <time>2021-08-28T14:26:39Z</time>
      </trkpt>
      <trkpt lat="44.41186" lon="6.71388">
        <ele>1261.7</ele>
        <time>2021-08-28T14:26:43Z</time>
      </trkpt>
      <trkpt lat="44.41193" lon="6.71394">
        <ele>1262.7</ele>
        <time>2021-08-28T14:26:47Z</time>
      </trkpt>
      <trkpt lat="44.41199" lon="6.714">
        <ele>1263.5</ele>
        <time>2021-08-28T14:26:51Z</time>
      </trkpt>
      <trkpt lat="44.41205" lon="6.71407">
        <ele>1264.3</ele>
        <time>2021-08-28T14:26:55Z</time>
      </trkpt>
      <trkpt lat="44.41212" lon="6.71414">
        <ele>1265.3</ele>
        <time>2021-08-28T14:26:59Z</time>
      </trkpt>
      <trkpt lat="44.41218" lon="6.71421">
        <ele>1266.4</ele>
        <time>2021-08-28T14:27:03Z</time>
      </trkpt>
      <trkpt lat="44.41224" lon="6.7143">
        <ele>1267.8</ele>
        <time>2021-08-28T14:27:07Z</time>
      </trkpt>
      <trkpt lat="44.4123" lon="6.71438">
        <ele>1269.2</ele>
        <time>2021-08-28T14:27:11Z</time>
      </trkpt>
      <trkpt lat="44.41235" lon="6.71447">
        <ele>1270.5</ele>
        <time>2021-08-28T14:27:15Z</time>
      </trkpt>
      <trkpt lat="44.41238" lon="6.71458">
        <ele>1271.4</ele>
        <time>2021-08-28T14:27:19Z</time>
      </trkpt>
      <trkpt lat="44.4124" lon="6.7147">
        <ele>1272.2</ele>
        <time>2021-08-28T14:27:23Z</time>
      </trkpt>
      <trkpt lat="44.41242" lon="6.71481">
        <ele>1273</ele>
        <time>2021-08-28T14:27:27Z</time>
      </trkpt>
      <trkpt lat="44.41244" lon="6.71493">
        <ele>1273.7</ele>
        <time>2021-08-28T14:27:31Z</time>
      </trkpt>
      <trkpt lat="44.41246" lon="6.71504">
        <ele>1274.3</ele>
        <time>2021-08-28T14:27:35Z</time>
      </trkpt>
      <trkpt lat="44.41249" lon="6.71514">
        <ele>1274.8</ele>
        <time>2021-08-28T14:27:39Z</time>
      </trkpt>
      <trkpt lat="44.41255" lon="6.7152">
        <ele>1275.6</ele>
        <time>2021-08-28T14:27:43Z</time>
      </trkpt>
      <trkpt lat="44.4126" lon="6.71525">
        <ele>1276.1</ele>
        <time>2021-08-28T14:27:47Z</time>
      </trkpt>
      <trkpt lat="44.41265" lon="6.7153">
        <ele>1276.7</ele>
        <time>2021-08-28T14:27:51Z</time>
      </trkpt>
      <trkpt lat="44.41271" lon="6.71536">
        <ele>1277.4</ele>
        <time>2021-08-28T14:27:55Z</time>
      </trkpt>
      <trkpt lat="44.41278" lon="6.71542">
        <ele>1278.2</ele>
        <time>2021-08-28T14:27:59Z</time>
      </trkpt>
      <trkpt lat="44.41284" lon="6.71548">
        <ele>1278.9</ele>
        <time>2021-08-28T14:28:03Z</time>
      </trkpt>
      <trkpt lat="44.41288" lon="6.71553">
        <ele>1279.4</ele>
        <time>2021-08-28T14:28:07Z</time>
      </trkpt>
      <trkpt lat="44.41291" lon="6.71564">
        <ele>1279.8</ele>
        <time>2021-08-28T14:28:11Z</time>
      </trkpt>
      <trkpt lat="44.41291" lon="6.71579">
        <ele>1279.9</ele>
        <time>2021-08-28T14:28:15Z</time>
      </trkpt>
      <trkpt lat="44.41293" lon="6.71594">
        <ele>1280.4</ele>
        <time>2021-08-28T14:28:19Z</time>
      </trkpt>
      <trkpt lat="44.41295" lon="6.71609">
        <ele>1281</ele>
        <time>2021-08-28T14:28:23Z</time>
      </trkpt>
      <trkpt lat="44.41295" lon="6.71622">
        <ele>1281.3</ele>
        <time>2021-08-28T14:28:27Z</time>
      </trkpt>
      <trkpt lat="44.41295" lon="6.71633">
        <ele>1281.5</ele>
        <time>2021-08-28T14:28:31Z</time>
      </trkpt>
      <trkpt lat="44.41298" lon="6.71646">
        <ele>1282</ele>
        <time>2021-08-28T14:28:35Z</time>
      </trkpt>
      <trkpt lat="44.41298" lon="6.71659">
        <ele>1282.3</ele>
        <time>2021-08-28T14:28:39Z</time>
      </trkpt>
      <trkpt lat="44.41303" lon="6.71673">
        <ele>1282.6</ele>
        <time>2021-08-28T14:28:43Z</time>
      </trkpt>
      <trkpt lat="44.41307" lon="6.71684">
        <ele>1282.6</ele>
        <time>2021-08-28T14:28:47Z</time>
      </trkpt>
      <trkpt lat="44.41312" lon="6.71692">
        <ele>1282.8</ele>
        <time>2021-08-28T14:28:51Z</time>
      </trkpt>
      <trkpt lat="44.41316" lon="6.71701">
        <ele>1282.8</ele>
        <time>2021-08-28T14:28:55Z</time>
      </trkpt>
      <trkpt lat="44.41321" lon="6.7171">
        <ele>1283</ele>
        <time>2021-08-28T14:28:59Z</time>
      </trkpt>
      <trkpt lat="44.41327" lon="6.71717">
        <ele>1283.3</ele>
        <time>2021-08-28T14:29:03Z</time>
      </trkpt>
      <trkpt lat="44.41334" lon="6.71726">
        <ele>1283.6</ele>
        <time>2021-08-28T14:29:07Z</time>
      </trkpt>
      <trkpt lat="44.41344" lon="6.71736">
        <ele>1284.3</ele>
        <time>2021-08-28T14:29:11Z</time>
      </trkpt>
      <trkpt lat="44.4135" lon="6.71742">
        <ele>1284.6</ele>
        <time>2021-08-28T14:29:15Z</time>
      </trkpt>
      <trkpt lat="44.41358" lon="6.7174">
        <ele>1285.4</ele>
        <time>2021-08-28T14:29:19Z</time>
      </trkpt>
      <trkpt lat="44.41365" lon="6.71737">
        <ele>1286.1</ele>
        <time>2021-08-28T14:29:23Z</time>
      </trkpt>
      <trkpt lat="44.41371" lon="6.71744">
        <ele>1286.4</ele>
        <time>2021-08-28T14:29:27Z</time>
      </trkpt>
      <trkpt lat="44.41376" lon="6.71755">
        <ele>1286.2</ele>
        <time>2021-08-28T14:29:31Z</time>
      </trkpt>
      <trkpt lat="44.41385" lon="6.71764">
        <ele>1286.3</ele>
        <time>2021-08-28T14:29:35Z</time>
      </trkpt>
      <trkpt lat="44.41396" lon="6.71771">
        <ele>1286.7</ele>
        <time>2021-08-28T14:29:39Z</time>
      </trkpt>
      <trkpt lat="44.41407" lon="6.71776">
        <ele>1287.3</ele>
        <time>2021-08-28T14:29:43Z</time>
      </trkpt>
      <trkpt lat="44.41416" lon="6.71781">
        <ele>1287.7</ele>
        <time>2021-08-28T14:29:47Z</time>
      </trkpt>
      <trkpt lat="44.41425" lon="6.71787">
        <ele>1288.1</ele>
        <time>2021-08-28T14:29:51Z</time>
      </trkpt>
      <trkpt lat="44.41433" lon="6.71793">
        <ele>1288.4</ele>
        <time>2021-08-28T14:29:56Z</time>
      </trkpt>
      <trkpt lat="44.41442" lon="6.71798">
        <ele>1288.8</ele>
        <time>2021-08-28T14:29:59Z</time>
      </trkpt>
      <trkpt lat="44.41449" lon="6.71805">
        <ele>1288.9</ele>
        <time>2021-08-28T14:30:03Z</time>
      </trkpt>
      <trkpt lat="44.41458" lon="6.71813">
        <ele>1289.1</ele>
        <time>2021-08-28T14:30:07Z</time>
      </trkpt>
      <trkpt lat="44.41465" lon="6.71821">
        <ele>1289</ele>
        <time>2021-08-28T14:30:11Z</time>
      </trkpt>
      <trkpt lat="44.41471" lon="6.71827">
        <ele>1289.1</ele>
        <time>2021-08-28T14:30:15Z</time>
      </trkpt>
      <trkpt lat="44.41476" lon="6.71835">
        <ele>1288.9</ele>
        <time>2021-08-28T14:30:19Z</time>
      </trkpt>
      <trkpt lat="44.41482" lon="6.71845">
        <ele>1289</ele>
        <time>2021-08-28T14:30:23Z</time>
      </trkpt>
      <trkpt lat="44.41485" lon="6.71853">
        <ele>1288.8</ele>
        <time>2021-08-28T14:30:27Z</time>
      </trkpt>
      <trkpt lat="44.41487" lon="6.71859">
        <ele>1288.7</ele>
        <time>2021-08-28T14:30:31Z</time>
      </trkpt>
      <trkpt lat="44.41482" lon="6.71872">
        <ele>1287.7</ele>
        <time>2021-08-28T14:30:35Z</time>
      </trkpt>
      <trkpt lat="44.41474" lon="6.7189">
        <ele>1286.3</ele>
        <time>2021-08-28T14:30:39Z</time>
      </trkpt>
      <trkpt lat="44.41465" lon="6.7191">
        <ele>1284.8</ele>
        <time>2021-08-28T14:30:43Z</time>
      </trkpt>
      <trkpt lat="44.41454" lon="6.71932">
        <ele>1282.5</ele>
        <time>2021-08-28T14:30:47Z</time>
      </trkpt>
      <trkpt lat="44.41441" lon="6.71956">
        <ele>1280</ele>
        <time>2021-08-28T14:30:51Z</time>
      </trkpt>
      <trkpt lat="44.41426" lon="6.71982">
        <ele>1277.5</ele>
        <time>2021-08-28T14:30:55Z</time>
      </trkpt>
      <trkpt lat="44.41413" lon="6.72013">
        <ele>1274.6</ele>
        <time>2021-08-28T14:30:59Z</time>
      </trkpt>
      <trkpt lat="44.41406" lon="6.72047">
        <ele>1271.3</ele>
        <time>2021-08-28T14:31:03Z</time>
      </trkpt>
      <trkpt lat="44.41412" lon="6.72076">
        <ele>1268.7</ele>
        <time>2021-08-28T14:31:07Z</time>
      </trkpt>
      <trkpt lat="44.41423" lon="6.72115">
        <ele>1266.1</ele>
        <time>2021-08-28T14:31:11Z</time>
      </trkpt>
      <trkpt lat="44.41433" lon="6.72158">
        <ele>1263.5</ele>
        <time>2021-08-28T14:31:15Z</time>
      </trkpt>
      <trkpt lat="44.41451" lon="6.72192">
        <ele>1260.9</ele>
        <time>2021-08-28T14:31:19Z</time>
      </trkpt>
      <trkpt lat="44.41472" lon="6.72212">
        <ele>1259.2</ele>
        <time>2021-08-28T14:31:23Z</time>
      </trkpt>
      <trkpt lat="44.41491" lon="6.72223">
        <ele>1258.3</ele>
        <time>2021-08-28T14:31:27Z</time>
      </trkpt>
      <trkpt lat="44.41509" lon="6.72228">
        <ele>1258.2</ele>
        <time>2021-08-28T14:31:31Z</time>
      </trkpt>
      <trkpt lat="44.41526" lon="6.72244">
        <ele>1257.5</ele>
        <time>2021-08-28T14:31:35Z</time>
      </trkpt>
      <trkpt lat="44.41548" lon="6.72263">
        <ele>1256.5</ele>
        <time>2021-08-28T14:31:39Z</time>
      </trkpt>
      <trkpt lat="44.41569" lon="6.72284">
        <ele>1255.3</ele>
        <time>2021-08-28T14:31:43Z</time>
      </trkpt>
      <trkpt lat="44.41583" lon="6.72314">
        <ele>1252.8</ele>
        <time>2021-08-28T14:31:47Z</time>
      </trkpt>
      <trkpt lat="44.41602" lon="6.72342">
        <ele>1253.4</ele>
        <time>2021-08-28T14:31:51Z</time>
      </trkpt>
      <trkpt lat="44.41622" lon="6.72369">
        <ele>1254.1</ele>
        <time>2021-08-28T14:31:55Z</time>
      </trkpt>
      <trkpt lat="44.4164" lon="6.7239">
        <ele>1254.3</ele>
        <time>2021-08-28T14:31:59Z</time>
      </trkpt>
      <trkpt lat="44.41658" lon="6.72416">
        <ele>1253.3</ele>
        <time>2021-08-28T14:32:03Z</time>
      </trkpt>
      <trkpt lat="44.41675" lon="6.72449">
        <ele>1251.2</ele>
        <time>2021-08-28T14:32:07Z</time>
      </trkpt>
      <trkpt lat="44.41688" lon="6.72485">
        <ele>1248</ele>
        <time>2021-08-28T14:32:11Z</time>
      </trkpt>
      <trkpt lat="44.41686" lon="6.72527">
        <ele>1243.3</ele>
        <time>2021-08-28T14:32:15Z</time>
      </trkpt>
      <trkpt lat="44.41687" lon="6.72573">
        <ele>1239.2</ele>
        <time>2021-08-28T14:32:19Z</time>
      </trkpt>
      <trkpt lat="44.41694" lon="6.72603">
        <ele>1237.6</ele>
        <time>2021-08-28T14:32:23Z</time>
      </trkpt>
      <trkpt lat="44.4171" lon="6.7261">
        <ele>1238.7</ele>
        <time>2021-08-28T14:32:27Z</time>
      </trkpt>
      <trkpt lat="44.41723" lon="6.72607">
        <ele>1240.3</ele>
        <time>2021-08-28T14:32:31Z</time>
      </trkpt>
      <trkpt lat="44.41738" lon="6.72604">
        <ele>1242</ele>
        <time>2021-08-28T14:32:35Z</time>
      </trkpt>
      <trkpt lat="44.41752" lon="6.72606">
        <ele>1243.8</ele>
        <time>2021-08-28T14:32:39Z</time>
      </trkpt>
      <trkpt lat="44.41763" lon="6.72616">
        <ele>1246.4</ele>
        <time>2021-08-28T14:32:43Z</time>
      </trkpt>
      <trkpt lat="44.41773" lon="6.72631">
        <ele>1248</ele>
        <time>2021-08-28T14:32:47Z</time>
      </trkpt>
      <trkpt lat="44.4178" lon="6.72648">
        <ele>1248.1</ele>
        <time>2021-08-28T14:32:51Z</time>
      </trkpt>
      <trkpt lat="44.4178" lon="6.72662">
        <ele>1246.5</ele>
        <time>2021-08-28T14:32:55Z</time>
      </trkpt>
      <trkpt lat="44.41781" lon="6.72674">
        <ele>1245.4</ele>
        <time>2021-08-28T14:32:59Z</time>
      </trkpt>
      <trkpt lat="44.41783" lon="6.72686">
        <ele>1244.6</ele>
        <time>2021-08-28T14:33:03Z</time>
      </trkpt>
      <trkpt lat="44.41785" lon="6.72703">
        <ele>1243.3</ele>
        <time>2021-08-28T14:33:07Z</time>
      </trkpt>
      <trkpt lat="44.4179" lon="6.72724">
        <ele>1242.4</ele>
        <time>2021-08-28T14:33:11Z</time>
      </trkpt>
      <trkpt lat="44.41793" lon="6.72743">
        <ele>1241.1</ele>
        <time>2021-08-28T14:33:15Z</time>
      </trkpt>
      <trkpt lat="44.41797" lon="6.72762">
        <ele>1240.7</ele>
        <time>2021-08-28T14:33:19Z</time>
      </trkpt>
      <trkpt lat="44.41801" lon="6.72779">
        <ele>1240.8</ele>
        <time>2021-08-28T14:33:23Z</time>
      </trkpt>
      <trkpt lat="44.4181" lon="6.72794">
        <ele>1242.4</ele>
        <time>2021-08-28T14:33:27Z</time>
      </trkpt>
      <trkpt lat="44.41818" lon="6.72809">
        <ele>1243.9</ele>
        <time>2021-08-28T14:33:31Z</time>
      </trkpt>
      <trkpt lat="44.41828" lon="6.72818">
        <ele>1246.2</ele>
        <time>2021-08-28T14:33:35Z</time>
      </trkpt>
      <trkpt lat="44.41839" lon="6.72829">
        <ele>1248.8</ele>
        <time>2021-08-28T14:33:39Z</time>
      </trkpt>
      <trkpt lat="44.4185" lon="6.72842">
        <ele>1250.2</ele>
        <time>2021-08-28T14:33:43Z</time>
      </trkpt>
      <trkpt lat="44.41865" lon="6.72858">
        <ele>1251.7</ele>
        <time>2021-08-28T14:33:47Z</time>
      </trkpt>
      <trkpt lat="44.41877" lon="6.72875">
        <ele>1252.1</ele>
        <time>2021-08-28T14:33:51Z</time>
      </trkpt>
      <trkpt lat="44.41886" lon="6.7289">
        <ele>1252</ele>
        <time>2021-08-28T14:33:55Z</time>
      </trkpt>
      <trkpt lat="44.41891" lon="6.72905">
        <ele>1250.7</ele>
        <time>2021-08-28T14:33:59Z</time>
      </trkpt>
      <trkpt lat="44.41904" lon="6.72918">
        <ele>1252.1</ele>
        <time>2021-08-28T14:34:03Z</time>
      </trkpt>
      <trkpt lat="44.41922" lon="6.7293">
        <ele>1254.8</ele>
        <time>2021-08-28T14:34:07Z</time>
      </trkpt>
      <trkpt lat="44.41938" lon="6.72944">
        <ele>1257.1</ele>
        <time>2021-08-28T14:34:11Z</time>
      </trkpt>
      <trkpt lat="44.41949" lon="6.72964">
        <ele>1257</ele>
        <time>2021-08-28T14:34:15Z</time>
      </trkpt>
      <trkpt lat="44.41952" lon="6.72984">
        <ele>1254.5</ele>
        <time>2021-08-28T14:34:19Z</time>
      </trkpt>
      <trkpt lat="44.41956" lon="6.72995">
        <ele>1254</ele>
        <time>2021-08-28T14:34:23Z</time>
      </trkpt>
      <trkpt lat="44.41953" lon="6.73004">
        <ele>1251</ele>
        <time>2021-08-28T14:34:27Z</time>
      </trkpt>
      <trkpt lat="44.41944" lon="6.7301">
        <ele>1246.3</ele>
        <time>2021-08-28T14:34:31Z</time>
      </trkpt>
      <trkpt lat="44.41932" lon="6.73019">
        <ele>1239.7</ele>
        <time>2021-08-28T14:34:35Z</time>
      </trkpt>
      <trkpt lat="44.41924" lon="6.73035">
        <ele>1233.2</ele>
        <time>2021-08-28T14:34:39Z</time>
      </trkpt>
      <trkpt lat="44.41932" lon="6.73048">
        <ele>1233.3</ele>
        <time>2021-08-28T14:34:43Z</time>
      </trkpt>
      <trkpt lat="44.41943" lon="6.73058">
        <ele>1235.1</ele>
        <time>2021-08-28T14:34:47Z</time>
      </trkpt>
      <trkpt lat="44.4194" lon="6.73067">
        <ele>1232</ele>
        <time>2021-08-28T14:34:51Z</time>
      </trkpt>
      <trkpt lat="44.41936" lon="6.73073">
        <ele>1229.2</ele>
        <time>2021-08-28T14:34:55Z</time>
      </trkpt>
      <trkpt lat="44.41932" lon="6.7308">
        <ele>1226.3</ele>
        <time>2021-08-28T14:34:59Z</time>
      </trkpt>
      <trkpt lat="44.4192" lon="6.73091">
        <ele>1220.8</ele>
        <time>2021-08-28T14:35:03Z</time>
      </trkpt>
      <trkpt lat="44.41911" lon="6.73094">
        <ele>1219.2</ele>
        <time>2021-08-28T14:35:07Z</time>
      </trkpt>
      <trkpt lat="44.41896" lon="6.73099">
        <ele>1218.3</ele>
        <time>2021-08-28T14:35:11Z</time>
      </trkpt>
      <trkpt lat="44.41885" lon="6.73112">
        <ele>1217.1</ele>
        <time>2021-08-28T14:35:15Z</time>
      </trkpt>
      <trkpt lat="44.41901" lon="6.73101">
        <ele>1218.4</ele>
        <time>2021-08-28T14:40:19Z</time>
      </trkpt>
      <trkpt lat="44.41906" lon="6.73116">
        <ele>1217.9</ele>
        <time>2021-08-28T15:05:59Z</time>
      </trkpt>
    </trkseg>
  </trk>
</gpx>